<?xml version="1.0" encoding="UTF-8" standalone="no" ?>
<gpx xmlns="http://www.topografix.com/GPX/1/1" xmlns:xsi="http://www.w3.org/2001/XMLSchema-instance" xsi:schemaLocation="http://www.topografix.com/GPX/1/1 http://www.topografix.com/GPX/1/1/gpx.xsd" version="1.1" creator="VisuGPX - https://www.visugpx.com">
  <metadata>
    <name>rando St Sauveur : boucle verte (7,5 km)</name>
    <desc><![CDATA[Départ : parking de l'église. Rando sans aucune difficulté, très bien balisée. Le début du parcours  sur route est un peu long (presque 2 km). Le reste de la rando se déroule sur des chemins.]]></desc>
  </metadata>
  <trk>
    <name><![CDATA[rando St Sauveur : boucle verte (7,5 km)_1]]></name>
    <trkseg>
      <trkpt lat="44.86853" lon="0.58727">
        <ele>104.6</ele>
        <time>2019-09-24T12:07:47Z</time>
      </trkpt>
      <trkpt lat="44.86853" lon="0.58727">
        <ele>167.87</ele>
        <time>2019-09-24T12:07:51Z</time>
      </trkpt>
      <trkpt lat="44.86854" lon="0.58721">
        <ele>168.876</ele>
        <time>2019-09-24T12:08:00Z</time>
      </trkpt>
      <trkpt lat="44.86854" lon="0.58714">
        <ele>168.052</ele>
        <time>2019-09-24T12:08:05Z</time>
      </trkpt>
      <trkpt lat="44.86852" lon="0.58705">
        <ele>168.014</ele>
        <time>2019-09-24T12:08:11Z</time>
      </trkpt>
      <trkpt lat="44.86848" lon="0.587">
        <ele>167.677</ele>
        <time>2019-09-24T12:08:17Z</time>
      </trkpt>
      <trkpt lat="44.86846" lon="0.58698">
        <ele>167.632</ele>
        <time>2019-09-24T12:08:19Z</time>
      </trkpt>
      <trkpt lat="44.86842" lon="0.58694">
        <ele>167.519</ele>
        <time>2019-09-24T12:08:22Z</time>
      </trkpt>
      <trkpt lat="44.86839" lon="0.58689">
        <ele>167.416</ele>
        <time>2019-09-24T12:08:25Z</time>
      </trkpt>
      <trkpt lat="44.86837" lon="0.58682">
        <ele>167.286</ele>
        <time>2019-09-24T12:08:31Z</time>
      </trkpt>
      <trkpt lat="44.86837" lon="0.58675">
        <ele>167.232</ele>
        <time>2019-09-24T12:08:36Z</time>
      </trkpt>
      <trkpt lat="44.86838" lon="0.58667">
        <ele>167.236</ele>
        <time>2019-09-24T12:08:39Z</time>
      </trkpt>
      <trkpt lat="44.86839" lon="0.58662">
        <ele>167.275</ele>
        <time>2019-09-24T12:08:41Z</time>
      </trkpt>
      <trkpt lat="44.86839" lon="0.58654">
        <ele>167.38</ele>
        <time>2019-09-24T12:08:45Z</time>
      </trkpt>
      <trkpt lat="44.8684" lon="0.58649">
        <ele>167.455</ele>
        <time>2019-09-24T12:08:47Z</time>
      </trkpt>
      <trkpt lat="44.8684" lon="0.5864">
        <ele>167.573</ele>
        <time>2019-09-24T12:08:50Z</time>
      </trkpt>
      <trkpt lat="44.8684" lon="0.58636">
        <ele>167.608</ele>
        <time>2019-09-24T12:08:51Z</time>
      </trkpt>
      <trkpt lat="44.8684" lon="0.58633">
        <ele>167.641</ele>
        <time>2019-09-24T12:08:52Z</time>
      </trkpt>
      <trkpt lat="44.8684" lon="0.58629">
        <ele>167.698</ele>
        <time>2019-09-24T12:08:54Z</time>
      </trkpt>
      <trkpt lat="44.86843" lon="0.58622">
        <ele>167.774</ele>
        <time>2019-09-24T12:08:59Z</time>
      </trkpt>
      <trkpt lat="44.86846" lon="0.58617">
        <ele>167.745</ele>
        <time>2019-09-24T12:09:03Z</time>
      </trkpt>
      <trkpt lat="44.8685" lon="0.58612">
        <ele>167.691</ele>
        <time>2019-09-24T12:09:06Z</time>
      </trkpt>
      <trkpt lat="44.86852" lon="0.5861">
        <ele>167.617</ele>
        <time>2019-09-24T12:09:09Z</time>
      </trkpt>
      <trkpt lat="44.86858" lon="0.58607">
        <ele>167.469</ele>
        <time>2019-09-24T12:09:14Z</time>
      </trkpt>
      <trkpt lat="44.86863" lon="0.58603">
        <ele>167.348</ele>
        <time>2019-09-24T12:09:18Z</time>
      </trkpt>
      <trkpt lat="44.86868" lon="0.58604">
        <ele>167.257</ele>
        <time>2019-09-24T12:09:21Z</time>
      </trkpt>
      <trkpt lat="44.86871" lon="0.58606">
        <ele>167.189</ele>
        <time>2019-09-24T12:09:23Z</time>
      </trkpt>
      <trkpt lat="44.86877" lon="0.58604">
        <ele>167.043</ele>
        <time>2019-09-24T12:09:27Z</time>
      </trkpt>
      <trkpt lat="44.86877" lon="0.58604">
        <ele>167.043</ele>
        <time>2019-09-24T12:09:34Z</time>
      </trkpt>
      <trkpt lat="44.86877" lon="0.58604">
        <ele>167.043</ele>
        <time>2019-09-24T12:09:35Z</time>
      </trkpt>
      <trkpt lat="44.86873" lon="0.58598">
        <ele>166.666</ele>
        <time>2019-09-24T12:09:38Z</time>
      </trkpt>
      <trkpt lat="44.86868" lon="0.58596">
        <ele>166.654</ele>
        <time>2019-09-24T12:09:43Z</time>
      </trkpt>
      <trkpt lat="44.86863" lon="0.58597">
        <ele>166.673</ele>
        <time>2019-09-24T12:09:46Z</time>
      </trkpt>
      <trkpt lat="44.8686" lon="0.58598">
        <ele>166.691</ele>
        <time>2019-09-24T12:09:48Z</time>
      </trkpt>
      <trkpt lat="44.86855" lon="0.586">
        <ele>166.708</ele>
        <time>2019-09-24T12:09:51Z</time>
      </trkpt>
      <trkpt lat="44.8685" lon="0.586">
        <ele>166.741</ele>
        <time>2019-09-24T12:09:55Z</time>
      </trkpt>
      <trkpt lat="44.86847" lon="0.58595">
        <ele>166.811</ele>
        <time>2019-09-24T12:09:59Z</time>
      </trkpt>
      <trkpt lat="44.86844" lon="0.58592">
        <ele>166.865</ele>
        <time>2019-09-24T12:10:02Z</time>
      </trkpt>
      <trkpt lat="44.86842" lon="0.58586">
        <ele>166.945</ele>
        <time>2019-09-24T12:10:06Z</time>
      </trkpt>
      <trkpt lat="44.86841" lon="0.58579">
        <ele>167.025</ele>
        <time>2019-09-24T12:10:10Z</time>
      </trkpt>
      <trkpt lat="44.8684" lon="0.58573">
        <ele>167.106</ele>
        <time>2019-09-24T12:10:15Z</time>
      </trkpt>
      <trkpt lat="44.8684" lon="0.5857">
        <ele>167.133</ele>
        <time>2019-09-24T12:10:18Z</time>
      </trkpt>
      <trkpt lat="44.86839" lon="0.58566">
        <ele>167.146</ele>
        <time>2019-09-24T12:10:20Z</time>
      </trkpt>
      <trkpt lat="44.86838" lon="0.5856">
        <ele>167.154</ele>
        <time>2019-09-24T12:10:23Z</time>
      </trkpt>
      <trkpt lat="44.86838" lon="0.58553">
        <ele>167.166</ele>
        <time>2019-09-24T12:10:27Z</time>
      </trkpt>
      <trkpt lat="44.86836" lon="0.58545">
        <ele>167.169</ele>
        <time>2019-09-24T12:10:32Z</time>
      </trkpt>
      <trkpt lat="44.86835" lon="0.58541">
        <ele>167.163</ele>
        <time>2019-09-24T12:10:35Z</time>
      </trkpt>
      <trkpt lat="44.86835" lon="0.58533">
        <ele>167.147</ele>
        <time>2019-09-24T12:10:38Z</time>
      </trkpt>
      <trkpt lat="44.86835" lon="0.58529">
        <ele>167.128</ele>
        <time>2019-09-24T12:10:40Z</time>
      </trkpt>
      <trkpt lat="44.86835" lon="0.58525">
        <ele>167.104</ele>
        <time>2019-09-24T12:10:42Z</time>
      </trkpt>
      <trkpt lat="44.86835" lon="0.5852">
        <ele>167.076</ele>
        <time>2019-09-24T12:10:44Z</time>
      </trkpt>
      <trkpt lat="44.86835" lon="0.58512">
        <ele>167.008</ele>
        <time>2019-09-24T12:10:48Z</time>
      </trkpt>
      <trkpt lat="44.86834" lon="0.58506">
        <ele>166.943</ele>
        <time>2019-09-24T12:10:51Z</time>
      </trkpt>
      <trkpt lat="44.86833" lon="0.58502">
        <ele>166.893</ele>
        <time>2019-09-24T12:10:53Z</time>
      </trkpt>
      <trkpt lat="44.86833" lon="0.58498">
        <ele>166.838</ele>
        <time>2019-09-24T12:10:55Z</time>
      </trkpt>
      <trkpt lat="44.86832" lon="0.58493">
        <ele>166.776</ele>
        <time>2019-09-24T12:10:57Z</time>
      </trkpt>
      <trkpt lat="44.86831" lon="0.58488">
        <ele>166.708</ele>
        <time>2019-09-24T12:10:59Z</time>
      </trkpt>
      <trkpt lat="44.8683" lon="0.58483">
        <ele>166.633</ele>
        <time>2019-09-24T12:11:01Z</time>
      </trkpt>
      <trkpt lat="44.8683" lon="0.58479">
        <ele>166.554</ele>
        <time>2019-09-24T12:11:03Z</time>
      </trkpt>
      <trkpt lat="44.86829" lon="0.58475">
        <ele>166.432</ele>
        <time>2019-09-24T12:11:06Z</time>
      </trkpt>
      <trkpt lat="44.8683" lon="0.58467">
        <ele>166.267</ele>
        <time>2019-09-24T12:11:10Z</time>
      </trkpt>
      <trkpt lat="44.8683" lon="0.58464">
        <ele>166.183</ele>
        <time>2019-09-24T12:11:12Z</time>
      </trkpt>
      <trkpt lat="44.8683" lon="0.58457">
        <ele>166.057</ele>
        <time>2019-09-24T12:11:15Z</time>
      </trkpt>
      <trkpt lat="44.8683" lon="0.58452">
        <ele>165.969</ele>
        <time>2019-09-24T12:11:17Z</time>
      </trkpt>
      <trkpt lat="44.8683" lon="0.58448">
        <ele>165.876</ele>
        <time>2019-09-24T12:11:19Z</time>
      </trkpt>
      <trkpt lat="44.8683" lon="0.5844">
        <ele>165.683</ele>
        <time>2019-09-24T12:11:23Z</time>
      </trkpt>
      <trkpt lat="44.8683" lon="0.58435">
        <ele>165.582</ele>
        <time>2019-09-24T12:11:25Z</time>
      </trkpt>
      <trkpt lat="44.86831" lon="0.58429">
        <ele>165.38</ele>
        <time>2019-09-24T12:11:29Z</time>
      </trkpt>
      <trkpt lat="44.86829" lon="0.58421">
        <ele>165.177</ele>
        <time>2019-09-24T12:11:33Z</time>
      </trkpt>
      <trkpt lat="44.86829" lon="0.58413">
        <ele>164.977</ele>
        <time>2019-09-24T12:11:37Z</time>
      </trkpt>
      <trkpt lat="44.86827" lon="0.58406">
        <ele>164.829</ele>
        <time>2019-09-24T12:11:40Z</time>
      </trkpt>
      <trkpt lat="44.86825" lon="0.58401">
        <ele>164.681</ele>
        <time>2019-09-24T12:11:43Z</time>
      </trkpt>
      <trkpt lat="44.86824" lon="0.58397">
        <ele>164.535</ele>
        <time>2019-09-24T12:11:46Z</time>
      </trkpt>
      <trkpt lat="44.86822" lon="0.58389">
        <ele>164.336</ele>
        <time>2019-09-24T12:11:50Z</time>
      </trkpt>
      <trkpt lat="44.8682" lon="0.58382">
        <ele>164.132</ele>
        <time>2019-09-24T12:11:54Z</time>
      </trkpt>
      <trkpt lat="44.86819" lon="0.58378">
        <ele>164.028</ele>
        <time>2019-09-24T12:11:56Z</time>
      </trkpt>
      <trkpt lat="44.86818" lon="0.58375">
        <ele>163.923</ele>
        <time>2019-09-24T12:11:58Z</time>
      </trkpt>
      <trkpt lat="44.86817" lon="0.58372">
        <ele>163.818</ele>
        <time>2019-09-24T12:12:00Z</time>
      </trkpt>
      <trkpt lat="44.86816" lon="0.58364">
        <ele>163.604</ele>
        <time>2019-09-24T12:12:04Z</time>
      </trkpt>
      <trkpt lat="44.86815" lon="0.58358">
        <ele>163.44</ele>
        <time>2019-09-24T12:12:07Z</time>
      </trkpt>
      <trkpt lat="44.86814" lon="0.58352">
        <ele>163.273</ele>
        <time>2019-09-24T12:12:10Z</time>
      </trkpt>
      <trkpt lat="44.86812" lon="0.58346">
        <ele>163.104</ele>
        <time>2019-09-24T12:12:13Z</time>
      </trkpt>
      <trkpt lat="44.86811" lon="0.58338">
        <ele>162.931</ele>
        <time>2019-09-24T12:12:16Z</time>
      </trkpt>
      <trkpt lat="44.86811" lon="0.58334">
        <ele>162.814</ele>
        <time>2019-09-24T12:12:18Z</time>
      </trkpt>
      <trkpt lat="44.86812" lon="0.58326">
        <ele>162.578</ele>
        <time>2019-09-24T12:12:22Z</time>
      </trkpt>
      <trkpt lat="44.86811" lon="0.58319">
        <ele>162.4</ele>
        <time>2019-09-24T12:12:25Z</time>
      </trkpt>
      <trkpt lat="44.86812" lon="0.58313">
        <ele>162.222</ele>
        <time>2019-09-24T12:12:28Z</time>
      </trkpt>
      <trkpt lat="44.86811" lon="0.58307">
        <ele>162.04</ele>
        <time>2019-09-24T12:12:31Z</time>
      </trkpt>
      <trkpt lat="44.8681" lon="0.583">
        <ele>161.792</ele>
        <time>2019-09-24T12:12:35Z</time>
      </trkpt>
      <trkpt lat="44.86809" lon="0.58292">
        <ele>161.541</ele>
        <time>2019-09-24T12:12:39Z</time>
      </trkpt>
      <trkpt lat="44.86807" lon="0.58286">
        <ele>161.357</ele>
        <time>2019-09-24T12:12:42Z</time>
      </trkpt>
      <trkpt lat="44.86806" lon="0.58279">
        <ele>161.23</ele>
        <time>2019-09-24T12:12:44Z</time>
      </trkpt>
      <trkpt lat="44.86807" lon="0.58271">
        <ele>160.973</ele>
        <time>2019-09-24T12:12:48Z</time>
      </trkpt>
      <trkpt lat="44.86807" lon="0.58264">
        <ele>160.782</ele>
        <time>2019-09-24T12:12:51Z</time>
      </trkpt>
      <trkpt lat="44.86807" lon="0.58259">
        <ele>160.592</ele>
        <time>2019-09-24T12:12:54Z</time>
      </trkpt>
      <trkpt lat="44.86807" lon="0.58255">
        <ele>160.467</ele>
        <time>2019-09-24T12:12:56Z</time>
      </trkpt>
      <trkpt lat="44.86807" lon="0.58252">
        <ele>160.341</ele>
        <time>2019-09-24T12:12:58Z</time>
      </trkpt>
      <trkpt lat="44.86807" lon="0.58248">
        <ele>160.216</ele>
        <time>2019-09-24T12:13:00Z</time>
      </trkpt>
      <trkpt lat="44.86807" lon="0.58244">
        <ele>160.091</ele>
        <time>2019-09-24T12:13:02Z</time>
      </trkpt>
      <trkpt lat="44.86807" lon="0.58239">
        <ele>159.91</ele>
        <time>2019-09-24T12:13:05Z</time>
      </trkpt>
      <trkpt lat="44.86807" lon="0.58235">
        <ele>159.79</ele>
        <time>2019-09-24T12:13:07Z</time>
      </trkpt>
      <trkpt lat="44.86808" lon="0.58229">
        <ele>159.558</ele>
        <time>2019-09-24T12:13:11Z</time>
      </trkpt>
      <trkpt lat="44.86807" lon="0.58221">
        <ele>159.387</ele>
        <time>2019-09-24T12:13:14Z</time>
      </trkpt>
      <trkpt lat="44.86807" lon="0.58214">
        <ele>159.167</ele>
        <time>2019-09-24T12:13:18Z</time>
      </trkpt>
      <trkpt lat="44.86805" lon="0.58206">
        <ele>159.002</ele>
        <time>2019-09-24T12:13:21Z</time>
      </trkpt>
      <trkpt lat="44.86805" lon="0.58199">
        <ele>158.836</ele>
        <time>2019-09-24T12:13:24Z</time>
      </trkpt>
      <trkpt lat="44.86805" lon="0.58196">
        <ele>158.728</ele>
        <time>2019-09-24T12:13:26Z</time>
      </trkpt>
      <trkpt lat="44.86804" lon="0.58192">
        <ele>158.62</ele>
        <time>2019-09-24T12:13:28Z</time>
      </trkpt>
      <trkpt lat="44.86803" lon="0.58185">
        <ele>158.455</ele>
        <time>2019-09-24T12:13:31Z</time>
      </trkpt>
      <trkpt lat="44.86802" lon="0.5818">
        <ele>158.345</ele>
        <time>2019-09-24T12:13:33Z</time>
      </trkpt>
      <trkpt lat="44.868" lon="0.58174">
        <ele>158.181</ele>
        <time>2019-09-24T12:13:36Z</time>
      </trkpt>
      <trkpt lat="44.86799" lon="0.5817">
        <ele>158.073</ele>
        <time>2019-09-24T12:13:38Z</time>
      </trkpt>
      <trkpt lat="44.86797" lon="0.58163">
        <ele>157.914</ele>
        <time>2019-09-24T12:13:41Z</time>
      </trkpt>
      <trkpt lat="44.86796" lon="0.58159">
        <ele>157.811</ele>
        <time>2019-09-24T12:13:43Z</time>
      </trkpt>
      <trkpt lat="44.86796" lon="0.58154">
        <ele>157.711</ele>
        <time>2019-09-24T12:13:45Z</time>
      </trkpt>
      <trkpt lat="44.86796" lon="0.58144">
        <ele>157.526</ele>
        <time>2019-09-24T12:13:49Z</time>
      </trkpt>
      <trkpt lat="44.86795" lon="0.58136">
        <ele>157.363</ele>
        <time>2019-09-24T12:13:53Z</time>
      </trkpt>
      <trkpt lat="44.86794" lon="0.58133">
        <ele>157.288</ele>
        <time>2019-09-24T12:13:55Z</time>
      </trkpt>
      <trkpt lat="44.86793" lon="0.58128">
        <ele>157.218</ele>
        <time>2019-09-24T12:13:57Z</time>
      </trkpt>
      <trkpt lat="44.86792" lon="0.58125">
        <ele>157.154</ele>
        <time>2019-09-24T12:13:59Z</time>
      </trkpt>
      <trkpt lat="44.86792" lon="0.58121">
        <ele>157.096</ele>
        <time>2019-09-24T12:14:01Z</time>
      </trkpt>
      <trkpt lat="44.8679" lon="0.58115">
        <ele>156.867</ele>
        <time>2019-09-24T12:14:10Z</time>
      </trkpt>
      <trkpt lat="44.8679" lon="0.58111">
        <ele>156.818</ele>
        <time>2019-09-24T12:14:12Z</time>
      </trkpt>
      <trkpt lat="44.86788" lon="0.58102">
        <ele>156.721</ele>
        <time>2019-09-24T12:14:16Z</time>
      </trkpt>
      <trkpt lat="44.86786" lon="0.58095">
        <ele>156.675</ele>
        <time>2019-09-24T12:14:18Z</time>
      </trkpt>
      <trkpt lat="44.86785" lon="0.58089">
        <ele>156.631</ele>
        <time>2019-09-24T12:14:20Z</time>
      </trkpt>
      <trkpt lat="44.86784" lon="0.58083">
        <ele>156.546</ele>
        <time>2019-09-24T12:14:24Z</time>
      </trkpt>
      <trkpt lat="44.86783" lon="0.5808">
        <ele>156.525</ele>
        <time>2019-09-24T12:14:25Z</time>
      </trkpt>
      <trkpt lat="44.86781" lon="0.58076">
        <ele>156.483</ele>
        <time>2019-09-24T12:14:27Z</time>
      </trkpt>
      <trkpt lat="44.8678" lon="0.58072">
        <ele>156.44</ele>
        <time>2019-09-24T12:14:29Z</time>
      </trkpt>
      <trkpt lat="44.86779" lon="0.58065">
        <ele>156.375</ele>
        <time>2019-09-24T12:14:32Z</time>
      </trkpt>
      <trkpt lat="44.86778" lon="0.5806">
        <ele>156.329</ele>
        <time>2019-09-24T12:14:34Z</time>
      </trkpt>
      <trkpt lat="44.86777" lon="0.58055">
        <ele>156.282</ele>
        <time>2019-09-24T12:14:36Z</time>
      </trkpt>
      <trkpt lat="44.86776" lon="0.58052">
        <ele>156.234</ele>
        <time>2019-09-24T12:14:38Z</time>
      </trkpt>
      <trkpt lat="44.86775" lon="0.58048">
        <ele>156.186</ele>
        <time>2019-09-24T12:14:40Z</time>
      </trkpt>
      <trkpt lat="44.86774" lon="0.58043">
        <ele>156.139</ele>
        <time>2019-09-24T12:14:42Z</time>
      </trkpt>
      <trkpt lat="44.86773" lon="0.58038">
        <ele>156.092</ele>
        <time>2019-09-24T12:14:44Z</time>
      </trkpt>
      <trkpt lat="44.86771" lon="0.58032">
        <ele>156.048</ele>
        <time>2019-09-24T12:14:46Z</time>
      </trkpt>
      <trkpt lat="44.8677" lon="0.58029">
        <ele>156.026</ele>
        <time>2019-09-24T12:14:47Z</time>
      </trkpt>
      <trkpt lat="44.86769" lon="0.58026">
        <ele>156.005</ele>
        <time>2019-09-24T12:14:48Z</time>
      </trkpt>
      <trkpt lat="44.86768" lon="0.58023">
        <ele>155.984</ele>
        <time>2019-09-24T12:14:49Z</time>
      </trkpt>
      <trkpt lat="44.86764" lon="0.58017">
        <ele>155.903</ele>
        <time>2019-09-24T12:14:53Z</time>
      </trkpt>
      <trkpt lat="44.86763" lon="0.58014">
        <ele>155.863</ele>
        <time>2019-09-24T12:14:55Z</time>
      </trkpt>
      <trkpt lat="44.8676" lon="0.58007">
        <ele>155.779</ele>
        <time>2019-09-24T12:14:59Z</time>
      </trkpt>
      <trkpt lat="44.86759" lon="0.58004">
        <ele>155.736</ele>
        <time>2019-09-24T12:15:01Z</time>
      </trkpt>
      <trkpt lat="44.86758" lon="0.57996">
        <ele>155.644</ele>
        <time>2019-09-24T12:15:05Z</time>
      </trkpt>
      <trkpt lat="44.86758" lon="0.57991">
        <ele>155.594</ele>
        <time>2019-09-24T12:15:07Z</time>
      </trkpt>
      <trkpt lat="44.86757" lon="0.57988">
        <ele>155.568</ele>
        <time>2019-09-24T12:15:08Z</time>
      </trkpt>
      <trkpt lat="44.86757" lon="0.57984">
        <ele>155.515</ele>
        <time>2019-09-24T12:15:10Z</time>
      </trkpt>
      <trkpt lat="44.86757" lon="0.5798">
        <ele>155.461</ele>
        <time>2019-09-24T12:15:12Z</time>
      </trkpt>
      <trkpt lat="44.86757" lon="0.57975">
        <ele>155.406</ele>
        <time>2019-09-24T12:15:14Z</time>
      </trkpt>
      <trkpt lat="44.86755" lon="0.57968">
        <ele>155.322</ele>
        <time>2019-09-24T12:15:17Z</time>
      </trkpt>
      <trkpt lat="44.86754" lon="0.57963">
        <ele>155.266</ele>
        <time>2019-09-24T12:15:19Z</time>
      </trkpt>
      <trkpt lat="44.86753" lon="0.57955">
        <ele>155.155</ele>
        <time>2019-09-24T12:15:23Z</time>
      </trkpt>
      <trkpt lat="44.86752" lon="0.57951">
        <ele>155.098</ele>
        <time>2019-09-24T12:15:25Z</time>
      </trkpt>
      <trkpt lat="44.8675" lon="0.57945">
        <ele>155.013</ele>
        <time>2019-09-24T12:15:28Z</time>
      </trkpt>
      <trkpt lat="44.86749" lon="0.5794">
        <ele>154.955</ele>
        <time>2019-09-24T12:15:30Z</time>
      </trkpt>
      <trkpt lat="44.86748" lon="0.57936">
        <ele>154.897</ele>
        <time>2019-09-24T12:15:32Z</time>
      </trkpt>
      <trkpt lat="44.86747" lon="0.57933">
        <ele>154.837</ele>
        <time>2019-09-24T12:15:34Z</time>
      </trkpt>
      <trkpt lat="44.86746" lon="0.57929">
        <ele>154.777</ele>
        <time>2019-09-24T12:15:36Z</time>
      </trkpt>
      <trkpt lat="44.86745" lon="0.57922">
        <ele>154.684</ele>
        <time>2019-09-24T12:15:39Z</time>
      </trkpt>
      <trkpt lat="44.86743" lon="0.57916">
        <ele>154.591</ele>
        <time>2019-09-24T12:15:42Z</time>
      </trkpt>
      <trkpt lat="44.86743" lon="0.57911">
        <ele>154.499</ele>
        <time>2019-09-24T12:15:45Z</time>
      </trkpt>
      <trkpt lat="44.86742" lon="0.57905">
        <ele>154.406</ele>
        <time>2019-09-24T12:15:48Z</time>
      </trkpt>
      <trkpt lat="44.86741" lon="0.57902">
        <ele>154.345</ele>
        <time>2019-09-24T12:15:50Z</time>
      </trkpt>
      <trkpt lat="44.86741" lon="0.57897">
        <ele>154.283</ele>
        <time>2019-09-24T12:15:52Z</time>
      </trkpt>
      <trkpt lat="44.86739" lon="0.57891">
        <ele>154.159</ele>
        <time>2019-09-24T12:15:56Z</time>
      </trkpt>
      <trkpt lat="44.86737" lon="0.57885">
        <ele>154.033</ele>
        <time>2019-09-24T12:16:00Z</time>
      </trkpt>
      <trkpt lat="44.86735" lon="0.57881">
        <ele>153.969</ele>
        <time>2019-09-24T12:16:02Z</time>
      </trkpt>
      <trkpt lat="44.86731" lon="0.57875">
        <ele>153.874</ele>
        <time>2019-09-24T12:16:05Z</time>
      </trkpt>
      <trkpt lat="44.86729" lon="0.57871">
        <ele>153.812</ele>
        <time>2019-09-24T12:16:07Z</time>
      </trkpt>
      <trkpt lat="44.86724" lon="0.57866">
        <ele>153.721</ele>
        <time>2019-09-24T12:16:10Z</time>
      </trkpt>
      <trkpt lat="44.86721" lon="0.57863">
        <ele>153.66</ele>
        <time>2019-09-24T12:16:12Z</time>
      </trkpt>
      <trkpt lat="44.86716" lon="0.57858">
        <ele>153.57</ele>
        <time>2019-09-24T12:16:15Z</time>
      </trkpt>
      <trkpt lat="44.86712" lon="0.57853">
        <ele>153.482</ele>
        <time>2019-09-24T12:16:18Z</time>
      </trkpt>
      <trkpt lat="44.8671" lon="0.5785">
        <ele>153.424</ele>
        <time>2019-09-24T12:16:20Z</time>
      </trkpt>
      <trkpt lat="44.86704" lon="0.57846">
        <ele>153.337</ele>
        <time>2019-09-24T12:16:23Z</time>
      </trkpt>
      <trkpt lat="44.86699" lon="0.57842">
        <ele>153.252</ele>
        <time>2019-09-24T12:16:26Z</time>
      </trkpt>
      <trkpt lat="44.86696" lon="0.5784">
        <ele>153.224</ele>
        <time>2019-09-24T12:16:27Z</time>
      </trkpt>
      <trkpt lat="44.86692" lon="0.57835">
        <ele>153.14</ele>
        <time>2019-09-24T12:16:30Z</time>
      </trkpt>
      <trkpt lat="44.86689" lon="0.57831">
        <ele>153.059</ele>
        <time>2019-09-24T12:16:33Z</time>
      </trkpt>
      <trkpt lat="44.86686" lon="0.57828">
        <ele>153.006</ele>
        <time>2019-09-24T12:16:35Z</time>
      </trkpt>
      <trkpt lat="44.86682" lon="0.57823">
        <ele>152.928</ele>
        <time>2019-09-24T12:16:38Z</time>
      </trkpt>
      <trkpt lat="44.86675" lon="0.5782">
        <ele>152.778</ele>
        <time>2019-09-24T12:16:44Z</time>
      </trkpt>
      <trkpt lat="44.86669" lon="0.57815">
        <ele>152.686</ele>
        <time>2019-09-24T12:16:48Z</time>
      </trkpt>
      <trkpt lat="44.86665" lon="0.57813">
        <ele>152.641</ele>
        <time>2019-09-24T12:16:50Z</time>
      </trkpt>
      <trkpt lat="44.86663" lon="0.57804">
        <ele>152.551</ele>
        <time>2019-09-24T12:16:54Z</time>
      </trkpt>
      <trkpt lat="44.86661" lon="0.57797">
        <ele>152.528</ele>
        <time>2019-09-24T12:16:55Z</time>
      </trkpt>
      <trkpt lat="44.86661" lon="0.57793">
        <ele>152.483</ele>
        <time>2019-09-24T12:16:57Z</time>
      </trkpt>
      <trkpt lat="44.86655" lon="0.57792">
        <ele>152.415</ele>
        <time>2019-09-24T12:17:00Z</time>
      </trkpt>
      <trkpt lat="44.8665" lon="0.57788">
        <ele>152.327</ele>
        <time>2019-09-24T12:17:04Z</time>
      </trkpt>
      <trkpt lat="44.86643" lon="0.57786">
        <ele>152.242</ele>
        <time>2019-09-24T12:17:08Z</time>
      </trkpt>
      <trkpt lat="44.86639" lon="0.57784">
        <ele>152.16</ele>
        <time>2019-09-24T12:17:12Z</time>
      </trkpt>
      <trkpt lat="44.86635" lon="0.5778">
        <ele>152.1</ele>
        <time>2019-09-24T12:17:15Z</time>
      </trkpt>
      <trkpt lat="44.86631" lon="0.57775">
        <ele>152.02</ele>
        <time>2019-09-24T12:17:19Z</time>
      </trkpt>
      <trkpt lat="44.86628" lon="0.57768">
        <ele>151.942</ele>
        <time>2019-09-24T12:17:23Z</time>
      </trkpt>
      <trkpt lat="44.86625" lon="0.57757">
        <ele>151.839</ele>
        <time>2019-09-24T12:17:28Z</time>
      </trkpt>
      <trkpt lat="44.8662" lon="0.57756">
        <ele>151.796</ele>
        <time>2019-09-24T12:17:30Z</time>
      </trkpt>
      <trkpt lat="44.86615" lon="0.5775">
        <ele>151.667</ele>
        <time>2019-09-24T12:17:36Z</time>
      </trkpt>
      <trkpt lat="44.86612" lon="0.57747">
        <ele>151.579</ele>
        <time>2019-09-24T12:17:40Z</time>
      </trkpt>
      <trkpt lat="44.8661" lon="0.57741">
        <ele>151.511</ele>
        <time>2019-09-24T12:17:43Z</time>
      </trkpt>
      <trkpt lat="44.86608" lon="0.57734">
        <ele>151.466</ele>
        <time>2019-09-24T12:17:45Z</time>
      </trkpt>
      <trkpt lat="44.86601" lon="0.57726">
        <ele>151.349</ele>
        <time>2019-09-24T12:17:50Z</time>
      </trkpt>
      <trkpt lat="44.86599" lon="0.57721">
        <ele>151.279</ele>
        <time>2019-09-24T12:17:53Z</time>
      </trkpt>
      <trkpt lat="44.86596" lon="0.57715">
        <ele>151.234</ele>
        <time>2019-09-24T12:17:55Z</time>
      </trkpt>
      <trkpt lat="44.86594" lon="0.57707">
        <ele>151.145</ele>
        <time>2019-09-24T12:17:59Z</time>
      </trkpt>
      <trkpt lat="44.86594" lon="0.57697">
        <ele>151.079</ele>
        <time>2019-09-24T12:18:02Z</time>
      </trkpt>
      <trkpt lat="44.86592" lon="0.5769">
        <ele>151.014</ele>
        <time>2019-09-24T12:18:05Z</time>
      </trkpt>
      <trkpt lat="44.8658" lon="0.57686">
        <ele>150.838</ele>
        <time>2019-09-24T12:18:13Z</time>
      </trkpt>
      <trkpt lat="44.86575" lon="0.57686">
        <ele>150.773</ele>
        <time>2019-09-24T12:18:16Z</time>
      </trkpt>
      <trkpt lat="44.86571" lon="0.57682">
        <ele>150.708</ele>
        <time>2019-09-24T12:18:19Z</time>
      </trkpt>
      <trkpt lat="44.86567" lon="0.57678">
        <ele>150.643</ele>
        <time>2019-09-24T12:18:22Z</time>
      </trkpt>
      <trkpt lat="44.86563" lon="0.57671">
        <ele>150.578</ele>
        <time>2019-09-24T12:18:25Z</time>
      </trkpt>
      <trkpt lat="44.8656" lon="0.57663">
        <ele>150.535</ele>
        <time>2019-09-24T12:18:27Z</time>
      </trkpt>
      <trkpt lat="44.86558" lon="0.5766">
        <ele>150.464</ele>
        <time>2019-09-24T12:18:31Z</time>
      </trkpt>
      <trkpt lat="44.86556" lon="0.57652">
        <ele>150.366</ele>
        <time>2019-09-24T12:18:35Z</time>
      </trkpt>
      <trkpt lat="44.86554" lon="0.57645">
        <ele>150.265</ele>
        <time>2019-09-24T12:18:39Z</time>
      </trkpt>
      <trkpt lat="44.86553" lon="0.57642">
        <ele>150.214</ele>
        <time>2019-09-24T12:18:41Z</time>
      </trkpt>
      <trkpt lat="44.86555" lon="0.57636">
        <ele>149.988</ele>
        <time>2019-09-24T12:18:50Z</time>
      </trkpt>
      <trkpt lat="44.86554" lon="0.57629">
        <ele>149.891</ele>
        <time>2019-09-24T12:18:54Z</time>
      </trkpt>
      <trkpt lat="44.86553" lon="0.57625">
        <ele>149.841</ele>
        <time>2019-09-24T12:18:56Z</time>
      </trkpt>
      <trkpt lat="44.86551" lon="0.57618">
        <ele>149.74</ele>
        <time>2019-09-24T12:19:00Z</time>
      </trkpt>
      <trkpt lat="44.86552" lon="0.57609">
        <ele>149.633</ele>
        <time>2019-09-24T12:19:04Z</time>
      </trkpt>
      <trkpt lat="44.86551" lon="0.57602">
        <ele>149.548</ele>
        <time>2019-09-24T12:19:07Z</time>
      </trkpt>
      <trkpt lat="44.86552" lon="0.57593">
        <ele>149.428</ele>
        <time>2019-09-24T12:19:11Z</time>
      </trkpt>
      <trkpt lat="44.86555" lon="0.57586">
        <ele>149.341</ele>
        <time>2019-09-24T12:19:14Z</time>
      </trkpt>
      <trkpt lat="44.86554" lon="0.57577">
        <ele>149.259</ele>
        <time>2019-09-24T12:19:17Z</time>
      </trkpt>
      <trkpt lat="44.86553" lon="0.57573">
        <ele>149.204</ele>
        <time>2019-09-24T12:19:19Z</time>
      </trkpt>
      <trkpt lat="44.86554" lon="0.57566">
        <ele>149.068</ele>
        <time>2019-09-24T12:19:24Z</time>
      </trkpt>
      <trkpt lat="44.86556" lon="0.57559">
        <ele>148.989</ele>
        <time>2019-09-24T12:19:27Z</time>
      </trkpt>
      <trkpt lat="44.86557" lon="0.57554">
        <ele>148.938</ele>
        <time>2019-09-24T12:19:29Z</time>
      </trkpt>
      <trkpt lat="44.86557" lon="0.57546">
        <ele>148.844</ele>
        <time>2019-09-24T12:19:33Z</time>
      </trkpt>
      <trkpt lat="44.86557" lon="0.57542">
        <ele>148.8</ele>
        <time>2019-09-24T12:19:35Z</time>
      </trkpt>
      <trkpt lat="44.86557" lon="0.57537">
        <ele>148.757</ele>
        <time>2019-09-24T12:19:37Z</time>
      </trkpt>
      <trkpt lat="44.86556" lon="0.57531">
        <ele>148.695</ele>
        <time>2019-09-24T12:19:40Z</time>
      </trkpt>
      <trkpt lat="44.86555" lon="0.57523">
        <ele>148.633</ele>
        <time>2019-09-24T12:19:43Z</time>
      </trkpt>
      <trkpt lat="44.86554" lon="0.57516">
        <ele>148.546</ele>
        <time>2019-09-24T12:19:47Z</time>
      </trkpt>
      <trkpt lat="44.86554" lon="0.57508">
        <ele>148.459</ele>
        <time>2019-09-24T12:19:51Z</time>
      </trkpt>
      <trkpt lat="44.86555" lon="0.57501">
        <ele>148.373</ele>
        <time>2019-09-24T12:19:55Z</time>
      </trkpt>
      <trkpt lat="44.86555" lon="0.57497">
        <ele>148.331</ele>
        <time>2019-09-24T12:19:57Z</time>
      </trkpt>
      <trkpt lat="44.86556" lon="0.5749">
        <ele>148.25</ele>
        <time>2019-09-24T12:20:01Z</time>
      </trkpt>
      <trkpt lat="44.86556" lon="0.57482">
        <ele>148.19</ele>
        <time>2019-09-24T12:20:04Z</time>
      </trkpt>
      <trkpt lat="44.86555" lon="0.57475">
        <ele>148.128</ele>
        <time>2019-09-24T12:20:07Z</time>
      </trkpt>
      <trkpt lat="44.86554" lon="0.57471">
        <ele>148.086</ele>
        <time>2019-09-24T12:20:09Z</time>
      </trkpt>
      <trkpt lat="44.86554" lon="0.57466">
        <ele>148.042</ele>
        <time>2019-09-24T12:20:11Z</time>
      </trkpt>
      <trkpt lat="44.86553" lon="0.57462">
        <ele>147.998</ele>
        <time>2019-09-24T12:20:13Z</time>
      </trkpt>
      <trkpt lat="44.86552" lon="0.57459">
        <ele>147.953</ele>
        <time>2019-09-24T12:20:15Z</time>
      </trkpt>
      <trkpt lat="44.8655" lon="0.57452">
        <ele>147.86</ele>
        <time>2019-09-24T12:20:19Z</time>
      </trkpt>
      <trkpt lat="44.86549" lon="0.57448">
        <ele>147.811</ele>
        <time>2019-09-24T12:20:21Z</time>
      </trkpt>
      <trkpt lat="44.86548" lon="0.57444">
        <ele>147.736</ele>
        <time>2019-09-24T12:20:24Z</time>
      </trkpt>
      <trkpt lat="44.86547" lon="0.5744">
        <ele>147.686</ele>
        <time>2019-09-24T12:20:26Z</time>
      </trkpt>
      <trkpt lat="44.86545" lon="0.57436">
        <ele>147.635</ele>
        <time>2019-09-24T12:20:28Z</time>
      </trkpt>
      <trkpt lat="44.86544" lon="0.57429">
        <ele>147.559</ele>
        <time>2019-09-24T12:20:31Z</time>
      </trkpt>
      <trkpt lat="44.86541" lon="0.57422">
        <ele>147.486</ele>
        <time>2019-09-24T12:20:34Z</time>
      </trkpt>
      <trkpt lat="44.86536" lon="0.57416">
        <ele>147.414</ele>
        <time>2019-09-24T12:20:37Z</time>
      </trkpt>
      <trkpt lat="44.86534" lon="0.57412">
        <ele>147.367</ele>
        <time>2019-09-24T12:20:39Z</time>
      </trkpt>
      <trkpt lat="44.86531" lon="0.57407">
        <ele>147.302</ele>
        <time>2019-09-24T12:20:42Z</time>
      </trkpt>
      <trkpt lat="44.86528" lon="0.57402">
        <ele>147.217</ele>
        <time>2019-09-24T12:20:46Z</time>
      </trkpt>
      <trkpt lat="44.86524" lon="0.57397">
        <ele>147.154</ele>
        <time>2019-09-24T12:20:49Z</time>
      </trkpt>
      <trkpt lat="44.86521" lon="0.57393">
        <ele>147.111</ele>
        <time>2019-09-24T12:20:51Z</time>
      </trkpt>
      <trkpt lat="44.86519" lon="0.5739">
        <ele>147.068</ele>
        <time>2019-09-24T12:20:53Z</time>
      </trkpt>
      <trkpt lat="44.86517" lon="0.57383">
        <ele>146.982</ele>
        <time>2019-09-24T12:20:57Z</time>
      </trkpt>
      <trkpt lat="44.86515" lon="0.57379">
        <ele>146.92</ele>
        <time>2019-09-24T12:21:00Z</time>
      </trkpt>
      <trkpt lat="44.86512" lon="0.57374">
        <ele>146.858</ele>
        <time>2019-09-24T12:21:03Z</time>
      </trkpt>
      <trkpt lat="44.86509" lon="0.57368">
        <ele>146.776</ele>
        <time>2019-09-24T12:21:07Z</time>
      </trkpt>
      <trkpt lat="44.86506" lon="0.57362">
        <ele>146.695</ele>
        <time>2019-09-24T12:21:11Z</time>
      </trkpt>
      <trkpt lat="44.86503" lon="0.57358">
        <ele>146.635</ele>
        <time>2019-09-24T12:21:14Z</time>
      </trkpt>
      <trkpt lat="44.86501" lon="0.57352">
        <ele>146.537</ele>
        <time>2019-09-24T12:21:19Z</time>
      </trkpt>
      <trkpt lat="44.86499" lon="0.57349">
        <ele>146.5</ele>
        <time>2019-09-24T12:21:21Z</time>
      </trkpt>
      <trkpt lat="44.86498" lon="0.57344">
        <ele>146.464</ele>
        <time>2019-09-24T12:21:23Z</time>
      </trkpt>
      <trkpt lat="44.86496" lon="0.57337">
        <ele>146.411</ele>
        <time>2019-09-24T12:21:26Z</time>
      </trkpt>
      <trkpt lat="44.86495" lon="0.5733">
        <ele>146.362</ele>
        <time>2019-09-24T12:21:29Z</time>
      </trkpt>
      <trkpt lat="44.86495" lon="0.57325">
        <ele>146.33</ele>
        <time>2019-09-24T12:21:31Z</time>
      </trkpt>
      <trkpt lat="44.86493" lon="0.57317">
        <ele>146.285</ele>
        <time>2019-09-24T12:21:34Z</time>
      </trkpt>
      <trkpt lat="44.86494" lon="0.57309">
        <ele>146.226</ele>
        <time>2019-09-24T12:21:38Z</time>
      </trkpt>
      <trkpt lat="44.86495" lon="0.57304">
        <ele>146.185</ele>
        <time>2019-09-24T12:21:41Z</time>
      </trkpt>
      <trkpt lat="44.86495" lon="0.57296">
        <ele>146.144</ele>
        <time>2019-09-24T12:21:44Z</time>
      </trkpt>
      <trkpt lat="44.86497" lon="0.5729">
        <ele>146.107</ele>
        <time>2019-09-24T12:21:47Z</time>
      </trkpt>
      <trkpt lat="44.865" lon="0.57284">
        <ele>146.059</ele>
        <time>2019-09-24T12:21:51Z</time>
      </trkpt>
      <trkpt lat="44.86501" lon="0.57276">
        <ele>146.023</ele>
        <time>2019-09-24T12:21:54Z</time>
      </trkpt>
      <trkpt lat="44.86502" lon="0.57269">
        <ele>145.98</ele>
        <time>2019-09-24T12:21:58Z</time>
      </trkpt>
      <trkpt lat="44.865" lon="0.57262">
        <ele>145.953</ele>
        <time>2019-09-24T12:22:01Z</time>
      </trkpt>
      <trkpt lat="44.86498" lon="0.57261">
        <ele>145.924</ele>
        <time>2019-09-24T12:22:08Z</time>
      </trkpt>
      <trkpt lat="44.86505" lon="0.57259">
        <ele>145.905</ele>
        <time>2019-09-24T12:22:21Z</time>
      </trkpt>
      <trkpt lat="44.86508" lon="0.57258">
        <ele>145.903</ele>
        <time>2019-09-24T12:22:26Z</time>
      </trkpt>
      <trkpt lat="44.86511" lon="0.57257">
        <ele>145.94</ele>
        <time>2019-09-24T12:22:39Z</time>
      </trkpt>
      <trkpt lat="44.86509" lon="0.57247">
        <ele>146.179</ele>
        <time>2019-09-24T12:22:49Z</time>
      </trkpt>
      <trkpt lat="44.86509" lon="0.57244">
        <ele>146.227</ele>
        <time>2019-09-24T12:22:51Z</time>
      </trkpt>
      <trkpt lat="44.86508" lon="0.57236">
        <ele>146.347</ele>
        <time>2019-09-24T12:22:56Z</time>
      </trkpt>
      <trkpt lat="44.86512" lon="0.5723">
        <ele>146.543</ele>
        <time>2019-09-24T12:23:03Z</time>
      </trkpt>
      <trkpt lat="44.86513" lon="0.57223">
        <ele>146.69</ele>
        <time>2019-09-24T12:23:08Z</time>
      </trkpt>
      <trkpt lat="44.86514" lon="0.57218">
        <ele>146.777</ele>
        <time>2019-09-24T12:23:11Z</time>
      </trkpt>
      <trkpt lat="44.86514" lon="0.5721">
        <ele>146.863</ele>
        <time>2019-09-24T12:23:14Z</time>
      </trkpt>
      <trkpt lat="44.86512" lon="0.57203">
        <ele>146.947</ele>
        <time>2019-09-24T12:23:17Z</time>
      </trkpt>
      <trkpt lat="44.86512" lon="0.57195">
        <ele>147.052</ele>
        <time>2019-09-24T12:23:21Z</time>
      </trkpt>
      <trkpt lat="44.86513" lon="0.57191">
        <ele>147.101</ele>
        <time>2019-09-24T12:23:23Z</time>
      </trkpt>
      <trkpt lat="44.86511" lon="0.57182">
        <ele>147.199</ele>
        <time>2019-09-24T12:23:27Z</time>
      </trkpt>
      <trkpt lat="44.86509" lon="0.57175">
        <ele>147.291</ele>
        <time>2019-09-24T12:23:31Z</time>
      </trkpt>
      <trkpt lat="44.8651" lon="0.57168">
        <ele>147.398</ele>
        <time>2019-09-24T12:23:36Z</time>
      </trkpt>
      <trkpt lat="44.86511" lon="0.57162">
        <ele>147.456</ele>
        <time>2019-09-24T12:23:39Z</time>
      </trkpt>
      <trkpt lat="44.86511" lon="0.57158">
        <ele>147.493</ele>
        <time>2019-09-24T12:23:41Z</time>
      </trkpt>
      <trkpt lat="44.86511" lon="0.57151">
        <ele>147.545</ele>
        <time>2019-09-24T12:23:44Z</time>
      </trkpt>
      <trkpt lat="44.86511" lon="0.57146">
        <ele>147.58</ele>
        <time>2019-09-24T12:23:46Z</time>
      </trkpt>
      <trkpt lat="44.86511" lon="0.57141">
        <ele>147.629</ele>
        <time>2019-09-24T12:23:49Z</time>
      </trkpt>
      <trkpt lat="44.86512" lon="0.57127">
        <ele>147.713</ele>
        <time>2019-09-24T12:23:54Z</time>
      </trkpt>
      <trkpt lat="44.86512" lon="0.57123">
        <ele>147.745</ele>
        <time>2019-09-24T12:23:56Z</time>
      </trkpt>
      <trkpt lat="44.86518" lon="0.57119">
        <ele>147.809</ele>
        <time>2019-09-24T12:24:00Z</time>
      </trkpt>
      <trkpt lat="44.86518" lon="0.57112">
        <ele>147.842</ele>
        <time>2019-09-24T12:24:02Z</time>
      </trkpt>
      <trkpt lat="44.86518" lon="0.57105">
        <ele>147.907</ele>
        <time>2019-09-24T12:24:06Z</time>
      </trkpt>
      <trkpt lat="44.86519" lon="0.57101">
        <ele>147.937</ele>
        <time>2019-09-24T12:24:08Z</time>
      </trkpt>
      <trkpt lat="44.86521" lon="0.57095">
        <ele>148.013</ele>
        <time>2019-09-24T12:24:13Z</time>
      </trkpt>
      <trkpt lat="44.86522" lon="0.57089">
        <ele>148.055</ele>
        <time>2019-09-24T12:24:16Z</time>
      </trkpt>
      <trkpt lat="44.86523" lon="0.57081">
        <ele>148.107</ele>
        <time>2019-09-24T12:24:20Z</time>
      </trkpt>
      <trkpt lat="44.86522" lon="0.57074">
        <ele>148.151</ele>
        <time>2019-09-24T12:24:24Z</time>
      </trkpt>
      <trkpt lat="44.86522" lon="0.57065">
        <ele>148.187</ele>
        <time>2019-09-24T12:24:28Z</time>
      </trkpt>
      <trkpt lat="44.86522" lon="0.57061">
        <ele>148.204</ele>
        <time>2019-09-24T12:24:30Z</time>
      </trkpt>
      <trkpt lat="44.86522" lon="0.57053">
        <ele>148.234</ele>
        <time>2019-09-24T12:24:34Z</time>
      </trkpt>
      <trkpt lat="44.86522" lon="0.57049">
        <ele>148.247</ele>
        <time>2019-09-24T12:24:36Z</time>
      </trkpt>
      <trkpt lat="44.86522" lon="0.57042">
        <ele>148.269</ele>
        <time>2019-09-24T12:24:40Z</time>
      </trkpt>
      <trkpt lat="44.86521" lon="0.57035">
        <ele>148.288</ele>
        <time>2019-09-24T12:24:44Z</time>
      </trkpt>
      <trkpt lat="44.86521" lon="0.57028">
        <ele>148.3</ele>
        <time>2019-09-24T12:24:48Z</time>
      </trkpt>
      <trkpt lat="44.86521" lon="0.57019">
        <ele>148.307</ele>
        <time>2019-09-24T12:24:51Z</time>
      </trkpt>
      <trkpt lat="44.8652" lon="0.57015">
        <ele>148.311</ele>
        <time>2019-09-24T12:24:53Z</time>
      </trkpt>
      <trkpt lat="44.8652" lon="0.57007">
        <ele>148.31</ele>
        <time>2019-09-24T12:24:57Z</time>
      </trkpt>
      <trkpt lat="44.8652" lon="0.57">
        <ele>148.308</ele>
        <time>2019-09-24T12:25:01Z</time>
      </trkpt>
      <trkpt lat="44.8652" lon="0.56993">
        <ele>148.304</ele>
        <time>2019-09-24T12:25:04Z</time>
      </trkpt>
      <trkpt lat="44.86519" lon="0.56989">
        <ele>148.302</ele>
        <time>2019-09-24T12:25:06Z</time>
      </trkpt>
      <trkpt lat="44.86518" lon="0.56985">
        <ele>148.299</ele>
        <time>2019-09-24T12:25:08Z</time>
      </trkpt>
      <trkpt lat="44.86517" lon="0.56981">
        <ele>148.293</ele>
        <time>2019-09-24T12:25:11Z</time>
      </trkpt>
      <trkpt lat="44.86515" lon="0.56975">
        <ele>148.284</ele>
        <time>2019-09-24T12:25:14Z</time>
      </trkpt>
      <trkpt lat="44.86514" lon="0.56969">
        <ele>148.271</ele>
        <time>2019-09-24T12:25:17Z</time>
      </trkpt>
      <trkpt lat="44.86512" lon="0.56962">
        <ele>148.259</ele>
        <time>2019-09-24T12:25:20Z</time>
      </trkpt>
      <trkpt lat="44.8651" lon="0.56956">
        <ele>148.249</ele>
        <time>2019-09-24T12:25:23Z</time>
      </trkpt>
      <trkpt lat="44.86509" lon="0.5695">
        <ele>148.232</ele>
        <time>2019-09-24T12:25:27Z</time>
      </trkpt>
      <trkpt lat="44.86508" lon="0.56943">
        <ele>148.203</ele>
        <time>2019-09-24T12:25:32Z</time>
      </trkpt>
      <trkpt lat="44.86507" lon="0.56937">
        <ele>148.172</ele>
        <time>2019-09-24T12:25:36Z</time>
      </trkpt>
      <trkpt lat="44.86507" lon="0.56929">
        <ele>148.125</ele>
        <time>2019-09-24T12:25:41Z</time>
      </trkpt>
      <trkpt lat="44.86506" lon="0.56924">
        <ele>148.105</ele>
        <time>2019-09-24T12:25:43Z</time>
      </trkpt>
      <trkpt lat="44.86505" lon="0.56914">
        <ele>148.057</ele>
        <time>2019-09-24T12:25:48Z</time>
      </trkpt>
      <trkpt lat="44.86507" lon="0.56907">
        <ele>148.035</ele>
        <time>2019-09-24T12:25:53Z</time>
      </trkpt>
      <trkpt lat="44.86504" lon="0.56902">
        <ele>148.061</ele>
        <time>2019-09-24T12:25:58Z</time>
      </trkpt>
      <trkpt lat="44.865" lon="0.56895">
        <ele>148.095</ele>
        <time>2019-09-24T12:26:02Z</time>
      </trkpt>
      <trkpt lat="44.86498" lon="0.56887">
        <ele>148.126</ele>
        <time>2019-09-24T12:26:06Z</time>
      </trkpt>
      <trkpt lat="44.86497" lon="0.56884">
        <ele>148.14</ele>
        <time>2019-09-24T12:26:08Z</time>
      </trkpt>
      <trkpt lat="44.86496" lon="0.56881">
        <ele>148.155</ele>
        <time>2019-09-24T12:26:10Z</time>
      </trkpt>
      <trkpt lat="44.86496" lon="0.56875">
        <ele>148.178</ele>
        <time>2019-09-24T12:26:14Z</time>
      </trkpt>
      <trkpt lat="44.86495" lon="0.56867">
        <ele>148.198</ele>
        <time>2019-09-24T12:26:19Z</time>
      </trkpt>
      <trkpt lat="44.86495" lon="0.56861">
        <ele>148.205</ele>
        <time>2019-09-24T12:26:23Z</time>
      </trkpt>
      <trkpt lat="44.86495" lon="0.56858">
        <ele>148.206</ele>
        <time>2019-09-24T12:26:25Z</time>
      </trkpt>
      <trkpt lat="44.86495" lon="0.5685">
        <ele>148.204</ele>
        <time>2019-09-24T12:26:29Z</time>
      </trkpt>
      <trkpt lat="44.86494" lon="0.56845">
        <ele>148.202</ele>
        <time>2019-09-24T12:26:31Z</time>
      </trkpt>
      <trkpt lat="44.86494" lon="0.56837">
        <ele>148.196</ele>
        <time>2019-09-24T12:26:34Z</time>
      </trkpt>
      <trkpt lat="44.86495" lon="0.5683">
        <ele>148.189</ele>
        <time>2019-09-24T12:26:38Z</time>
      </trkpt>
      <trkpt lat="44.86495" lon="0.56822">
        <ele>148.183</ele>
        <time>2019-09-24T12:26:42Z</time>
      </trkpt>
      <trkpt lat="44.86496" lon="0.56814">
        <ele>148.181</ele>
        <time>2019-09-24T12:26:45Z</time>
      </trkpt>
      <trkpt lat="44.86496" lon="0.56808">
        <ele>148.183</ele>
        <time>2019-09-24T12:26:47Z</time>
      </trkpt>
      <trkpt lat="44.86497" lon="0.56804">
        <ele>148.185</ele>
        <time>2019-09-24T12:26:49Z</time>
      </trkpt>
      <trkpt lat="44.86499" lon="0.56798">
        <ele>148.186</ele>
        <time>2019-09-24T12:26:52Z</time>
      </trkpt>
      <trkpt lat="44.86501" lon="0.56793">
        <ele>148.186</ele>
        <time>2019-09-24T12:26:54Z</time>
      </trkpt>
      <trkpt lat="44.86503" lon="0.56789">
        <ele>148.187</ele>
        <time>2019-09-24T12:26:56Z</time>
      </trkpt>
      <trkpt lat="44.86506" lon="0.56784">
        <ele>148.186</ele>
        <time>2019-09-24T12:26:59Z</time>
      </trkpt>
      <trkpt lat="44.86508" lon="0.56781">
        <ele>148.183</ele>
        <time>2019-09-24T12:27:01Z</time>
      </trkpt>
      <trkpt lat="44.86511" lon="0.56778">
        <ele>148.176</ele>
        <time>2019-09-24T12:27:04Z</time>
      </trkpt>
      <trkpt lat="44.86514" lon="0.56774">
        <ele>148.17</ele>
        <time>2019-09-24T12:27:06Z</time>
      </trkpt>
      <trkpt lat="44.86519" lon="0.56769">
        <ele>148.161</ele>
        <time>2019-09-24T12:27:09Z</time>
      </trkpt>
      <trkpt lat="44.86523" lon="0.56764">
        <ele>148.152</ele>
        <time>2019-09-24T12:27:12Z</time>
      </trkpt>
      <trkpt lat="44.86528" lon="0.56761">
        <ele>148.138</ele>
        <time>2019-09-24T12:27:16Z</time>
      </trkpt>
      <trkpt lat="44.86531" lon="0.56759">
        <ele>148.129</ele>
        <time>2019-09-24T12:27:18Z</time>
      </trkpt>
      <trkpt lat="44.86535" lon="0.56754">
        <ele>148.108</ele>
        <time>2019-09-24T12:27:22Z</time>
      </trkpt>
      <trkpt lat="44.86538" lon="0.56752">
        <ele>148.095</ele>
        <time>2019-09-24T12:27:24Z</time>
      </trkpt>
      <trkpt lat="44.86541" lon="0.56748">
        <ele>148.074</ele>
        <time>2019-09-24T12:27:27Z</time>
      </trkpt>
      <trkpt lat="44.86543" lon="0.56746">
        <ele>148.058</ele>
        <time>2019-09-24T12:27:29Z</time>
      </trkpt>
      <trkpt lat="44.86548" lon="0.56742">
        <ele>148.025</ele>
        <time>2019-09-24T12:27:33Z</time>
      </trkpt>
      <trkpt lat="44.86552" lon="0.56737">
        <ele>147.988</ele>
        <time>2019-09-24T12:27:37Z</time>
      </trkpt>
      <trkpt lat="44.86555" lon="0.5673">
        <ele>147.945</ele>
        <time>2019-09-24T12:27:41Z</time>
      </trkpt>
      <trkpt lat="44.8656" lon="0.56726">
        <ele>147.895</ele>
        <time>2019-09-24T12:27:45Z</time>
      </trkpt>
      <trkpt lat="44.86565" lon="0.56723">
        <ele>147.84</ele>
        <time>2019-09-24T12:27:49Z</time>
      </trkpt>
      <trkpt lat="44.86568" lon="0.56718">
        <ele>147.782</ele>
        <time>2019-09-24T12:27:53Z</time>
      </trkpt>
      <trkpt lat="44.8657" lon="0.56715">
        <ele>147.752</ele>
        <time>2019-09-24T12:27:55Z</time>
      </trkpt>
      <trkpt lat="44.86573" lon="0.56709">
        <ele>147.692</ele>
        <time>2019-09-24T12:27:59Z</time>
      </trkpt>
      <trkpt lat="44.86577" lon="0.56703">
        <ele>147.632</ele>
        <time>2019-09-24T12:28:03Z</time>
      </trkpt>
      <trkpt lat="44.86579" lon="0.56697">
        <ele>147.575</ele>
        <time>2019-09-24T12:28:07Z</time>
      </trkpt>
      <trkpt lat="44.86582" lon="0.56691">
        <ele>147.503</ele>
        <time>2019-09-24T12:28:12Z</time>
      </trkpt>
      <trkpt lat="44.86585" lon="0.56684">
        <ele>147.443</ele>
        <time>2019-09-24T12:28:16Z</time>
      </trkpt>
      <trkpt lat="44.86589" lon="0.56679">
        <ele>147.414</ele>
        <time>2019-09-24T12:28:18Z</time>
      </trkpt>
      <trkpt lat="44.86592" lon="0.56674">
        <ele>147.371</ele>
        <time>2019-09-24T12:28:21Z</time>
      </trkpt>
      <trkpt lat="44.86597" lon="0.5667">
        <ele>147.331</ele>
        <time>2019-09-24T12:28:24Z</time>
      </trkpt>
      <trkpt lat="44.86599" lon="0.56662">
        <ele>147.284</ele>
        <time>2019-09-24T12:28:28Z</time>
      </trkpt>
      <trkpt lat="44.86604" lon="0.56658">
        <ele>147.24</ele>
        <time>2019-09-24T12:28:32Z</time>
      </trkpt>
      <trkpt lat="44.86607" lon="0.56656">
        <ele>147.217</ele>
        <time>2019-09-24T12:28:34Z</time>
      </trkpt>
      <trkpt lat="44.86611" lon="0.56651">
        <ele>147.183</ele>
        <time>2019-09-24T12:28:37Z</time>
      </trkpt>
      <trkpt lat="44.86614" lon="0.56645">
        <ele>147.128</ele>
        <time>2019-09-24T12:28:42Z</time>
      </trkpt>
      <trkpt lat="44.86615" lon="0.56643">
        <ele>147.109</ele>
        <time>2019-09-24T12:28:44Z</time>
      </trkpt>
      <trkpt lat="44.86615" lon="0.56636">
        <ele>147.084</ele>
        <time>2019-09-24T12:28:47Z</time>
      </trkpt>
      <trkpt lat="44.86615" lon="0.56629">
        <ele>147.063</ele>
        <time>2019-09-24T12:28:50Z</time>
      </trkpt>
      <trkpt lat="44.86613" lon="0.56623">
        <ele>147.034</ele>
        <time>2019-09-24T12:28:55Z</time>
      </trkpt>
      <trkpt lat="44.86611" lon="0.56614">
        <ele>147.019</ele>
        <time>2019-09-24T12:28:58Z</time>
      </trkpt>
      <trkpt lat="44.86609" lon="0.56608">
        <ele>147.002</ele>
        <time>2019-09-24T12:29:07Z</time>
      </trkpt>
      <trkpt lat="44.86604" lon="0.56606">
        <ele>147.004</ele>
        <time>2019-09-24T12:29:10Z</time>
      </trkpt>
      <trkpt lat="44.86603" lon="0.56599">
        <ele>147.013</ele>
        <time>2019-09-24T12:29:14Z</time>
      </trkpt>
      <trkpt lat="44.86607" lon="0.56593">
        <ele>147.021</ele>
        <time>2019-09-24T12:29:17Z</time>
      </trkpt>
      <trkpt lat="44.86609" lon="0.56589">
        <ele>147.026</ele>
        <time>2019-09-24T12:29:19Z</time>
      </trkpt>
      <trkpt lat="44.8661" lon="0.56587">
        <ele>147.029</ele>
        <time>2019-09-24T12:29:20Z</time>
      </trkpt>
      <trkpt lat="44.86615" lon="0.56585">
        <ele>147.04</ele>
        <time>2019-09-24T12:29:23Z</time>
      </trkpt>
      <trkpt lat="44.8662" lon="0.56582">
        <ele>147.052</ele>
        <time>2019-09-24T12:29:26Z</time>
      </trkpt>
      <trkpt lat="44.86623" lon="0.56578">
        <ele>147.064</ele>
        <time>2019-09-24T12:29:29Z</time>
      </trkpt>
      <trkpt lat="44.86627" lon="0.56574">
        <ele>147.082</ele>
        <time>2019-09-24T12:29:33Z</time>
      </trkpt>
      <trkpt lat="44.86631" lon="0.56571">
        <ele>147.107</ele>
        <time>2019-09-24T12:29:38Z</time>
      </trkpt>
      <trkpt lat="44.86636" lon="0.56568">
        <ele>147.128</ele>
        <time>2019-09-24T12:29:42Z</time>
      </trkpt>
      <trkpt lat="44.86641" lon="0.56567">
        <ele>147.148</ele>
        <time>2019-09-24T12:29:46Z</time>
      </trkpt>
      <trkpt lat="44.86645" lon="0.56563">
        <ele>147.173</ele>
        <time>2019-09-24T12:29:51Z</time>
      </trkpt>
      <trkpt lat="44.86649" lon="0.56561">
        <ele>147.191</ele>
        <time>2019-09-24T12:29:55Z</time>
      </trkpt>
      <trkpt lat="44.86653" lon="0.56559">
        <ele>147.208</ele>
        <time>2019-09-24T12:29:59Z</time>
      </trkpt>
      <trkpt lat="44.86657" lon="0.56555">
        <ele>147.224</ele>
        <time>2019-09-24T12:30:03Z</time>
      </trkpt>
      <trkpt lat="44.86662" lon="0.56554">
        <ele>147.245</ele>
        <time>2019-09-24T12:30:09Z</time>
      </trkpt>
      <trkpt lat="44.86667" lon="0.5655">
        <ele>147.259</ele>
        <time>2019-09-24T12:30:14Z</time>
      </trkpt>
      <trkpt lat="44.86675" lon="0.56552">
        <ele>147.264</ele>
        <time>2019-09-24T12:30:16Z</time>
      </trkpt>
      <trkpt lat="44.8668" lon="0.56552">
        <ele>147.272</ele>
        <time>2019-09-24T12:30:19Z</time>
      </trkpt>
      <trkpt lat="44.86686" lon="0.5655">
        <ele>147.283</ele>
        <time>2019-09-24T12:30:24Z</time>
      </trkpt>
      <trkpt lat="44.86689" lon="0.56549">
        <ele>147.287</ele>
        <time>2019-09-24T12:30:26Z</time>
      </trkpt>
      <trkpt lat="44.86692" lon="0.56548">
        <ele>147.292</ele>
        <time>2019-09-24T12:30:28Z</time>
      </trkpt>
      <trkpt lat="44.86697" lon="0.56546">
        <ele>147.304</ele>
        <time>2019-09-24T12:30:32Z</time>
      </trkpt>
      <trkpt lat="44.86699" lon="0.56545">
        <ele>147.313</ele>
        <time>2019-09-24T12:30:35Z</time>
      </trkpt>
      <trkpt lat="44.86704" lon="0.56544">
        <ele>147.323</ele>
        <time>2019-09-24T12:30:38Z</time>
      </trkpt>
      <trkpt lat="44.86707" lon="0.56543">
        <ele>147.329</ele>
        <time>2019-09-24T12:30:40Z</time>
      </trkpt>
      <trkpt lat="44.86713" lon="0.56543">
        <ele>147.335</ele>
        <time>2019-09-24T12:30:44Z</time>
      </trkpt>
      <trkpt lat="44.86718" lon="0.56542">
        <ele>147.338</ele>
        <time>2019-09-24T12:30:48Z</time>
      </trkpt>
      <trkpt lat="44.86724" lon="0.5654">
        <ele>147.34</ele>
        <time>2019-09-24T12:30:53Z</time>
      </trkpt>
      <trkpt lat="44.86729" lon="0.56537">
        <ele>147.343</ele>
        <time>2019-09-24T12:30:56Z</time>
      </trkpt>
      <trkpt lat="44.86734" lon="0.56537">
        <ele>147.346</ele>
        <time>2019-09-24T12:31:01Z</time>
      </trkpt>
      <trkpt lat="44.86737" lon="0.56537">
        <ele>147.347</ele>
        <time>2019-09-24T12:31:03Z</time>
      </trkpt>
      <trkpt lat="44.86741" lon="0.56534">
        <ele>147.349</ele>
        <time>2019-09-24T12:31:08Z</time>
      </trkpt>
      <trkpt lat="44.86743" lon="0.56533">
        <ele>147.353</ele>
        <time>2019-09-24T12:31:11Z</time>
      </trkpt>
      <trkpt lat="44.86748" lon="0.56531">
        <ele>147.363</ele>
        <time>2019-09-24T12:31:16Z</time>
      </trkpt>
      <trkpt lat="44.86753" lon="0.56527">
        <ele>147.371</ele>
        <time>2019-09-24T12:31:20Z</time>
      </trkpt>
      <trkpt lat="44.86755" lon="0.56526">
        <ele>147.375</ele>
        <time>2019-09-24T12:31:22Z</time>
      </trkpt>
      <trkpt lat="44.86758" lon="0.56524">
        <ele>147.379</ele>
        <time>2019-09-24T12:31:24Z</time>
      </trkpt>
      <trkpt lat="44.8676" lon="0.56522">
        <ele>147.384</ele>
        <time>2019-09-24T12:31:26Z</time>
      </trkpt>
      <trkpt lat="44.86764" lon="0.5652">
        <ele>147.391</ele>
        <time>2019-09-24T12:31:29Z</time>
      </trkpt>
      <trkpt lat="44.86768" lon="0.56518">
        <ele>147.408</ele>
        <time>2019-09-24T12:31:34Z</time>
      </trkpt>
      <trkpt lat="44.86771" lon="0.56514">
        <ele>147.437</ele>
        <time>2019-09-24T12:31:39Z</time>
      </trkpt>
      <trkpt lat="44.86776" lon="0.56509">
        <ele>147.459</ele>
        <time>2019-09-24T12:31:43Z</time>
      </trkpt>
      <trkpt lat="44.8678" lon="0.56505">
        <ele>147.476</ele>
        <time>2019-09-24T12:31:46Z</time>
      </trkpt>
      <trkpt lat="44.86783" lon="0.56501">
        <ele>147.493</ele>
        <time>2019-09-24T12:31:49Z</time>
      </trkpt>
      <trkpt lat="44.86785" lon="0.56499">
        <ele>147.503</ele>
        <time>2019-09-24T12:31:51Z</time>
      </trkpt>
      <trkpt lat="44.86788" lon="0.56497">
        <ele>147.518</ele>
        <time>2019-09-24T12:31:54Z</time>
      </trkpt>
      <trkpt lat="44.86792" lon="0.56491">
        <ele>147.544</ele>
        <time>2019-09-24T12:31:59Z</time>
      </trkpt>
      <trkpt lat="44.86796" lon="0.56487">
        <ele>147.559</ele>
        <time>2019-09-24T12:32:02Z</time>
      </trkpt>
      <trkpt lat="44.868" lon="0.56484">
        <ele>147.574</ele>
        <time>2019-09-24T12:32:05Z</time>
      </trkpt>
      <trkpt lat="44.86803" lon="0.5648">
        <ele>147.588</ele>
        <time>2019-09-24T12:32:08Z</time>
      </trkpt>
      <trkpt lat="44.86805" lon="0.56477">
        <ele>147.598</ele>
        <time>2019-09-24T12:32:10Z</time>
      </trkpt>
      <trkpt lat="44.86808" lon="0.56472">
        <ele>147.616</ele>
        <time>2019-09-24T12:32:13Z</time>
      </trkpt>
      <trkpt lat="44.86812" lon="0.56467">
        <ele>147.643</ele>
        <time>2019-09-24T12:32:17Z</time>
      </trkpt>
      <trkpt lat="44.86814" lon="0.56464">
        <ele>147.657</ele>
        <time>2019-09-24T12:32:19Z</time>
      </trkpt>
      <trkpt lat="44.86819" lon="0.56459">
        <ele>147.687</ele>
        <time>2019-09-24T12:32:23Z</time>
      </trkpt>
      <trkpt lat="44.86822" lon="0.56453">
        <ele>147.716</ele>
        <time>2019-09-24T12:32:27Z</time>
      </trkpt>
      <trkpt lat="44.86826" lon="0.56447">
        <ele>147.744</ele>
        <time>2019-09-24T12:32:31Z</time>
      </trkpt>
      <trkpt lat="44.86829" lon="0.56444">
        <ele>147.759</ele>
        <time>2019-09-24T12:32:33Z</time>
      </trkpt>
      <trkpt lat="44.86831" lon="0.56441">
        <ele>147.775</ele>
        <time>2019-09-24T12:32:35Z</time>
      </trkpt>
      <trkpt lat="44.86832" lon="0.56438">
        <ele>147.791</ele>
        <time>2019-09-24T12:32:37Z</time>
      </trkpt>
      <trkpt lat="44.86835" lon="0.56431">
        <ele>147.824</ele>
        <time>2019-09-24T12:32:41Z</time>
      </trkpt>
      <trkpt lat="44.86836" lon="0.56429">
        <ele>147.842</ele>
        <time>2019-09-24T12:32:43Z</time>
      </trkpt>
      <trkpt lat="44.86838" lon="0.56426">
        <ele>147.861</ele>
        <time>2019-09-24T12:32:45Z</time>
      </trkpt>
      <trkpt lat="44.86839" lon="0.56423">
        <ele>147.88</ele>
        <time>2019-09-24T12:32:47Z</time>
      </trkpt>
      <trkpt lat="44.86843" lon="0.56417">
        <ele>147.919</ele>
        <time>2019-09-24T12:32:51Z</time>
      </trkpt>
      <trkpt lat="44.86845" lon="0.56413">
        <ele>147.946</ele>
        <time>2019-09-24T12:32:54Z</time>
      </trkpt>
      <trkpt lat="44.86848" lon="0.56406">
        <ele>147.98</ele>
        <time>2019-09-24T12:32:58Z</time>
      </trkpt>
      <trkpt lat="44.86849" lon="0.56402">
        <ele>147.996</ele>
        <time>2019-09-24T12:33:00Z</time>
      </trkpt>
      <trkpt lat="44.86852" lon="0.56396">
        <ele>148.022</ele>
        <time>2019-09-24T12:33:04Z</time>
      </trkpt>
      <trkpt lat="44.86854" lon="0.56394">
        <ele>148.034</ele>
        <time>2019-09-24T12:33:06Z</time>
      </trkpt>
      <trkpt lat="44.86859" lon="0.56389">
        <ele>148.057</ele>
        <time>2019-09-24T12:33:10Z</time>
      </trkpt>
      <trkpt lat="44.86861" lon="0.56387">
        <ele>148.07</ele>
        <time>2019-09-24T12:33:12Z</time>
      </trkpt>
      <trkpt lat="44.86864" lon="0.56382">
        <ele>148.088</ele>
        <time>2019-09-24T12:33:15Z</time>
      </trkpt>
      <trkpt lat="44.86868" lon="0.56376">
        <ele>148.109</ele>
        <time>2019-09-24T12:33:19Z</time>
      </trkpt>
      <trkpt lat="44.8687" lon="0.56372">
        <ele>148.121</ele>
        <time>2019-09-24T12:33:22Z</time>
      </trkpt>
      <trkpt lat="44.86873" lon="0.56365">
        <ele>148.13</ele>
        <time>2019-09-24T12:33:26Z</time>
      </trkpt>
      <trkpt lat="44.86875" lon="0.56361">
        <ele>148.133</ele>
        <time>2019-09-24T12:33:28Z</time>
      </trkpt>
      <trkpt lat="44.86876" lon="0.56358">
        <ele>148.133</ele>
        <time>2019-09-24T12:33:31Z</time>
      </trkpt>
      <trkpt lat="44.86878" lon="0.56355">
        <ele>148.131</ele>
        <time>2019-09-24T12:33:33Z</time>
      </trkpt>
      <trkpt lat="44.86879" lon="0.56351">
        <ele>148.127</ele>
        <time>2019-09-24T12:33:35Z</time>
      </trkpt>
      <trkpt lat="44.86883" lon="0.56346">
        <ele>148.112</ele>
        <time>2019-09-24T12:33:39Z</time>
      </trkpt>
      <trkpt lat="44.86885" lon="0.56344">
        <ele>148.103</ele>
        <time>2019-09-24T12:33:41Z</time>
      </trkpt>
      <trkpt lat="44.86888" lon="0.5634">
        <ele>148.093</ele>
        <time>2019-09-24T12:33:43Z</time>
      </trkpt>
      <trkpt lat="44.86892" lon="0.56335">
        <ele>148.077</ele>
        <time>2019-09-24T12:33:46Z</time>
      </trkpt>
      <trkpt lat="44.86896" lon="0.5633">
        <ele>148.059</ele>
        <time>2019-09-24T12:33:49Z</time>
      </trkpt>
      <trkpt lat="44.86899" lon="0.56324">
        <ele>148.035</ele>
        <time>2019-09-24T12:33:53Z</time>
      </trkpt>
      <trkpt lat="44.86902" lon="0.56319">
        <ele>148.007</ele>
        <time>2019-09-24T12:33:57Z</time>
      </trkpt>
      <trkpt lat="44.86905" lon="0.56313">
        <ele>147.973</ele>
        <time>2019-09-24T12:34:02Z</time>
      </trkpt>
      <trkpt lat="44.86907" lon="0.56307">
        <ele>147.936</ele>
        <time>2019-09-24T12:34:07Z</time>
      </trkpt>
      <trkpt lat="44.86911" lon="0.56305">
        <ele>147.894</ele>
        <time>2019-09-24T12:34:12Z</time>
      </trkpt>
      <trkpt lat="44.86915" lon="0.56303">
        <ele>147.85</ele>
        <time>2019-09-24T12:34:17Z</time>
      </trkpt>
      <trkpt lat="44.8692" lon="0.56303">
        <ele>147.777</ele>
        <time>2019-09-24T12:34:25Z</time>
      </trkpt>
      <trkpt lat="44.86918" lon="0.5628">
        <ele>147.366</ele>
        <time>2019-09-24T12:36:07Z</time>
      </trkpt>
      <trkpt lat="44.86924" lon="0.56269">
        <ele>147.327</ele>
        <time>2019-09-24T12:36:12Z</time>
      </trkpt>
      <trkpt lat="44.86927" lon="0.56265">
        <ele>147.307</ele>
        <time>2019-09-24T12:36:15Z</time>
      </trkpt>
      <trkpt lat="44.86927" lon="0.56265">
        <ele>147.307</ele>
        <time>2019-09-24T12:36:21Z</time>
      </trkpt>
      <trkpt lat="44.86927" lon="0.56265">
        <ele>147.307</ele>
        <time>2019-09-24T12:36:22Z</time>
      </trkpt>
      <trkpt lat="44.86923" lon="0.56255">
        <ele>147.065</ele>
        <time>2019-09-24T12:36:55Z</time>
      </trkpt>
      <trkpt lat="44.86925" lon="0.56246">
        <ele>147.019</ele>
        <time>2019-09-24T12:37:00Z</time>
      </trkpt>
      <trkpt lat="44.86926" lon="0.5624">
        <ele>146.989</ele>
        <time>2019-09-24T12:37:03Z</time>
      </trkpt>
      <trkpt lat="44.8693" lon="0.56233">
        <ele>146.959</ele>
        <time>2019-09-24T12:37:06Z</time>
      </trkpt>
      <trkpt lat="44.86934" lon="0.5623">
        <ele>146.94</ele>
        <time>2019-09-24T12:37:08Z</time>
      </trkpt>
      <trkpt lat="44.86937" lon="0.56228">
        <ele>146.931</ele>
        <time>2019-09-24T12:37:09Z</time>
      </trkpt>
      <trkpt lat="44.86947" lon="0.56228">
        <ele>146.896</ele>
        <time>2019-09-24T12:37:13Z</time>
      </trkpt>
      <trkpt lat="44.86948" lon="0.5622">
        <ele>146.853</ele>
        <time>2019-09-24T12:37:19Z</time>
      </trkpt>
      <trkpt lat="44.86952" lon="0.56215">
        <ele>146.834</ele>
        <time>2019-09-24T12:37:23Z</time>
      </trkpt>
      <trkpt lat="44.86956" lon="0.56209">
        <ele>146.822</ele>
        <time>2019-09-24T12:37:27Z</time>
      </trkpt>
      <trkpt lat="44.86959" lon="0.56204">
        <ele>146.814</ele>
        <time>2019-09-24T12:37:30Z</time>
      </trkpt>
      <trkpt lat="44.86962" lon="0.562">
        <ele>146.807</ele>
        <time>2019-09-24T12:37:34Z</time>
      </trkpt>
      <trkpt lat="44.86965" lon="0.56194">
        <ele>146.8</ele>
        <time>2019-09-24T12:37:38Z</time>
      </trkpt>
      <trkpt lat="44.86967" lon="0.5619">
        <ele>146.797</ele>
        <time>2019-09-24T12:37:40Z</time>
      </trkpt>
      <trkpt lat="44.86969" lon="0.56186">
        <ele>146.793</ele>
        <time>2019-09-24T12:37:42Z</time>
      </trkpt>
      <trkpt lat="44.8697" lon="0.56184">
        <ele>146.79</ele>
        <time>2019-09-24T12:37:44Z</time>
      </trkpt>
      <trkpt lat="44.86972" lon="0.56177">
        <ele>146.78</ele>
        <time>2019-09-24T12:37:51Z</time>
      </trkpt>
      <trkpt lat="44.86973" lon="0.56174">
        <ele>146.773</ele>
        <time>2019-09-24T12:37:55Z</time>
      </trkpt>
      <trkpt lat="44.86976" lon="0.56168">
        <ele>146.767</ele>
        <time>2019-09-24T12:37:58Z</time>
      </trkpt>
      <trkpt lat="44.86984" lon="0.5616">
        <ele>146.763</ele>
        <time>2019-09-24T12:38:01Z</time>
      </trkpt>
      <trkpt lat="44.86989" lon="0.56159">
        <ele>146.763</ele>
        <time>2019-09-24T12:38:04Z</time>
      </trkpt>
      <trkpt lat="44.86992" lon="0.56158">
        <ele>146.764</ele>
        <time>2019-09-24T12:38:09Z</time>
      </trkpt>
      <trkpt lat="44.86998" lon="0.56155">
        <ele>146.769</ele>
        <time>2019-09-24T12:38:12Z</time>
      </trkpt>
      <trkpt lat="44.87003" lon="0.56153">
        <ele>146.776</ele>
        <time>2019-09-24T12:38:14Z</time>
      </trkpt>
      <trkpt lat="44.87007" lon="0.56149">
        <ele>146.802</ele>
        <time>2019-09-24T12:38:19Z</time>
      </trkpt>
      <trkpt lat="44.8701" lon="0.56146">
        <ele>146.814</ele>
        <time>2019-09-24T12:38:21Z</time>
      </trkpt>
      <trkpt lat="44.87014" lon="0.56143">
        <ele>146.826</ele>
        <time>2019-09-24T12:38:23Z</time>
      </trkpt>
      <trkpt lat="44.87017" lon="0.56137">
        <ele>146.844</ele>
        <time>2019-09-24T12:38:26Z</time>
      </trkpt>
      <trkpt lat="44.87019" lon="0.56134">
        <ele>146.859</ele>
        <time>2019-09-24T12:38:28Z</time>
      </trkpt>
      <trkpt lat="44.8702" lon="0.56128">
        <ele>146.901</ele>
        <time>2019-09-24T12:38:33Z</time>
      </trkpt>
      <trkpt lat="44.87022" lon="0.56122">
        <ele>146.944</ele>
        <time>2019-09-24T12:38:38Z</time>
      </trkpt>
      <trkpt lat="44.87027" lon="0.56121">
        <ele>146.992</ele>
        <time>2019-09-24T12:38:43Z</time>
      </trkpt>
      <trkpt lat="44.87035" lon="0.56122">
        <ele>147.041</ele>
        <time>2019-09-24T12:38:48Z</time>
      </trkpt>
      <trkpt lat="44.87041" lon="0.5612">
        <ele>147.068</ele>
        <time>2019-09-24T12:38:51Z</time>
      </trkpt>
      <trkpt lat="44.87045" lon="0.56119">
        <ele>147.085</ele>
        <time>2019-09-24T12:38:53Z</time>
      </trkpt>
      <trkpt lat="44.87048" lon="0.56119">
        <ele>147.11</ele>
        <time>2019-09-24T12:38:56Z</time>
      </trkpt>
      <trkpt lat="44.87053" lon="0.56119">
        <ele>147.141</ele>
        <time>2019-09-24T12:39:00Z</time>
      </trkpt>
      <trkpt lat="44.87057" lon="0.56114">
        <ele>147.17</ele>
        <time>2019-09-24T12:39:04Z</time>
      </trkpt>
      <trkpt lat="44.87062" lon="0.56112">
        <ele>147.207</ele>
        <time>2019-09-24T12:39:10Z</time>
      </trkpt>
      <trkpt lat="44.87066" lon="0.56109">
        <ele>147.221</ele>
        <time>2019-09-24T12:39:13Z</time>
      </trkpt>
      <trkpt lat="44.87072" lon="0.56109">
        <ele>147.231</ele>
        <time>2019-09-24T12:39:16Z</time>
      </trkpt>
      <trkpt lat="44.87075" lon="0.56109">
        <ele>147.24</ele>
        <time>2019-09-24T12:39:19Z</time>
      </trkpt>
      <trkpt lat="44.87077" lon="0.5611">
        <ele>147.245</ele>
        <time>2019-09-24T12:39:21Z</time>
      </trkpt>
      <trkpt lat="44.87083" lon="0.56112">
        <ele>147.249</ele>
        <time>2019-09-24T12:39:24Z</time>
      </trkpt>
      <trkpt lat="44.87088" lon="0.56117">
        <ele>147.249</ele>
        <time>2019-09-24T12:39:27Z</time>
      </trkpt>
      <trkpt lat="44.87092" lon="0.56121">
        <ele>147.246</ele>
        <time>2019-09-24T12:39:30Z</time>
      </trkpt>
      <trkpt lat="44.87096" lon="0.56124">
        <ele>147.244</ele>
        <time>2019-09-24T12:39:32Z</time>
      </trkpt>
      <trkpt lat="44.87099" lon="0.56125">
        <ele>147.242</ele>
        <time>2019-09-24T12:39:34Z</time>
      </trkpt>
      <trkpt lat="44.87103" lon="0.56129">
        <ele>147.236</ele>
        <time>2019-09-24T12:39:38Z</time>
      </trkpt>
      <trkpt lat="44.87107" lon="0.56131">
        <ele>147.228</ele>
        <time>2019-09-24T12:39:42Z</time>
      </trkpt>
      <trkpt lat="44.87113" lon="0.56131">
        <ele>147.222</ele>
        <time>2019-09-24T12:39:46Z</time>
      </trkpt>
      <trkpt lat="44.87117" lon="0.5613">
        <ele>147.214</ele>
        <time>2019-09-24T12:39:50Z</time>
      </trkpt>
      <trkpt lat="44.87123" lon="0.5613">
        <ele>147.204</ele>
        <time>2019-09-24T12:39:54Z</time>
      </trkpt>
      <trkpt lat="44.87128" lon="0.56134">
        <ele>147.19</ele>
        <time>2019-09-24T12:39:58Z</time>
      </trkpt>
      <trkpt lat="44.87132" lon="0.5614">
        <ele>147.171</ele>
        <time>2019-09-24T12:40:02Z</time>
      </trkpt>
      <trkpt lat="44.87132" lon="0.56147">
        <ele>147.149</ele>
        <time>2019-09-24T12:40:06Z</time>
      </trkpt>
      <trkpt lat="44.87133" lon="0.56154">
        <ele>147.133</ele>
        <time>2019-09-24T12:40:09Z</time>
      </trkpt>
      <trkpt lat="44.87134" lon="0.56157">
        <ele>147.121</ele>
        <time>2019-09-24T12:40:11Z</time>
      </trkpt>
      <trkpt lat="44.87135" lon="0.5616">
        <ele>147.109</ele>
        <time>2019-09-24T12:40:13Z</time>
      </trkpt>
      <trkpt lat="44.87135" lon="0.56163">
        <ele>147.097</ele>
        <time>2019-09-24T12:40:15Z</time>
      </trkpt>
      <trkpt lat="44.87136" lon="0.56168">
        <ele>147.076</ele>
        <time>2019-09-24T12:40:18Z</time>
      </trkpt>
      <trkpt lat="44.87137" lon="0.56173">
        <ele>147.054</ele>
        <time>2019-09-24T12:40:21Z</time>
      </trkpt>
      <trkpt lat="44.87138" lon="0.56176">
        <ele>147.038</ele>
        <time>2019-09-24T12:40:23Z</time>
      </trkpt>
      <trkpt lat="44.87138" lon="0.5618">
        <ele>147.02</ele>
        <time>2019-09-24T12:40:25Z</time>
      </trkpt>
      <trkpt lat="44.87139" lon="0.56183">
        <ele>147.001</ele>
        <time>2019-09-24T12:40:27Z</time>
      </trkpt>
      <trkpt lat="44.87141" lon="0.56191">
        <ele>146.963</ele>
        <time>2019-09-24T12:40:31Z</time>
      </trkpt>
      <trkpt lat="44.87142" lon="0.56195">
        <ele>146.943</ele>
        <time>2019-09-24T12:40:33Z</time>
      </trkpt>
      <trkpt lat="44.87146" lon="0.562">
        <ele>146.904</ele>
        <time>2019-09-24T12:40:37Z</time>
      </trkpt>
      <trkpt lat="44.87149" lon="0.56206">
        <ele>146.845</ele>
        <time>2019-09-24T12:40:43Z</time>
      </trkpt>
      <trkpt lat="44.87151" lon="0.5621">
        <ele>146.815</ele>
        <time>2019-09-24T12:40:46Z</time>
      </trkpt>
      <trkpt lat="44.87152" lon="0.56212">
        <ele>146.795</ele>
        <time>2019-09-24T12:40:48Z</time>
      </trkpt>
      <trkpt lat="44.87154" lon="0.56215">
        <ele>146.774</ele>
        <time>2019-09-24T12:40:50Z</time>
      </trkpt>
      <trkpt lat="44.87156" lon="0.56219">
        <ele>146.743</ele>
        <time>2019-09-24T12:40:53Z</time>
      </trkpt>
      <trkpt lat="44.87158" lon="0.56225">
        <ele>146.7</ele>
        <time>2019-09-24T12:40:57Z</time>
      </trkpt>
      <trkpt lat="44.87161" lon="0.56232">
        <ele>146.656</ele>
        <time>2019-09-24T12:41:01Z</time>
      </trkpt>
      <trkpt lat="44.87164" lon="0.56237">
        <ele>146.624</ele>
        <time>2019-09-24T12:41:04Z</time>
      </trkpt>
      <trkpt lat="44.87167" lon="0.5624">
        <ele>146.581</ele>
        <time>2019-09-24T12:41:08Z</time>
      </trkpt>
      <trkpt lat="44.87171" lon="0.56244">
        <ele>146.53</ele>
        <time>2019-09-24T12:41:13Z</time>
      </trkpt>
      <trkpt lat="44.87174" lon="0.5625">
        <ele>146.492</ele>
        <time>2019-09-24T12:41:17Z</time>
      </trkpt>
      <trkpt lat="44.87177" lon="0.56255">
        <ele>146.456</ele>
        <time>2019-09-24T12:41:21Z</time>
      </trkpt>
      <trkpt lat="44.87181" lon="0.56259">
        <ele>146.422</ele>
        <time>2019-09-24T12:41:25Z</time>
      </trkpt>
      <trkpt lat="44.87184" lon="0.56266">
        <ele>146.38</ele>
        <time>2019-09-24T12:41:30Z</time>
      </trkpt>
      <trkpt lat="44.87186" lon="0.56273">
        <ele>146.345</ele>
        <time>2019-09-24T12:41:34Z</time>
      </trkpt>
      <trkpt lat="44.87189" lon="0.56279">
        <ele>146.311</ele>
        <time>2019-09-24T12:41:38Z</time>
      </trkpt>
      <trkpt lat="44.87192" lon="0.56286">
        <ele>146.279</ele>
        <time>2019-09-24T12:41:42Z</time>
      </trkpt>
      <trkpt lat="44.87196" lon="0.56291">
        <ele>146.241</ele>
        <time>2019-09-24T12:41:47Z</time>
      </trkpt>
      <trkpt lat="44.87198" lon="0.56293">
        <ele>146.226</ele>
        <time>2019-09-24T12:41:49Z</time>
      </trkpt>
      <trkpt lat="44.872" lon="0.56296">
        <ele>146.204</ele>
        <time>2019-09-24T12:41:52Z</time>
      </trkpt>
      <trkpt lat="44.87201" lon="0.563">
        <ele>146.19</ele>
        <time>2019-09-24T12:41:54Z</time>
      </trkpt>
      <trkpt lat="44.87203" lon="0.56302">
        <ele>146.176</ele>
        <time>2019-09-24T12:41:56Z</time>
      </trkpt>
      <trkpt lat="44.87205" lon="0.56305">
        <ele>146.162</ele>
        <time>2019-09-24T12:41:58Z</time>
      </trkpt>
      <trkpt lat="44.87208" lon="0.56311">
        <ele>146.124</ele>
        <time>2019-09-24T12:42:03Z</time>
      </trkpt>
      <trkpt lat="44.87209" lon="0.56317">
        <ele>146.1</ele>
        <time>2019-09-24T12:42:06Z</time>
      </trkpt>
      <trkpt lat="44.8721" lon="0.56321">
        <ele>146.083</ele>
        <time>2019-09-24T12:42:08Z</time>
      </trkpt>
      <trkpt lat="44.87211" lon="0.56325">
        <ele>146.067</ele>
        <time>2019-09-24T12:42:10Z</time>
      </trkpt>
      <trkpt lat="44.87213" lon="0.56331">
        <ele>146.035</ele>
        <time>2019-09-24T12:42:14Z</time>
      </trkpt>
      <trkpt lat="44.87214" lon="0.56334">
        <ele>146.02</ele>
        <time>2019-09-24T12:42:16Z</time>
      </trkpt>
      <trkpt lat="44.87217" lon="0.56339">
        <ele>145.992</ele>
        <time>2019-09-24T12:42:20Z</time>
      </trkpt>
      <trkpt lat="44.87222" lon="0.56343">
        <ele>145.968</ele>
        <time>2019-09-24T12:42:24Z</time>
      </trkpt>
      <trkpt lat="44.87224" lon="0.56345">
        <ele>145.959</ele>
        <time>2019-09-24T12:42:26Z</time>
      </trkpt>
      <trkpt lat="44.87228" lon="0.56351">
        <ele>145.939</ele>
        <time>2019-09-24T12:42:31Z</time>
      </trkpt>
      <trkpt lat="44.8723" lon="0.56356">
        <ele>145.927</ele>
        <time>2019-09-24T12:42:34Z</time>
      </trkpt>
      <trkpt lat="44.87234" lon="0.5636">
        <ele>145.914</ele>
        <time>2019-09-24T12:42:38Z</time>
      </trkpt>
      <trkpt lat="44.87236" lon="0.56363">
        <ele>145.907</ele>
        <time>2019-09-24T12:42:40Z</time>
      </trkpt>
      <trkpt lat="44.8724" lon="0.56369">
        <ele>145.896</ele>
        <time>2019-09-24T12:42:44Z</time>
      </trkpt>
      <trkpt lat="44.87243" lon="0.56373">
        <ele>145.891</ele>
        <time>2019-09-24T12:42:47Z</time>
      </trkpt>
      <trkpt lat="44.87247" lon="0.56377">
        <ele>145.889</ele>
        <time>2019-09-24T12:42:50Z</time>
      </trkpt>
      <trkpt lat="44.8725" lon="0.56381">
        <ele>145.885</ele>
        <time>2019-09-24T12:42:55Z</time>
      </trkpt>
      <trkpt lat="44.87255" lon="0.56386">
        <ele>145.879</ele>
        <time>2019-09-24T12:42:59Z</time>
      </trkpt>
      <trkpt lat="44.87257" lon="0.56388">
        <ele>145.876</ele>
        <time>2019-09-24T12:43:01Z</time>
      </trkpt>
      <trkpt lat="44.87259" lon="0.56391">
        <ele>145.876</ele>
        <time>2019-09-24T12:43:03Z</time>
      </trkpt>
      <trkpt lat="44.87261" lon="0.56394">
        <ele>145.877</ele>
        <time>2019-09-24T12:43:05Z</time>
      </trkpt>
      <trkpt lat="44.87266" lon="0.56396">
        <ele>145.884</ele>
        <time>2019-09-24T12:43:10Z</time>
      </trkpt>
      <trkpt lat="44.8727" lon="0.56402">
        <ele>145.895</ele>
        <time>2019-09-24T12:43:14Z</time>
      </trkpt>
      <trkpt lat="44.87274" lon="0.56407">
        <ele>145.909</ele>
        <time>2019-09-24T12:43:18Z</time>
      </trkpt>
      <trkpt lat="44.87279" lon="0.56411">
        <ele>145.93</ele>
        <time>2019-09-24T12:43:23Z</time>
      </trkpt>
      <trkpt lat="44.87282" lon="0.56413">
        <ele>145.941</ele>
        <time>2019-09-24T12:43:25Z</time>
      </trkpt>
      <trkpt lat="44.87284" lon="0.56415">
        <ele>145.952</ele>
        <time>2019-09-24T12:43:27Z</time>
      </trkpt>
      <trkpt lat="44.87287" lon="0.56417">
        <ele>145.965</ele>
        <time>2019-09-24T12:43:29Z</time>
      </trkpt>
      <trkpt lat="44.8729" lon="0.56419">
        <ele>146</ele>
        <time>2019-09-24T12:43:34Z</time>
      </trkpt>
      <trkpt lat="44.87293" lon="0.56421">
        <ele>146.018</ele>
        <time>2019-09-24T12:43:37Z</time>
      </trkpt>
      <trkpt lat="44.87296" lon="0.56423">
        <ele>146.029</ele>
        <time>2019-09-24T12:43:39Z</time>
      </trkpt>
      <trkpt lat="44.87299" lon="0.56426">
        <ele>146.038</ele>
        <time>2019-09-24T12:43:41Z</time>
      </trkpt>
      <trkpt lat="44.87301" lon="0.56428">
        <ele>146.048</ele>
        <time>2019-09-24T12:43:43Z</time>
      </trkpt>
      <trkpt lat="44.87305" lon="0.56429">
        <ele>146.066</ele>
        <time>2019-09-24T12:43:47Z</time>
      </trkpt>
      <trkpt lat="44.8731" lon="0.56433">
        <ele>146.08</ele>
        <time>2019-09-24T12:43:51Z</time>
      </trkpt>
      <trkpt lat="44.87314" lon="0.56436">
        <ele>146.092</ele>
        <time>2019-09-24T12:43:55Z</time>
      </trkpt>
      <trkpt lat="44.87319" lon="0.5644">
        <ele>146.106</ele>
        <time>2019-09-24T12:43:59Z</time>
      </trkpt>
      <trkpt lat="44.87321" lon="0.56442">
        <ele>146.116</ele>
        <time>2019-09-24T12:44:01Z</time>
      </trkpt>
      <trkpt lat="44.87324" lon="0.56445">
        <ele>146.127</ele>
        <time>2019-09-24T12:44:03Z</time>
      </trkpt>
      <trkpt lat="44.87328" lon="0.56451">
        <ele>146.155</ele>
        <time>2019-09-24T12:44:07Z</time>
      </trkpt>
      <trkpt lat="44.8733" lon="0.56453">
        <ele>146.171</ele>
        <time>2019-09-24T12:44:09Z</time>
      </trkpt>
      <trkpt lat="44.87334" lon="0.56457">
        <ele>146.225</ele>
        <time>2019-09-24T12:44:15Z</time>
      </trkpt>
      <trkpt lat="44.87337" lon="0.56459">
        <ele>146.245</ele>
        <time>2019-09-24T12:44:17Z</time>
      </trkpt>
      <trkpt lat="44.8734" lon="0.56464">
        <ele>146.29</ele>
        <time>2019-09-24T12:44:21Z</time>
      </trkpt>
      <trkpt lat="44.87342" lon="0.56467">
        <ele>146.315</ele>
        <time>2019-09-24T12:44:23Z</time>
      </trkpt>
      <trkpt lat="44.87345" lon="0.56473">
        <ele>146.379</ele>
        <time>2019-09-24T12:44:28Z</time>
      </trkpt>
      <trkpt lat="44.87348" lon="0.56479">
        <ele>146.447</ele>
        <time>2019-09-24T12:44:33Z</time>
      </trkpt>
      <trkpt lat="44.87352" lon="0.56483">
        <ele>146.504</ele>
        <time>2019-09-24T12:44:37Z</time>
      </trkpt>
      <trkpt lat="44.87355" lon="0.56489">
        <ele>146.562</ele>
        <time>2019-09-24T12:44:41Z</time>
      </trkpt>
      <trkpt lat="44.87357" lon="0.56492">
        <ele>146.592</ele>
        <time>2019-09-24T12:44:43Z</time>
      </trkpt>
      <trkpt lat="44.87361" lon="0.56497">
        <ele>146.65</ele>
        <time>2019-09-24T12:44:47Z</time>
      </trkpt>
      <trkpt lat="44.87363" lon="0.565">
        <ele>146.692</ele>
        <time>2019-09-24T12:44:50Z</time>
      </trkpt>
      <trkpt lat="44.87369" lon="0.56505">
        <ele>146.746</ele>
        <time>2019-09-24T12:44:54Z</time>
      </trkpt>
      <trkpt lat="44.87371" lon="0.56507">
        <ele>146.773</ele>
        <time>2019-09-24T12:44:56Z</time>
      </trkpt>
      <trkpt lat="44.87374" lon="0.56511">
        <ele>146.814</ele>
        <time>2019-09-24T12:44:59Z</time>
      </trkpt>
      <trkpt lat="44.87378" lon="0.56515">
        <ele>146.86</ele>
        <time>2019-09-24T12:45:02Z</time>
      </trkpt>
      <trkpt lat="44.87383" lon="0.56516">
        <ele>146.941</ele>
        <time>2019-09-24T12:45:07Z</time>
      </trkpt>
      <trkpt lat="44.87388" lon="0.56518">
        <ele>146.992</ele>
        <time>2019-09-24T12:45:10Z</time>
      </trkpt>
      <trkpt lat="44.87393" lon="0.56521">
        <ele>147.043</ele>
        <time>2019-09-24T12:45:13Z</time>
      </trkpt>
      <trkpt lat="44.87393" lon="0.56528">
        <ele>147.16</ele>
        <time>2019-09-24T12:45:20Z</time>
      </trkpt>
      <trkpt lat="44.87397" lon="0.56536">
        <ele>147.255</ele>
        <time>2019-09-24T12:45:25Z</time>
      </trkpt>
      <trkpt lat="44.87401" lon="0.56539">
        <ele>147.332</ele>
        <time>2019-09-24T12:45:29Z</time>
      </trkpt>
      <trkpt lat="44.87404" lon="0.56541">
        <ele>147.369</ele>
        <time>2019-09-24T12:45:31Z</time>
      </trkpt>
      <trkpt lat="44.87406" lon="0.56543">
        <ele>147.406</ele>
        <time>2019-09-24T12:45:33Z</time>
      </trkpt>
      <trkpt lat="44.87413" lon="0.56545">
        <ele>147.571</ele>
        <time>2019-09-24T12:45:42Z</time>
      </trkpt>
      <trkpt lat="44.87416" lon="0.56548">
        <ele>147.625</ele>
        <time>2019-09-24T12:45:45Z</time>
      </trkpt>
      <trkpt lat="44.87421" lon="0.56549">
        <ele>147.66</ele>
        <time>2019-09-24T12:45:47Z</time>
      </trkpt>
      <trkpt lat="44.87427" lon="0.5655">
        <ele>147.709</ele>
        <time>2019-09-24T12:45:50Z</time>
      </trkpt>
      <trkpt lat="44.87431" lon="0.56551">
        <ele>147.726</ele>
        <time>2019-09-24T12:45:51Z</time>
      </trkpt>
      <trkpt lat="44.87436" lon="0.56552">
        <ele>147.76</ele>
        <time>2019-09-24T12:45:53Z</time>
      </trkpt>
      <trkpt lat="44.8744" lon="0.56554">
        <ele>147.794</ele>
        <time>2019-09-24T12:45:55Z</time>
      </trkpt>
      <trkpt lat="44.87445" lon="0.56554">
        <ele>147.847</ele>
        <time>2019-09-24T12:45:58Z</time>
      </trkpt>
      <trkpt lat="44.87448" lon="0.56553">
        <ele>147.904</ele>
        <time>2019-09-24T12:46:01Z</time>
      </trkpt>
      <trkpt lat="44.87453" lon="0.56556">
        <ele>147.98</ele>
        <time>2019-09-24T12:46:05Z</time>
      </trkpt>
      <trkpt lat="44.87456" lon="0.56557">
        <ele>148.036</ele>
        <time>2019-09-24T12:46:08Z</time>
      </trkpt>
      <trkpt lat="44.87461" lon="0.56561">
        <ele>148.166</ele>
        <time>2019-09-24T12:46:15Z</time>
      </trkpt>
      <trkpt lat="44.87466" lon="0.56562">
        <ele>148.222</ele>
        <time>2019-09-24T12:46:19Z</time>
      </trkpt>
      <trkpt lat="44.87471" lon="0.56566">
        <ele>148.241</ele>
        <time>2019-09-24T12:46:20Z</time>
      </trkpt>
      <trkpt lat="44.87475" lon="0.56569">
        <ele>148.277</ele>
        <time>2019-09-24T12:46:22Z</time>
      </trkpt>
      <trkpt lat="44.87477" lon="0.56571">
        <ele>148.295</ele>
        <time>2019-09-24T12:46:23Z</time>
      </trkpt>
      <trkpt lat="44.87483" lon="0.56574">
        <ele>148.364</ele>
        <time>2019-09-24T12:46:27Z</time>
      </trkpt>
      <trkpt lat="44.87486" lon="0.56576">
        <ele>148.519</ele>
        <time>2019-09-24T12:46:36Z</time>
      </trkpt>
      <trkpt lat="44.8749" lon="0.56582">
        <ele>148.602</ele>
        <time>2019-09-24T12:46:41Z</time>
      </trkpt>
      <trkpt lat="44.87494" lon="0.56587">
        <ele>148.678</ele>
        <time>2019-09-24T12:46:46Z</time>
      </trkpt>
      <trkpt lat="44.87497" lon="0.5659">
        <ele>148.708</ele>
        <time>2019-09-24T12:46:48Z</time>
      </trkpt>
      <trkpt lat="44.87499" lon="0.56592">
        <ele>148.723</ele>
        <time>2019-09-24T12:46:49Z</time>
      </trkpt>
      <trkpt lat="44.87502" lon="0.56597">
        <ele>148.782</ele>
        <time>2019-09-24T12:46:53Z</time>
      </trkpt>
      <trkpt lat="44.87505" lon="0.56602">
        <ele>148.838</ele>
        <time>2019-09-24T12:46:57Z</time>
      </trkpt>
      <trkpt lat="44.87507" lon="0.56605">
        <ele>148.865</ele>
        <time>2019-09-24T12:46:59Z</time>
      </trkpt>
      <trkpt lat="44.87508" lon="0.56607">
        <ele>148.906</ele>
        <time>2019-09-24T12:47:02Z</time>
      </trkpt>
      <trkpt lat="44.87512" lon="0.5661">
        <ele>148.946</ele>
        <time>2019-09-24T12:47:05Z</time>
      </trkpt>
      <trkpt lat="44.87516" lon="0.56615">
        <ele>148.984</ele>
        <time>2019-09-24T12:47:08Z</time>
      </trkpt>
      <trkpt lat="44.87518" lon="0.56618">
        <ele>149.022</ele>
        <time>2019-09-24T12:47:11Z</time>
      </trkpt>
      <trkpt lat="44.8752" lon="0.5662">
        <ele>149.06</ele>
        <time>2019-09-24T12:47:14Z</time>
      </trkpt>
      <trkpt lat="44.87524" lon="0.56625">
        <ele>149.098</ele>
        <time>2019-09-24T12:47:17Z</time>
      </trkpt>
      <trkpt lat="44.87527" lon="0.56631">
        <ele>149.164</ele>
        <time>2019-09-24T12:47:22Z</time>
      </trkpt>
      <trkpt lat="44.8753" lon="0.56636">
        <ele>149.206</ele>
        <time>2019-09-24T12:47:26Z</time>
      </trkpt>
      <trkpt lat="44.87534" lon="0.56643">
        <ele>149.275</ele>
        <time>2019-09-24T12:47:31Z</time>
      </trkpt>
      <trkpt lat="44.87542" lon="0.56647">
        <ele>149.332</ele>
        <time>2019-09-24T12:47:35Z</time>
      </trkpt>
      <trkpt lat="44.87546" lon="0.56652">
        <ele>149.417</ele>
        <time>2019-09-24T12:47:41Z</time>
      </trkpt>
      <trkpt lat="44.8755" lon="0.56656">
        <ele>149.471</ele>
        <time>2019-09-24T12:47:45Z</time>
      </trkpt>
      <trkpt lat="44.87552" lon="0.56662">
        <ele>149.576</ele>
        <time>2019-09-24T12:47:53Z</time>
      </trkpt>
      <trkpt lat="44.87557" lon="0.56674">
        <ele>149.643</ele>
        <time>2019-09-24T12:47:58Z</time>
      </trkpt>
      <trkpt lat="44.87562" lon="0.56673">
        <ele>149.74</ele>
        <time>2019-09-24T12:48:05Z</time>
      </trkpt>
      <trkpt lat="44.87566" lon="0.56678">
        <ele>149.791</ele>
        <time>2019-09-24T12:48:09Z</time>
      </trkpt>
      <trkpt lat="44.87568" lon="0.56681">
        <ele>149.829</ele>
        <time>2019-09-24T12:48:12Z</time>
      </trkpt>
      <trkpt lat="44.87573" lon="0.56684">
        <ele>149.878</ele>
        <time>2019-09-24T12:48:17Z</time>
      </trkpt>
      <trkpt lat="44.87578" lon="0.56689">
        <ele>149.926</ele>
        <time>2019-09-24T12:48:21Z</time>
      </trkpt>
      <trkpt lat="44.8758" lon="0.56695">
        <ele>149.982</ele>
        <time>2019-09-24T12:48:26Z</time>
      </trkpt>
      <trkpt lat="44.87584" lon="0.56699">
        <ele>150.015</ele>
        <time>2019-09-24T12:48:29Z</time>
      </trkpt>
      <trkpt lat="44.87589" lon="0.56703">
        <ele>150.046</ele>
        <time>2019-09-24T12:48:32Z</time>
      </trkpt>
      <trkpt lat="44.87596" lon="0.5671">
        <ele>150.105</ele>
        <time>2019-09-24T12:48:38Z</time>
      </trkpt>
      <trkpt lat="44.87598" lon="0.56714">
        <ele>150.132</ele>
        <time>2019-09-24T12:48:41Z</time>
      </trkpt>
      <trkpt lat="44.87602" lon="0.56719">
        <ele>150.168</ele>
        <time>2019-09-24T12:48:45Z</time>
      </trkpt>
      <trkpt lat="44.87605" lon="0.56722">
        <ele>150.187</ele>
        <time>2019-09-24T12:48:47Z</time>
      </trkpt>
      <trkpt lat="44.87608" lon="0.56727">
        <ele>150.205</ele>
        <time>2019-09-24T12:48:49Z</time>
      </trkpt>
      <trkpt lat="44.87611" lon="0.56733">
        <ele>150.244</ele>
        <time>2019-09-24T12:48:53Z</time>
      </trkpt>
      <trkpt lat="44.87615" lon="0.56736">
        <ele>150.274</ele>
        <time>2019-09-24T12:48:56Z</time>
      </trkpt>
      <trkpt lat="44.87619" lon="0.56743">
        <ele>150.347</ele>
        <time>2019-09-24T12:49:02Z</time>
      </trkpt>
      <trkpt lat="44.8762" lon="0.56742">
        <ele>150.381</ele>
        <time>2019-09-24T12:49:08Z</time>
      </trkpt>
      <trkpt lat="44.87621" lon="0.56751">
        <ele>151.679</ele>
        <time>2019-09-24T12:51:03Z</time>
      </trkpt>
      <trkpt lat="44.87627" lon="0.56754">
        <ele>151.86</ele>
        <time>2019-09-24T12:51:07Z</time>
      </trkpt>
      <trkpt lat="44.8763" lon="0.56756">
        <ele>151.945</ele>
        <time>2019-09-24T12:51:09Z</time>
      </trkpt>
      <trkpt lat="44.87632" lon="0.56758">
        <ele>152.026</ele>
        <time>2019-09-24T12:51:11Z</time>
      </trkpt>
      <trkpt lat="44.87636" lon="0.5676">
        <ele>152.145</ele>
        <time>2019-09-24T12:51:14Z</time>
      </trkpt>
      <trkpt lat="44.87638" lon="0.56761">
        <ele>152.223</ele>
        <time>2019-09-24T12:51:16Z</time>
      </trkpt>
      <trkpt lat="44.87642" lon="0.56765">
        <ele>152.479</ele>
        <time>2019-09-24T12:51:23Z</time>
      </trkpt>
      <trkpt lat="44.87647" lon="0.56769">
        <ele>152.58</ele>
        <time>2019-09-24T12:51:26Z</time>
      </trkpt>
      <trkpt lat="44.87651" lon="0.56773">
        <ele>152.707</ele>
        <time>2019-09-24T12:51:30Z</time>
      </trkpt>
      <trkpt lat="44.87654" lon="0.56778">
        <ele>152.859</ele>
        <time>2019-09-24T12:51:35Z</time>
      </trkpt>
      <trkpt lat="44.8766" lon="0.56779">
        <ele>153.033</ele>
        <time>2019-09-24T12:51:41Z</time>
      </trkpt>
      <trkpt lat="44.87664" lon="0.56782">
        <ele>153.168</ele>
        <time>2019-09-24T12:51:46Z</time>
      </trkpt>
      <trkpt lat="44.87669" lon="0.56784">
        <ele>153.319</ele>
        <time>2019-09-24T12:51:52Z</time>
      </trkpt>
      <trkpt lat="44.87672" lon="0.56785">
        <ele>153.391</ele>
        <time>2019-09-24T12:51:55Z</time>
      </trkpt>
      <trkpt lat="44.87676" lon="0.56788">
        <ele>153.486</ele>
        <time>2019-09-24T12:51:59Z</time>
      </trkpt>
      <trkpt lat="44.87678" lon="0.56789">
        <ele>153.533</ele>
        <time>2019-09-24T12:52:01Z</time>
      </trkpt>
      <trkpt lat="44.87678" lon="0.56789">
        <ele>153.533</ele>
        <time>2019-09-24T12:52:08Z</time>
      </trkpt>
      <trkpt lat="44.87681" lon="0.56795">
        <ele>153.617</ele>
        <time>2019-09-24T12:52:09Z</time>
      </trkpt>
      <trkpt lat="44.87684" lon="0.568">
        <ele>153.687</ele>
        <time>2019-09-24T12:52:12Z</time>
      </trkpt>
      <trkpt lat="44.87686" lon="0.56803">
        <ele>153.756</ele>
        <time>2019-09-24T12:52:15Z</time>
      </trkpt>
      <trkpt lat="44.87688" lon="0.56805">
        <ele>153.784</ele>
        <time>2019-09-24T12:52:18Z</time>
      </trkpt>
      <trkpt lat="44.87695" lon="0.56805">
        <ele>153.904</ele>
        <time>2019-09-24T12:52:24Z</time>
      </trkpt>
      <trkpt lat="44.87697" lon="0.56805">
        <ele>153.951</ele>
        <time>2019-09-24T12:52:26Z</time>
      </trkpt>
      <trkpt lat="44.87703" lon="0.56806">
        <ele>154.023</ele>
        <time>2019-09-24T12:52:29Z</time>
      </trkpt>
      <trkpt lat="44.87707" lon="0.56807">
        <ele>154.072</ele>
        <time>2019-09-24T12:52:31Z</time>
      </trkpt>
      <trkpt lat="44.8771" lon="0.56808">
        <ele>154.147</ele>
        <time>2019-09-24T12:52:34Z</time>
      </trkpt>
      <trkpt lat="44.87716" lon="0.56812">
        <ele>154.223</ele>
        <time>2019-09-24T12:52:37Z</time>
      </trkpt>
      <trkpt lat="44.8772" lon="0.56817">
        <ele>154.325</ele>
        <time>2019-09-24T12:52:41Z</time>
      </trkpt>
      <trkpt lat="44.87725" lon="0.5682">
        <ele>154.455</ele>
        <time>2019-09-24T12:52:46Z</time>
      </trkpt>
      <trkpt lat="44.8773" lon="0.56823">
        <ele>154.535</ele>
        <time>2019-09-24T12:52:49Z</time>
      </trkpt>
      <trkpt lat="44.87735" lon="0.56826">
        <ele>154.698</ele>
        <time>2019-09-24T12:52:55Z</time>
      </trkpt>
      <trkpt lat="44.87741" lon="0.56826">
        <ele>154.809</ele>
        <time>2019-09-24T12:52:59Z</time>
      </trkpt>
      <trkpt lat="44.87745" lon="0.56829">
        <ele>154.895</ele>
        <time>2019-09-24T12:53:02Z</time>
      </trkpt>
      <trkpt lat="44.87749" lon="0.5683">
        <ele>154.983</ele>
        <time>2019-09-24T12:53:05Z</time>
      </trkpt>
      <trkpt lat="44.87752" lon="0.56832">
        <ele>155.044</ele>
        <time>2019-09-24T12:53:07Z</time>
      </trkpt>
      <trkpt lat="44.87755" lon="0.56833">
        <ele>155.107</ele>
        <time>2019-09-24T12:53:09Z</time>
      </trkpt>
      <trkpt lat="44.8776" lon="0.56836">
        <ele>155.237</ele>
        <time>2019-09-24T12:53:13Z</time>
      </trkpt>
      <trkpt lat="44.87762" lon="0.56837">
        <ele>155.304</ele>
        <time>2019-09-24T12:53:15Z</time>
      </trkpt>
      <trkpt lat="44.87766" lon="0.56839">
        <ele>155.407</ele>
        <time>2019-09-24T12:53:18Z</time>
      </trkpt>
      <trkpt lat="44.87771" lon="0.56844">
        <ele>155.548</ele>
        <time>2019-09-24T12:53:22Z</time>
      </trkpt>
      <trkpt lat="44.87773" lon="0.56845">
        <ele>155.62</ele>
        <time>2019-09-24T12:53:24Z</time>
      </trkpt>
      <trkpt lat="44.87778" lon="0.56848">
        <ele>155.806</ele>
        <time>2019-09-24T12:53:29Z</time>
      </trkpt>
      <trkpt lat="44.87783" lon="0.5685">
        <ele>155.958</ele>
        <time>2019-09-24T12:53:33Z</time>
      </trkpt>
      <trkpt lat="44.87786" lon="0.56851">
        <ele>156.072</ele>
        <time>2019-09-24T12:53:36Z</time>
      </trkpt>
      <trkpt lat="44.87788" lon="0.56852">
        <ele>156.148</ele>
        <time>2019-09-24T12:53:38Z</time>
      </trkpt>
      <trkpt lat="44.87791" lon="0.56857">
        <ele>156.261</ele>
        <time>2019-09-24T12:53:41Z</time>
      </trkpt>
      <trkpt lat="44.87795" lon="0.56863">
        <ele>156.337</ele>
        <time>2019-09-24T12:53:43Z</time>
      </trkpt>
      <trkpt lat="44.87797" lon="0.56869">
        <ele>156.532</ele>
        <time>2019-09-24T12:53:48Z</time>
      </trkpt>
      <trkpt lat="44.87801" lon="0.56873">
        <ele>156.688</ele>
        <time>2019-09-24T12:53:52Z</time>
      </trkpt>
      <trkpt lat="44.87805" lon="0.56878">
        <ele>156.843</ele>
        <time>2019-09-24T12:53:56Z</time>
      </trkpt>
      <trkpt lat="44.87808" lon="0.56881">
        <ele>156.92</ele>
        <time>2019-09-24T12:53:58Z</time>
      </trkpt>
      <trkpt lat="44.87812" lon="0.56886">
        <ele>157.033</ele>
        <time>2019-09-24T12:54:01Z</time>
      </trkpt>
      <trkpt lat="44.87815" lon="0.56893">
        <ele>157.143</ele>
        <time>2019-09-24T12:54:04Z</time>
      </trkpt>
      <trkpt lat="44.87816" lon="0.56897">
        <ele>157.216</ele>
        <time>2019-09-24T12:54:06Z</time>
      </trkpt>
      <trkpt lat="44.87818" lon="0.56903">
        <ele>157.322</ele>
        <time>2019-09-24T12:54:09Z</time>
      </trkpt>
      <trkpt lat="44.8782" lon="0.5691">
        <ele>157.427</ele>
        <time>2019-09-24T12:54:12Z</time>
      </trkpt>
      <trkpt lat="44.87821" lon="0.56916">
        <ele>157.565</ele>
        <time>2019-09-24T12:54:16Z</time>
      </trkpt>
      <trkpt lat="44.87828" lon="0.56922">
        <ele>157.701</ele>
        <time>2019-09-24T12:54:20Z</time>
      </trkpt>
      <trkpt lat="44.87832" lon="0.56929">
        <ele>157.801</ele>
        <time>2019-09-24T12:54:23Z</time>
      </trkpt>
      <trkpt lat="44.87835" lon="0.56934">
        <ele>157.962</ele>
        <time>2019-09-24T12:54:28Z</time>
      </trkpt>
      <trkpt lat="44.87836" lon="0.56941">
        <ele>158.084</ele>
        <time>2019-09-24T12:54:32Z</time>
      </trkpt>
      <trkpt lat="44.87837" lon="0.56946">
        <ele>158.144</ele>
        <time>2019-09-24T12:54:34Z</time>
      </trkpt>
      <trkpt lat="44.8784" lon="0.56952">
        <ele>158.233</ele>
        <time>2019-09-24T12:54:37Z</time>
      </trkpt>
      <trkpt lat="44.87843" lon="0.56958">
        <ele>158.321</ele>
        <time>2019-09-24T12:54:40Z</time>
      </trkpt>
      <trkpt lat="44.87844" lon="0.56962">
        <ele>158.378</ele>
        <time>2019-09-24T12:54:42Z</time>
      </trkpt>
      <trkpt lat="44.87847" lon="0.56967">
        <ele>158.462</ele>
        <time>2019-09-24T12:54:45Z</time>
      </trkpt>
      <trkpt lat="44.8785" lon="0.56972">
        <ele>158.517</ele>
        <time>2019-09-24T12:54:47Z</time>
      </trkpt>
      <trkpt lat="44.87851" lon="0.56979">
        <ele>158.597</ele>
        <time>2019-09-24T12:54:50Z</time>
      </trkpt>
      <trkpt lat="44.87853" lon="0.56983">
        <ele>158.677</ele>
        <time>2019-09-24T12:54:53Z</time>
      </trkpt>
      <trkpt lat="44.87857" lon="0.56988">
        <ele>158.81</ele>
        <time>2019-09-24T12:54:58Z</time>
      </trkpt>
      <trkpt lat="44.8786" lon="0.56992">
        <ele>158.891</ele>
        <time>2019-09-24T12:55:01Z</time>
      </trkpt>
      <trkpt lat="44.87862" lon="0.56997">
        <ele>158.944</ele>
        <time>2019-09-24T12:55:03Z</time>
      </trkpt>
      <trkpt lat="44.87866" lon="0.57">
        <ele>159.051</ele>
        <time>2019-09-24T12:55:07Z</time>
      </trkpt>
      <trkpt lat="44.87869" lon="0.57005">
        <ele>159.182</ele>
        <time>2019-09-24T12:55:12Z</time>
      </trkpt>
      <trkpt lat="44.87871" lon="0.57008">
        <ele>159.259</ele>
        <time>2019-09-24T12:55:15Z</time>
      </trkpt>
      <trkpt lat="44.87875" lon="0.57014">
        <ele>159.363</ele>
        <time>2019-09-24T12:55:19Z</time>
      </trkpt>
      <trkpt lat="44.87878" lon="0.57019">
        <ele>159.441</ele>
        <time>2019-09-24T12:55:22Z</time>
      </trkpt>
      <trkpt lat="44.8788" lon="0.57022">
        <ele>159.492</ele>
        <time>2019-09-24T12:55:24Z</time>
      </trkpt>
      <trkpt lat="44.87881" lon="0.57025">
        <ele>159.543</ele>
        <time>2019-09-24T12:55:26Z</time>
      </trkpt>
      <trkpt lat="44.87885" lon="0.57031">
        <ele>159.619</ele>
        <time>2019-09-24T12:55:29Z</time>
      </trkpt>
      <trkpt lat="44.87886" lon="0.57033">
        <ele>159.669</ele>
        <time>2019-09-24T12:55:31Z</time>
      </trkpt>
      <trkpt lat="44.87888" lon="0.5704">
        <ele>159.77</ele>
        <time>2019-09-24T12:55:35Z</time>
      </trkpt>
      <trkpt lat="44.87892" lon="0.57046">
        <ele>159.845</ele>
        <time>2019-09-24T12:55:38Z</time>
      </trkpt>
      <trkpt lat="44.87894" lon="0.57049">
        <ele>159.895</ele>
        <time>2019-09-24T12:55:40Z</time>
      </trkpt>
      <trkpt lat="44.87898" lon="0.57052">
        <ele>159.994</ele>
        <time>2019-09-24T12:55:44Z</time>
      </trkpt>
      <trkpt lat="44.879" lon="0.57054">
        <ele>160.044</ele>
        <time>2019-09-24T12:55:46Z</time>
      </trkpt>
      <trkpt lat="44.87903" lon="0.57056">
        <ele>160.093</ele>
        <time>2019-09-24T12:55:48Z</time>
      </trkpt>
      <trkpt lat="44.87907" lon="0.5706">
        <ele>160.191</ele>
        <time>2019-09-24T12:55:52Z</time>
      </trkpt>
      <trkpt lat="44.87911" lon="0.57061">
        <ele>160.266</ele>
        <time>2019-09-24T12:55:55Z</time>
      </trkpt>
      <trkpt lat="44.87915" lon="0.57064">
        <ele>160.339</ele>
        <time>2019-09-24T12:55:58Z</time>
      </trkpt>
      <trkpt lat="44.87917" lon="0.57066">
        <ele>160.387</ele>
        <time>2019-09-24T12:56:00Z</time>
      </trkpt>
      <trkpt lat="44.8792" lon="0.57068">
        <ele>160.435</ele>
        <time>2019-09-24T12:56:02Z</time>
      </trkpt>
      <trkpt lat="44.87922" lon="0.57071">
        <ele>160.483</ele>
        <time>2019-09-24T12:56:04Z</time>
      </trkpt>
      <trkpt lat="44.87924" lon="0.57073">
        <ele>160.53</ele>
        <time>2019-09-24T12:56:06Z</time>
      </trkpt>
      <trkpt lat="44.87926" lon="0.57075">
        <ele>160.575</ele>
        <time>2019-09-24T12:56:08Z</time>
      </trkpt>
      <trkpt lat="44.87929" lon="0.57081">
        <ele>160.666</ele>
        <time>2019-09-24T12:56:12Z</time>
      </trkpt>
      <trkpt lat="44.87932" lon="0.57085">
        <ele>160.751</ele>
        <time>2019-09-24T12:56:16Z</time>
      </trkpt>
      <trkpt lat="44.87936" lon="0.5709">
        <ele>160.812</ele>
        <time>2019-09-24T12:56:19Z</time>
      </trkpt>
      <trkpt lat="44.8794" lon="0.57095">
        <ele>160.892</ele>
        <time>2019-09-24T12:56:23Z</time>
      </trkpt>
      <trkpt lat="44.87943" lon="0.57099">
        <ele>160.952</ele>
        <time>2019-09-24T12:56:26Z</time>
      </trkpt>
      <trkpt lat="44.87948" lon="0.57104">
        <ele>161.049</ele>
        <time>2019-09-24T12:56:31Z</time>
      </trkpt>
      <trkpt lat="44.8795" lon="0.57106">
        <ele>161.088</ele>
        <time>2019-09-24T12:56:33Z</time>
      </trkpt>
      <trkpt lat="44.87952" lon="0.57108">
        <ele>161.127</ele>
        <time>2019-09-24T12:56:35Z</time>
      </trkpt>
      <trkpt lat="44.87954" lon="0.5711">
        <ele>161.166</ele>
        <time>2019-09-24T12:56:37Z</time>
      </trkpt>
      <trkpt lat="44.87958" lon="0.57113">
        <ele>161.245</ele>
        <time>2019-09-24T12:56:41Z</time>
      </trkpt>
      <trkpt lat="44.87961" lon="0.57116">
        <ele>161.303</ele>
        <time>2019-09-24T12:56:44Z</time>
      </trkpt>
      <trkpt lat="44.87965" lon="0.57121">
        <ele>161.402</ele>
        <time>2019-09-24T12:56:49Z</time>
      </trkpt>
      <trkpt lat="44.87967" lon="0.57123">
        <ele>161.443</ele>
        <time>2019-09-24T12:56:51Z</time>
      </trkpt>
      <trkpt lat="44.87971" lon="0.57127">
        <ele>161.524</ele>
        <time>2019-09-24T12:56:55Z</time>
      </trkpt>
      <trkpt lat="44.87975" lon="0.57133">
        <ele>161.607</ele>
        <time>2019-09-24T12:56:59Z</time>
      </trkpt>
      <trkpt lat="44.87978" lon="0.57137">
        <ele>161.671</ele>
        <time>2019-09-24T12:57:02Z</time>
      </trkpt>
      <trkpt lat="44.87982" lon="0.57142">
        <ele>161.735</ele>
        <time>2019-09-24T12:57:05Z</time>
      </trkpt>
      <trkpt lat="44.87986" lon="0.57144">
        <ele>161.822</ele>
        <time>2019-09-24T12:57:09Z</time>
      </trkpt>
      <trkpt lat="44.8799" lon="0.5715">
        <ele>161.912</ele>
        <time>2019-09-24T12:57:13Z</time>
      </trkpt>
      <trkpt lat="44.87992" lon="0.57153">
        <ele>161.959</ele>
        <time>2019-09-24T12:57:15Z</time>
      </trkpt>
      <trkpt lat="44.87995" lon="0.57156">
        <ele>162.03</ele>
        <time>2019-09-24T12:57:18Z</time>
      </trkpt>
      <trkpt lat="44.87997" lon="0.57158">
        <ele>162.103</ele>
        <time>2019-09-24T12:57:21Z</time>
      </trkpt>
      <trkpt lat="44.87998" lon="0.57161">
        <ele>162.153</ele>
        <time>2019-09-24T12:57:23Z</time>
      </trkpt>
      <trkpt lat="44.88003" lon="0.57165">
        <ele>162.252</ele>
        <time>2019-09-24T12:57:27Z</time>
      </trkpt>
      <trkpt lat="44.88007" lon="0.5717">
        <ele>162.353</ele>
        <time>2019-09-24T12:57:31Z</time>
      </trkpt>
      <trkpt lat="44.88008" lon="0.57172">
        <ele>162.403</ele>
        <time>2019-09-24T12:57:33Z</time>
      </trkpt>
      <trkpt lat="44.88013" lon="0.57177">
        <ele>162.505</ele>
        <time>2019-09-24T12:57:37Z</time>
      </trkpt>
      <trkpt lat="44.88016" lon="0.57182">
        <ele>162.609</ele>
        <time>2019-09-24T12:57:41Z</time>
      </trkpt>
      <trkpt lat="44.88019" lon="0.57189">
        <ele>162.716</ele>
        <time>2019-09-24T12:57:45Z</time>
      </trkpt>
      <trkpt lat="44.88021" lon="0.57192">
        <ele>162.797</ele>
        <time>2019-09-24T12:57:48Z</time>
      </trkpt>
      <trkpt lat="44.88025" lon="0.57196">
        <ele>162.905</ele>
        <time>2019-09-24T12:57:52Z</time>
      </trkpt>
      <trkpt lat="44.88029" lon="0.57202">
        <ele>163.016</ele>
        <time>2019-09-24T12:57:56Z</time>
      </trkpt>
      <trkpt lat="44.8803" lon="0.57204">
        <ele>163.071</ele>
        <time>2019-09-24T12:57:58Z</time>
      </trkpt>
      <trkpt lat="44.88034" lon="0.57209">
        <ele>163.154</ele>
        <time>2019-09-24T12:58:01Z</time>
      </trkpt>
      <trkpt lat="44.88036" lon="0.57211">
        <ele>163.211</ele>
        <time>2019-09-24T12:58:03Z</time>
      </trkpt>
      <trkpt lat="44.88041" lon="0.57215">
        <ele>163.326</ele>
        <time>2019-09-24T12:58:07Z</time>
      </trkpt>
      <trkpt lat="44.88045" lon="0.57217">
        <ele>163.411</ele>
        <time>2019-09-24T12:58:10Z</time>
      </trkpt>
      <trkpt lat="44.88049" lon="0.57221">
        <ele>163.494</ele>
        <time>2019-09-24T12:58:13Z</time>
      </trkpt>
      <trkpt lat="44.8805" lon="0.57223">
        <ele>163.575</ele>
        <time>2019-09-24T12:58:16Z</time>
      </trkpt>
      <trkpt lat="44.88055" lon="0.57227">
        <ele>163.708</ele>
        <time>2019-09-24T12:58:21Z</time>
      </trkpt>
      <trkpt lat="44.88059" lon="0.57233">
        <ele>163.831</ele>
        <time>2019-09-24T12:58:26Z</time>
      </trkpt>
      <trkpt lat="44.88063" lon="0.57238">
        <ele>163.899</ele>
        <time>2019-09-24T12:58:29Z</time>
      </trkpt>
      <trkpt lat="44.88067" lon="0.57243">
        <ele>163.99</ele>
        <time>2019-09-24T12:58:33Z</time>
      </trkpt>
      <trkpt lat="44.88069" lon="0.57246">
        <ele>164.057</ele>
        <time>2019-09-24T12:58:36Z</time>
      </trkpt>
      <trkpt lat="44.88071" lon="0.57248">
        <ele>164.101</ele>
        <time>2019-09-24T12:58:38Z</time>
      </trkpt>
      <trkpt lat="44.88075" lon="0.57254">
        <ele>164.189</ele>
        <time>2019-09-24T12:58:42Z</time>
      </trkpt>
      <trkpt lat="44.88078" lon="0.57256">
        <ele>164.233</ele>
        <time>2019-09-24T12:58:44Z</time>
      </trkpt>
      <trkpt lat="44.88081" lon="0.57261">
        <ele>164.3</ele>
        <time>2019-09-24T12:58:47Z</time>
      </trkpt>
      <trkpt lat="44.88085" lon="0.57267">
        <ele>164.389</ele>
        <time>2019-09-24T12:58:51Z</time>
      </trkpt>
      <trkpt lat="44.88087" lon="0.5727">
        <ele>164.433</ele>
        <time>2019-09-24T12:58:53Z</time>
      </trkpt>
      <trkpt lat="44.8809" lon="0.57272">
        <ele>164.476</ele>
        <time>2019-09-24T12:58:55Z</time>
      </trkpt>
      <trkpt lat="44.88092" lon="0.57275">
        <ele>164.519</ele>
        <time>2019-09-24T12:58:57Z</time>
      </trkpt>
      <trkpt lat="44.88094" lon="0.57277">
        <ele>164.562</ele>
        <time>2019-09-24T12:58:59Z</time>
      </trkpt>
      <trkpt lat="44.88096" lon="0.57279">
        <ele>164.604</ele>
        <time>2019-09-24T12:59:01Z</time>
      </trkpt>
      <trkpt lat="44.88098" lon="0.57282">
        <ele>164.646</ele>
        <time>2019-09-24T12:59:03Z</time>
      </trkpt>
      <trkpt lat="44.88103" lon="0.57284">
        <ele>164.751</ele>
        <time>2019-09-24T12:59:08Z</time>
      </trkpt>
      <trkpt lat="44.88105" lon="0.57286">
        <ele>164.794</ele>
        <time>2019-09-24T12:59:10Z</time>
      </trkpt>
      <trkpt lat="44.88108" lon="0.5729">
        <ele>164.899</ele>
        <time>2019-09-24T12:59:15Z</time>
      </trkpt>
      <trkpt lat="44.88111" lon="0.57294">
        <ele>164.961</ele>
        <time>2019-09-24T12:59:18Z</time>
      </trkpt>
      <trkpt lat="44.88117" lon="0.57297">
        <ele>165.044</ele>
        <time>2019-09-24T12:59:22Z</time>
      </trkpt>
      <trkpt lat="44.88121" lon="0.57299">
        <ele>165.128</ele>
        <time>2019-09-24T12:59:26Z</time>
      </trkpt>
      <trkpt lat="44.88125" lon="0.57303">
        <ele>165.21</ele>
        <time>2019-09-24T12:59:30Z</time>
      </trkpt>
      <trkpt lat="44.8813" lon="0.57306">
        <ele>165.288</ele>
        <time>2019-09-24T12:59:34Z</time>
      </trkpt>
      <trkpt lat="44.88132" lon="0.57307">
        <ele>165.325</ele>
        <time>2019-09-24T12:59:36Z</time>
      </trkpt>
      <trkpt lat="44.88135" lon="0.57312">
        <ele>165.399</ele>
        <time>2019-09-24T12:59:40Z</time>
      </trkpt>
      <trkpt lat="44.88137" lon="0.57315">
        <ele>165.435</ele>
        <time>2019-09-24T12:59:42Z</time>
      </trkpt>
      <trkpt lat="44.88137" lon="0.57315">
        <ele>165.435</ele>
        <time>2019-09-24T12:59:47Z</time>
      </trkpt>
      <trkpt lat="44.8814" lon="0.5732">
        <ele>165.537</ele>
        <time>2019-09-24T12:59:48Z</time>
      </trkpt>
      <trkpt lat="44.88144" lon="0.57328">
        <ele>165.596</ele>
        <time>2019-09-24T12:59:52Z</time>
      </trkpt>
      <trkpt lat="44.88145" lon="0.57332">
        <ele>165.637</ele>
        <time>2019-09-24T12:59:55Z</time>
      </trkpt>
      <trkpt lat="44.88146" lon="0.57338">
        <ele>165.69</ele>
        <time>2019-09-24T12:59:59Z</time>
      </trkpt>
      <trkpt lat="44.88149" lon="0.57345">
        <ele>165.716</ele>
        <time>2019-09-24T13:00:01Z</time>
      </trkpt>
      <trkpt lat="44.88148" lon="0.57353">
        <ele>165.756</ele>
        <time>2019-09-24T13:00:04Z</time>
      </trkpt>
      <trkpt lat="44.8815" lon="0.57359">
        <ele>165.819</ele>
        <time>2019-09-24T13:00:10Z</time>
      </trkpt>
      <trkpt lat="44.88152" lon="0.57363">
        <ele>165.843</ele>
        <time>2019-09-24T13:00:12Z</time>
      </trkpt>
      <trkpt lat="44.88157" lon="0.57369">
        <ele>165.889</ele>
        <time>2019-09-24T13:00:16Z</time>
      </trkpt>
      <trkpt lat="44.88159" lon="0.57372">
        <ele>165.912</ele>
        <time>2019-09-24T13:00:18Z</time>
      </trkpt>
      <trkpt lat="44.88163" lon="0.57378">
        <ele>165.934</ele>
        <time>2019-09-24T13:00:20Z</time>
      </trkpt>
      <trkpt lat="44.88162" lon="0.57385">
        <ele>165.996</ele>
        <time>2019-09-24T13:00:26Z</time>
      </trkpt>
      <trkpt lat="44.88164" lon="0.57391">
        <ele>166.036</ele>
        <time>2019-09-24T13:00:30Z</time>
      </trkpt>
      <trkpt lat="44.88167" lon="0.57397">
        <ele>166.088</ele>
        <time>2019-09-24T13:00:36Z</time>
      </trkpt>
      <trkpt lat="44.8817" lon="0.57404">
        <ele>166.161</ele>
        <time>2019-09-24T13:00:45Z</time>
      </trkpt>
      <trkpt lat="44.88174" lon="0.57409">
        <ele>166.185</ele>
        <time>2019-09-24T13:00:48Z</time>
      </trkpt>
      <trkpt lat="44.88176" lon="0.57413">
        <ele>166.209</ele>
        <time>2019-09-24T13:00:51Z</time>
      </trkpt>
      <trkpt lat="44.88182" lon="0.57414">
        <ele>166.246</ele>
        <time>2019-09-24T13:00:58Z</time>
      </trkpt>
      <trkpt lat="44.88184" lon="0.57419">
        <ele>166.261</ele>
        <time>2019-09-24T13:01:00Z</time>
      </trkpt>
      <trkpt lat="44.88191" lon="0.57422">
        <ele>166.276</ele>
        <time>2019-09-24T13:01:03Z</time>
      </trkpt>
      <trkpt lat="44.88197" lon="0.57422">
        <ele>166.311</ele>
        <time>2019-09-24T13:01:08Z</time>
      </trkpt>
      <trkpt lat="44.882" lon="0.57426">
        <ele>166.344</ele>
        <time>2019-09-24T13:01:13Z</time>
      </trkpt>
      <trkpt lat="44.88204" lon="0.57427">
        <ele>166.373</ele>
        <time>2019-09-24T13:01:18Z</time>
      </trkpt>
      <trkpt lat="44.88209" lon="0.5743">
        <ele>166.413</ele>
        <time>2019-09-24T13:01:25Z</time>
      </trkpt>
      <trkpt lat="44.88218" lon="0.57431">
        <ele>166.436</ele>
        <time>2019-09-24T13:01:30Z</time>
      </trkpt>
      <trkpt lat="44.88221" lon="0.57436">
        <ele>166.463</ele>
        <time>2019-09-24T13:01:37Z</time>
      </trkpt>
      <trkpt lat="44.88223" lon="0.57443">
        <ele>166.475</ele>
        <time>2019-09-24T13:01:42Z</time>
      </trkpt>
      <trkpt lat="44.88228" lon="0.57447">
        <ele>166.479</ele>
        <time>2019-09-24T13:01:44Z</time>
      </trkpt>
      <trkpt lat="44.88231" lon="0.57451">
        <ele>166.492</ele>
        <time>2019-09-24T13:01:50Z</time>
      </trkpt>
      <trkpt lat="44.88233" lon="0.57453">
        <ele>166.503</ele>
        <time>2019-09-24T13:01:56Z</time>
      </trkpt>
      <trkpt lat="44.88237" lon="0.57456">
        <ele>166.51</ele>
        <time>2019-09-24T13:01:59Z</time>
      </trkpt>
      <trkpt lat="44.88239" lon="0.57458">
        <ele>166.512</ele>
        <time>2019-09-24T13:02:00Z</time>
      </trkpt>
      <trkpt lat="44.88241" lon="0.5746">
        <ele>166.517</ele>
        <time>2019-09-24T13:02:02Z</time>
      </trkpt>
      <trkpt lat="44.88244" lon="0.57462">
        <ele>166.522</ele>
        <time>2019-09-24T13:02:04Z</time>
      </trkpt>
      <trkpt lat="44.88248" lon="0.57464">
        <ele>166.537</ele>
        <time>2019-09-24T13:02:10Z</time>
      </trkpt>
      <trkpt lat="44.88256" lon="0.57475">
        <ele>166.551</ele>
        <time>2019-09-24T13:02:18Z</time>
      </trkpt>
      <trkpt lat="44.8826" lon="0.5748">
        <ele>166.555</ele>
        <time>2019-09-24T13:02:21Z</time>
      </trkpt>
      <trkpt lat="44.88262" lon="0.57484">
        <ele>166.559</ele>
        <time>2019-09-24T13:02:29Z</time>
      </trkpt>
      <trkpt lat="44.88267" lon="0.57486">
        <ele>166.563</ele>
        <time>2019-09-24T13:02:34Z</time>
      </trkpt>
      <trkpt lat="44.88272" lon="0.57489">
        <ele>166.564</ele>
        <time>2019-09-24T13:02:37Z</time>
      </trkpt>
      <trkpt lat="44.88274" lon="0.57491">
        <ele>166.566</ele>
        <time>2019-09-24T13:02:39Z</time>
      </trkpt>
      <trkpt lat="44.88277" lon="0.57493">
        <ele>166.568</ele>
        <time>2019-09-24T13:02:42Z</time>
      </trkpt>
      <trkpt lat="44.88282" lon="0.57495">
        <ele>166.574</ele>
        <time>2019-09-24T13:02:46Z</time>
      </trkpt>
      <trkpt lat="44.88286" lon="0.57495">
        <ele>166.579</ele>
        <time>2019-09-24T13:02:50Z</time>
      </trkpt>
      <trkpt lat="44.8829" lon="0.57493">
        <ele>166.583</ele>
        <time>2019-09-24T13:02:54Z</time>
      </trkpt>
      <trkpt lat="44.88294" lon="0.57487">
        <ele>166.587</ele>
        <time>2019-09-24T13:02:57Z</time>
      </trkpt>
      <trkpt lat="44.883" lon="0.5749">
        <ele>166.592</ele>
        <time>2019-09-24T13:03:03Z</time>
      </trkpt>
      <trkpt lat="44.88306" lon="0.57491">
        <ele>166.595</ele>
        <time>2019-09-24T13:03:09Z</time>
      </trkpt>
      <trkpt lat="44.88311" lon="0.57491">
        <ele>166.596</ele>
        <time>2019-09-24T13:03:13Z</time>
      </trkpt>
      <trkpt lat="44.88316" lon="0.57491">
        <ele>166.594</ele>
        <time>2019-09-24T13:03:17Z</time>
      </trkpt>
      <trkpt lat="44.88321" lon="0.57494">
        <ele>166.589</ele>
        <time>2019-09-24T13:03:22Z</time>
      </trkpt>
      <trkpt lat="44.88325" lon="0.57497">
        <ele>166.58</ele>
        <time>2019-09-24T13:03:26Z</time>
      </trkpt>
      <trkpt lat="44.88329" lon="0.57499">
        <ele>166.572</ele>
        <time>2019-09-24T13:03:30Z</time>
      </trkpt>
      <trkpt lat="44.88333" lon="0.57497">
        <ele>166.552</ele>
        <time>2019-09-24T13:03:40Z</time>
      </trkpt>
      <trkpt lat="44.88336" lon="0.57498">
        <ele>166.547</ele>
        <time>2019-09-24T13:03:43Z</time>
      </trkpt>
      <trkpt lat="44.88341" lon="0.57498">
        <ele>166.541</ele>
        <time>2019-09-24T13:03:47Z</time>
      </trkpt>
      <trkpt lat="44.88346" lon="0.57502">
        <ele>166.533</ele>
        <time>2019-09-24T13:03:51Z</time>
      </trkpt>
      <trkpt lat="44.88352" lon="0.57503">
        <ele>166.526</ele>
        <time>2019-09-24T13:03:55Z</time>
      </trkpt>
      <trkpt lat="44.88357" lon="0.57507">
        <ele>166.512</ele>
        <time>2019-09-24T13:04:00Z</time>
      </trkpt>
      <trkpt lat="44.88361" lon="0.57512">
        <ele>166.499</ele>
        <time>2019-09-24T13:04:04Z</time>
      </trkpt>
      <trkpt lat="44.88366" lon="0.57514">
        <ele>166.48</ele>
        <time>2019-09-24T13:04:09Z</time>
      </trkpt>
      <trkpt lat="44.8837" lon="0.57518">
        <ele>166.463</ele>
        <time>2019-09-24T13:04:13Z</time>
      </trkpt>
      <trkpt lat="44.88374" lon="0.5752">
        <ele>166.449</ele>
        <time>2019-09-24T13:04:16Z</time>
      </trkpt>
      <trkpt lat="44.88376" lon="0.57521">
        <ele>166.44</ele>
        <time>2019-09-24T13:04:18Z</time>
      </trkpt>
      <trkpt lat="44.88381" lon="0.57523">
        <ele>166.428</ele>
        <time>2019-09-24T13:04:21Z</time>
      </trkpt>
      <trkpt lat="44.88384" lon="0.57524">
        <ele>166.419</ele>
        <time>2019-09-24T13:04:23Z</time>
      </trkpt>
      <trkpt lat="44.88389" lon="0.57524">
        <ele>166.407</ele>
        <time>2019-09-24T13:04:26Z</time>
      </trkpt>
      <trkpt lat="44.88394" lon="0.57526">
        <ele>166.386</ele>
        <time>2019-09-24T13:04:31Z</time>
      </trkpt>
      <trkpt lat="44.88399" lon="0.57524">
        <ele>166.362</ele>
        <time>2019-09-24T13:04:37Z</time>
      </trkpt>
      <trkpt lat="44.88404" lon="0.57524">
        <ele>166.339</ele>
        <time>2019-09-24T13:04:43Z</time>
      </trkpt>
      <trkpt lat="44.88409" lon="0.57527">
        <ele>166.32</ele>
        <time>2019-09-24T13:04:50Z</time>
      </trkpt>
      <trkpt lat="44.88413" lon="0.57532">
        <ele>166.305</ele>
        <time>2019-09-24T13:04:54Z</time>
      </trkpt>
      <trkpt lat="44.88418" lon="0.57534">
        <ele>166.285</ele>
        <time>2019-09-24T13:04:59Z</time>
      </trkpt>
      <trkpt lat="44.88423" lon="0.57538">
        <ele>166.266</ele>
        <time>2019-09-24T13:05:03Z</time>
      </trkpt>
      <trkpt lat="44.88427" lon="0.57542">
        <ele>166.246</ele>
        <time>2019-09-24T13:05:07Z</time>
      </trkpt>
      <trkpt lat="44.88431" lon="0.57544">
        <ele>166.226</ele>
        <time>2019-09-24T13:05:11Z</time>
      </trkpt>
      <trkpt lat="44.88436" lon="0.57546">
        <ele>166.217</ele>
        <time>2019-09-24T13:05:13Z</time>
      </trkpt>
      <trkpt lat="44.88441" lon="0.57548">
        <ele>166.202</ele>
        <time>2019-09-24T13:05:16Z</time>
      </trkpt>
      <trkpt lat="44.88446" lon="0.57549">
        <ele>166.187</ele>
        <time>2019-09-24T13:05:19Z</time>
      </trkpt>
      <trkpt lat="44.88451" lon="0.57549">
        <ele>166.161</ele>
        <time>2019-09-24T13:05:24Z</time>
      </trkpt>
      <trkpt lat="44.88456" lon="0.5755">
        <ele>166.139</ele>
        <time>2019-09-24T13:05:28Z</time>
      </trkpt>
      <trkpt lat="44.88459" lon="0.57554">
        <ele>166.118</ele>
        <time>2019-09-24T13:05:31Z</time>
      </trkpt>
      <trkpt lat="44.88461" lon="0.57561">
        <ele>166.076</ele>
        <time>2019-09-24T13:05:37Z</time>
      </trkpt>
      <trkpt lat="44.88462" lon="0.57565">
        <ele>166.056</ele>
        <time>2019-09-24T13:05:40Z</time>
      </trkpt>
      <trkpt lat="44.88463" lon="0.57572">
        <ele>166.005</ele>
        <time>2019-09-24T13:05:47Z</time>
      </trkpt>
      <trkpt lat="44.88465" lon="0.57583">
        <ele>165.962</ele>
        <time>2019-09-24T13:05:53Z</time>
      </trkpt>
      <trkpt lat="44.88465" lon="0.57589">
        <ele>165.933</ele>
        <time>2019-09-24T13:05:57Z</time>
      </trkpt>
      <trkpt lat="44.88468" lon="0.57594">
        <ele>165.905</ele>
        <time>2019-09-24T13:06:01Z</time>
      </trkpt>
      <trkpt lat="44.88473" lon="0.576">
        <ele>165.876</ele>
        <time>2019-09-24T13:06:05Z</time>
      </trkpt>
      <trkpt lat="44.88476" lon="0.57605">
        <ele>165.834</ele>
        <time>2019-09-24T13:06:14Z</time>
      </trkpt>
      <trkpt lat="44.8848" lon="0.5761">
        <ele>165.814</ele>
        <time>2019-09-24T13:06:18Z</time>
      </trkpt>
      <trkpt lat="44.88484" lon="0.57613">
        <ele>165.788</ele>
        <time>2019-09-24T13:06:24Z</time>
      </trkpt>
      <trkpt lat="44.88488" lon="0.57615">
        <ele>165.779</ele>
        <time>2019-09-24T13:06:26Z</time>
      </trkpt>
      <trkpt lat="44.88492" lon="0.57617">
        <ele>165.75</ele>
        <time>2019-09-24T13:06:32Z</time>
      </trkpt>
      <trkpt lat="44.88498" lon="0.5762">
        <ele>165.731</ele>
        <time>2019-09-24T13:06:36Z</time>
      </trkpt>
      <trkpt lat="44.88503" lon="0.57624">
        <ele>165.712</ele>
        <time>2019-09-24T13:06:40Z</time>
      </trkpt>
      <trkpt lat="44.88507" lon="0.57625">
        <ele>165.688</ele>
        <time>2019-09-24T13:06:45Z</time>
      </trkpt>
      <trkpt lat="44.8851" lon="0.57632">
        <ele>165.675</ele>
        <time>2019-09-24T13:06:48Z</time>
      </trkpt>
      <trkpt lat="44.88511" lon="0.57636">
        <ele>165.64</ele>
        <time>2019-09-24T13:06:56Z</time>
      </trkpt>
      <trkpt lat="44.8851" lon="0.57642">
        <ele>165.605</ele>
        <time>2019-09-24T13:07:05Z</time>
      </trkpt>
      <trkpt lat="44.88507" lon="0.57646">
        <ele>165.573</ele>
        <time>2019-09-24T13:07:18Z</time>
      </trkpt>
      <trkpt lat="44.88502" lon="0.5765">
        <ele>165.553</ele>
        <time>2019-09-24T13:07:22Z</time>
      </trkpt>
      <trkpt lat="44.88498" lon="0.57654">
        <ele>165.521</ele>
        <time>2019-09-24T13:07:28Z</time>
      </trkpt>
      <trkpt lat="44.88492" lon="0.57656">
        <ele>165.506</ele>
        <time>2019-09-24T13:07:31Z</time>
      </trkpt>
      <trkpt lat="44.88487" lon="0.57658">
        <ele>165.48</ele>
        <time>2019-09-24T13:07:36Z</time>
      </trkpt>
      <trkpt lat="44.88483" lon="0.5766">
        <ele>165.459</ele>
        <time>2019-09-24T13:07:40Z</time>
      </trkpt>
      <trkpt lat="44.8848" lon="0.57665">
        <ele>165.438</ele>
        <time>2019-09-24T13:07:44Z</time>
      </trkpt>
      <trkpt lat="44.88478" lon="0.57668">
        <ele>165.423</ele>
        <time>2019-09-24T13:07:47Z</time>
      </trkpt>
      <trkpt lat="44.88477" lon="0.57674">
        <ele>165.405</ele>
        <time>2019-09-24T13:07:51Z</time>
      </trkpt>
      <trkpt lat="44.88474" lon="0.57681">
        <ele>165.385</ele>
        <time>2019-09-24T13:07:56Z</time>
      </trkpt>
      <trkpt lat="44.88469" lon="0.57685">
        <ele>165.361</ele>
        <time>2019-09-24T13:08:01Z</time>
      </trkpt>
      <trkpt lat="44.88464" lon="0.57686">
        <ele>165.34</ele>
        <time>2019-09-24T13:08:05Z</time>
      </trkpt>
      <trkpt lat="44.88462" lon="0.57687">
        <ele>165.33</ele>
        <time>2019-09-24T13:08:07Z</time>
      </trkpt>
      <trkpt lat="44.88459" lon="0.57692">
        <ele>165.308</ele>
        <time>2019-09-24T13:08:12Z</time>
      </trkpt>
      <trkpt lat="44.88456" lon="0.57698">
        <ele>165.294</ele>
        <time>2019-09-24T13:08:16Z</time>
      </trkpt>
      <trkpt lat="44.88453" lon="0.57704">
        <ele>165.281</ele>
        <time>2019-09-24T13:08:20Z</time>
      </trkpt>
      <trkpt lat="44.88449" lon="0.57707">
        <ele>165.266</ele>
        <time>2019-09-24T13:08:24Z</time>
      </trkpt>
      <trkpt lat="44.88443" lon="0.57709">
        <ele>165.253</ele>
        <time>2019-09-24T13:08:27Z</time>
      </trkpt>
      <trkpt lat="44.8844" lon="0.57715">
        <ele>165.233</ele>
        <time>2019-09-24T13:08:32Z</time>
      </trkpt>
      <trkpt lat="44.88434" lon="0.57717">
        <ele>165.209</ele>
        <time>2019-09-24T13:08:38Z</time>
      </trkpt>
      <trkpt lat="44.88431" lon="0.57718">
        <ele>165.201</ele>
        <time>2019-09-24T13:08:40Z</time>
      </trkpt>
      <trkpt lat="44.88426" lon="0.57722">
        <ele>165.188</ele>
        <time>2019-09-24T13:08:44Z</time>
      </trkpt>
      <trkpt lat="44.88421" lon="0.57724">
        <ele>165.176</ele>
        <time>2019-09-24T13:08:48Z</time>
      </trkpt>
      <trkpt lat="44.88418" lon="0.57726">
        <ele>165.174</ele>
        <time>2019-09-24T13:08:49Z</time>
      </trkpt>
      <trkpt lat="44.88415" lon="0.57729">
        <ele>165.161</ele>
        <time>2019-09-24T13:08:54Z</time>
      </trkpt>
      <trkpt lat="44.88411" lon="0.57735">
        <ele>165.148</ele>
        <time>2019-09-24T13:08:58Z</time>
      </trkpt>
      <trkpt lat="44.88408" lon="0.5774">
        <ele>165.132</ele>
        <time>2019-09-24T13:09:02Z</time>
      </trkpt>
      <trkpt lat="44.88406" lon="0.57745">
        <ele>165.105</ele>
        <time>2019-09-24T13:09:07Z</time>
      </trkpt>
      <trkpt lat="44.88403" lon="0.5775">
        <ele>165.094</ele>
        <time>2019-09-24T13:09:09Z</time>
      </trkpt>
      <trkpt lat="44.88398" lon="0.57754">
        <ele>165.06</ele>
        <time>2019-09-24T13:09:15Z</time>
      </trkpt>
      <trkpt lat="44.88393" lon="0.57755">
        <ele>165.029</ele>
        <time>2019-09-24T13:09:20Z</time>
      </trkpt>
      <trkpt lat="44.88388" lon="0.57753">
        <ele>165.006</ele>
        <time>2019-09-24T13:09:24Z</time>
      </trkpt>
      <trkpt lat="44.88385" lon="0.57752">
        <ele>164.983</ele>
        <time>2019-09-24T13:09:28Z</time>
      </trkpt>
      <trkpt lat="44.8838" lon="0.57752">
        <ele>164.957</ele>
        <time>2019-09-24T13:09:32Z</time>
      </trkpt>
      <trkpt lat="44.88375" lon="0.57754">
        <ele>164.936</ele>
        <time>2019-09-24T13:09:35Z</time>
      </trkpt>
      <trkpt lat="44.88369" lon="0.57755">
        <ele>164.913</ele>
        <time>2019-09-24T13:09:38Z</time>
      </trkpt>
      <trkpt lat="44.88365" lon="0.57759">
        <ele>164.881</ele>
        <time>2019-09-24T13:09:42Z</time>
      </trkpt>
      <trkpt lat="44.88363" lon="0.57762">
        <ele>164.865</ele>
        <time>2019-09-24T13:09:44Z</time>
      </trkpt>
      <trkpt lat="44.88358" lon="0.57765">
        <ele>164.815</ele>
        <time>2019-09-24T13:09:50Z</time>
      </trkpt>
      <trkpt lat="44.88352" lon="0.57767">
        <ele>164.79</ele>
        <time>2019-09-24T13:09:53Z</time>
      </trkpt>
      <trkpt lat="44.88347" lon="0.57768">
        <ele>164.733</ele>
        <time>2019-09-24T13:10:01Z</time>
      </trkpt>
      <trkpt lat="44.88344" lon="0.57769">
        <ele>164.705</ele>
        <time>2019-09-24T13:10:06Z</time>
      </trkpt>
      <trkpt lat="44.8834" lon="0.57765">
        <ele>164.674</ele>
        <time>2019-09-24T13:10:11Z</time>
      </trkpt>
      <trkpt lat="44.88335" lon="0.57764">
        <ele>164.653</ele>
        <time>2019-09-24T13:10:15Z</time>
      </trkpt>
      <trkpt lat="44.88331" lon="0.5776">
        <ele>164.639</ele>
        <time>2019-09-24T13:10:18Z</time>
      </trkpt>
      <trkpt lat="44.88326" lon="0.57758">
        <ele>164.625</ele>
        <time>2019-09-24T13:10:21Z</time>
      </trkpt>
      <trkpt lat="44.88321" lon="0.57757">
        <ele>164.602</ele>
        <time>2019-09-24T13:10:25Z</time>
      </trkpt>
      <trkpt lat="44.88317" lon="0.57756">
        <ele>164.593</ele>
        <time>2019-09-24T13:10:27Z</time>
      </trkpt>
      <trkpt lat="44.88312" lon="0.57754">
        <ele>164.576</ele>
        <time>2019-09-24T13:10:31Z</time>
      </trkpt>
      <trkpt lat="44.88308" lon="0.57752">
        <ele>164.566</ele>
        <time>2019-09-24T13:10:34Z</time>
      </trkpt>
      <trkpt lat="44.88304" lon="0.57753">
        <ele>164.555</ele>
        <time>2019-09-24T13:10:38Z</time>
      </trkpt>
      <trkpt lat="44.883" lon="0.57757">
        <ele>164.549</ele>
        <time>2019-09-24T13:10:42Z</time>
      </trkpt>
      <trkpt lat="44.88293" lon="0.57758">
        <ele>164.538</ele>
        <time>2019-09-24T13:10:49Z</time>
      </trkpt>
      <trkpt lat="44.8829" lon="0.57759">
        <ele>164.535</ele>
        <time>2019-09-24T13:10:51Z</time>
      </trkpt>
      <trkpt lat="44.88288" lon="0.57759">
        <ele>164.532</ele>
        <time>2019-09-24T13:10:53Z</time>
      </trkpt>
      <trkpt lat="44.88285" lon="0.5776">
        <ele>164.528</ele>
        <time>2019-09-24T13:10:57Z</time>
      </trkpt>
      <trkpt lat="44.88284" lon="0.57763">
        <ele>164.517</ele>
        <time>2019-09-24T13:11:06Z</time>
      </trkpt>
      <trkpt lat="44.88275" lon="0.57767">
        <ele>164.511</ele>
        <time>2019-09-24T13:11:09Z</time>
      </trkpt>
      <trkpt lat="44.88269" lon="0.57767">
        <ele>164.505</ele>
        <time>2019-09-24T13:11:12Z</time>
      </trkpt>
      <trkpt lat="44.88264" lon="0.57772">
        <ele>164.495</ele>
        <time>2019-09-24T13:11:18Z</time>
      </trkpt>
      <trkpt lat="44.88259" lon="0.57775">
        <ele>164.485</ele>
        <time>2019-09-24T13:11:24Z</time>
      </trkpt>
      <trkpt lat="44.88253" lon="0.57778">
        <ele>164.474</ele>
        <time>2019-09-24T13:11:30Z</time>
      </trkpt>
      <trkpt lat="44.88247" lon="0.57779">
        <ele>164.471</ele>
        <time>2019-09-24T13:11:32Z</time>
      </trkpt>
      <trkpt lat="44.88241" lon="0.5778">
        <ele>164.467</ele>
        <time>2019-09-24T13:11:36Z</time>
      </trkpt>
      <trkpt lat="44.88237" lon="0.57784">
        <ele>164.47</ele>
        <time>2019-09-24T13:11:39Z</time>
      </trkpt>
      <trkpt lat="44.88234" lon="0.57786">
        <ele>164.478</ele>
        <time>2019-09-24T13:11:43Z</time>
      </trkpt>
      <trkpt lat="44.8823" lon="0.57788">
        <ele>164.489</ele>
        <time>2019-09-24T13:11:48Z</time>
      </trkpt>
      <trkpt lat="44.88225" lon="0.57788">
        <ele>164.497</ele>
        <time>2019-09-24T13:11:53Z</time>
      </trkpt>
      <trkpt lat="44.8822" lon="0.5779">
        <ele>164.505</ele>
        <time>2019-09-24T13:12:00Z</time>
      </trkpt>
      <trkpt lat="44.88216" lon="0.57791">
        <ele>164.508</ele>
        <time>2019-09-24T13:12:02Z</time>
      </trkpt>
      <trkpt lat="44.88212" lon="0.57792">
        <ele>164.511</ele>
        <time>2019-09-24T13:12:04Z</time>
      </trkpt>
      <trkpt lat="44.88208" lon="0.57794">
        <ele>164.517</ele>
        <time>2019-09-24T13:12:08Z</time>
      </trkpt>
      <trkpt lat="44.88205" lon="0.57795">
        <ele>164.527</ele>
        <time>2019-09-24T13:12:13Z</time>
      </trkpt>
      <trkpt lat="44.88201" lon="0.57798">
        <ele>164.538</ele>
        <time>2019-09-24T13:12:19Z</time>
      </trkpt>
      <trkpt lat="44.88197" lon="0.57801">
        <ele>164.543</ele>
        <time>2019-09-24T13:12:21Z</time>
      </trkpt>
      <trkpt lat="44.88193" lon="0.57808">
        <ele>164.554</ele>
        <time>2019-09-24T13:12:24Z</time>
      </trkpt>
      <trkpt lat="44.88188" lon="0.57811">
        <ele>164.577</ele>
        <time>2019-09-24T13:12:28Z</time>
      </trkpt>
      <trkpt lat="44.88183" lon="0.57812">
        <ele>164.609</ele>
        <time>2019-09-24T13:12:32Z</time>
      </trkpt>
      <trkpt lat="44.88179" lon="0.57812">
        <ele>164.637</ele>
        <time>2019-09-24T13:12:35Z</time>
      </trkpt>
      <trkpt lat="44.88174" lon="0.57812">
        <ele>164.674</ele>
        <time>2019-09-24T13:12:39Z</time>
      </trkpt>
      <trkpt lat="44.8817" lon="0.57807">
        <ele>164.732</ele>
        <time>2019-09-24T13:12:45Z</time>
      </trkpt>
      <trkpt lat="44.88165" lon="0.57809">
        <ele>164.777</ele>
        <time>2019-09-24T13:12:50Z</time>
      </trkpt>
      <trkpt lat="44.88161" lon="0.57813">
        <ele>164.847</ele>
        <time>2019-09-24T13:12:58Z</time>
      </trkpt>
      <trkpt lat="44.88158" lon="0.57816">
        <ele>164.885</ele>
        <time>2019-09-24T13:13:01Z</time>
      </trkpt>
      <trkpt lat="44.88153" lon="0.57821">
        <ele>164.951</ele>
        <time>2019-09-24T13:13:06Z</time>
      </trkpt>
      <trkpt lat="44.88151" lon="0.57823">
        <ele>164.989</ele>
        <time>2019-09-24T13:13:09Z</time>
      </trkpt>
      <trkpt lat="44.88146" lon="0.57827">
        <ele>165.023</ele>
        <time>2019-09-24T13:13:12Z</time>
      </trkpt>
      <trkpt lat="44.88142" lon="0.57831">
        <ele>165.08</ele>
        <time>2019-09-24T13:13:16Z</time>
      </trkpt>
      <trkpt lat="44.88138" lon="0.57832">
        <ele>165.187</ele>
        <time>2019-09-24T13:13:23Z</time>
      </trkpt>
      <trkpt lat="44.88132" lon="0.57839">
        <ele>165.286</ele>
        <time>2019-09-24T13:13:30Z</time>
      </trkpt>
      <trkpt lat="44.88129" lon="0.57842">
        <ele>165.32</ele>
        <time>2019-09-24T13:13:33Z</time>
      </trkpt>
      <trkpt lat="44.88122" lon="0.57844">
        <ele>165.363</ele>
        <time>2019-09-24T13:13:37Z</time>
      </trkpt>
      <trkpt lat="44.88117" lon="0.57844">
        <ele>165.392</ele>
        <time>2019-09-24T13:13:40Z</time>
      </trkpt>
      <trkpt lat="44.88114" lon="0.57844">
        <ele>165.402</ele>
        <time>2019-09-24T13:13:41Z</time>
      </trkpt>
      <trkpt lat="44.88108" lon="0.57847">
        <ele>165.446</ele>
        <time>2019-09-24T13:13:46Z</time>
      </trkpt>
      <trkpt lat="44.88104" lon="0.57851">
        <ele>165.485</ele>
        <time>2019-09-24T13:13:52Z</time>
      </trkpt>
      <trkpt lat="44.881" lon="0.57853">
        <ele>165.499</ele>
        <time>2019-09-24T13:13:54Z</time>
      </trkpt>
      <trkpt lat="44.88097" lon="0.57858">
        <ele>165.522</ele>
        <time>2019-09-24T13:13:57Z</time>
      </trkpt>
      <trkpt lat="44.88093" lon="0.57862">
        <ele>165.547</ele>
        <time>2019-09-24T13:14:00Z</time>
      </trkpt>
      <trkpt lat="44.88092" lon="0.57865">
        <ele>165.555</ele>
        <time>2019-09-24T13:14:01Z</time>
      </trkpt>
      <trkpt lat="44.88088" lon="0.57871">
        <ele>165.573</ele>
        <time>2019-09-24T13:14:03Z</time>
      </trkpt>
      <trkpt lat="44.88087" lon="0.57874">
        <ele>165.584</ele>
        <time>2019-09-24T13:14:04Z</time>
      </trkpt>
      <trkpt lat="44.88084" lon="0.57878">
        <ele>165.615</ele>
        <time>2019-09-24T13:14:07Z</time>
      </trkpt>
      <trkpt lat="44.88083" lon="0.57882">
        <ele>165.645</ele>
        <time>2019-09-24T13:14:10Z</time>
      </trkpt>
      <trkpt lat="44.88081" lon="0.57885">
        <ele>165.686</ele>
        <time>2019-09-24T13:14:15Z</time>
      </trkpt>
      <trkpt lat="44.88076" lon="0.5789">
        <ele>165.713</ele>
        <time>2019-09-24T13:14:19Z</time>
      </trkpt>
      <trkpt lat="44.88073" lon="0.57892">
        <ele>165.728</ele>
        <time>2019-09-24T13:14:21Z</time>
      </trkpt>
      <trkpt lat="44.88069" lon="0.57895">
        <ele>165.75</ele>
        <time>2019-09-24T13:14:24Z</time>
      </trkpt>
      <trkpt lat="44.88063" lon="0.57895">
        <ele>165.797</ele>
        <time>2019-09-24T13:14:30Z</time>
      </trkpt>
      <trkpt lat="44.8806" lon="0.57895">
        <ele>165.814</ele>
        <time>2019-09-24T13:14:32Z</time>
      </trkpt>
      <trkpt lat="44.88055" lon="0.57894">
        <ele>165.842</ele>
        <time>2019-09-24T13:14:35Z</time>
      </trkpt>
      <trkpt lat="44.88051" lon="0.57891">
        <ele>165.872</ele>
        <time>2019-09-24T13:14:38Z</time>
      </trkpt>
      <trkpt lat="44.88045" lon="0.57889">
        <ele>165.914</ele>
        <time>2019-09-24T13:14:42Z</time>
      </trkpt>
      <trkpt lat="44.88039" lon="0.5789">
        <ele>165.96</ele>
        <time>2019-09-24T13:14:46Z</time>
      </trkpt>
      <trkpt lat="44.88034" lon="0.57891">
        <ele>166.022</ele>
        <time>2019-09-24T13:14:51Z</time>
      </trkpt>
      <trkpt lat="44.88029" lon="0.5789">
        <ele>166.068</ele>
        <time>2019-09-24T13:14:55Z</time>
      </trkpt>
      <trkpt lat="44.88025" lon="0.57889">
        <ele>166.103</ele>
        <time>2019-09-24T13:14:58Z</time>
      </trkpt>
      <trkpt lat="44.88022" lon="0.57889">
        <ele>166.127</ele>
        <time>2019-09-24T13:15:00Z</time>
      </trkpt>
      <trkpt lat="44.88018" lon="0.57889">
        <ele>166.15</ele>
        <time>2019-09-24T13:15:02Z</time>
      </trkpt>
      <trkpt lat="44.88013" lon="0.5789">
        <ele>166.207</ele>
        <time>2019-09-24T13:15:07Z</time>
      </trkpt>
      <trkpt lat="44.88008" lon="0.57894">
        <ele>166.249</ele>
        <time>2019-09-24T13:15:11Z</time>
      </trkpt>
      <trkpt lat="44.88001" lon="0.57895">
        <ele>166.299</ele>
        <time>2019-09-24T13:15:16Z</time>
      </trkpt>
      <trkpt lat="44.87996" lon="0.57897">
        <ele>166.339</ele>
        <time>2019-09-24T13:15:20Z</time>
      </trkpt>
      <trkpt lat="44.87992" lon="0.57899">
        <ele>166.369</ele>
        <time>2019-09-24T13:15:23Z</time>
      </trkpt>
      <trkpt lat="44.87987" lon="0.579">
        <ele>166.408</ele>
        <time>2019-09-24T13:15:27Z</time>
      </trkpt>
      <trkpt lat="44.87983" lon="0.57904">
        <ele>166.466</ele>
        <time>2019-09-24T13:15:33Z</time>
      </trkpt>
      <trkpt lat="44.87979" lon="0.57909">
        <ele>166.508</ele>
        <time>2019-09-24T13:15:37Z</time>
      </trkpt>
      <trkpt lat="44.87976" lon="0.57912">
        <ele>166.53</ele>
        <time>2019-09-24T13:15:39Z</time>
      </trkpt>
      <trkpt lat="44.87972" lon="0.57914">
        <ele>166.563</ele>
        <time>2019-09-24T13:15:42Z</time>
      </trkpt>
      <trkpt lat="44.87967" lon="0.57918">
        <ele>166.619</ele>
        <time>2019-09-24T13:15:47Z</time>
      </trkpt>
      <trkpt lat="44.87963" lon="0.57921">
        <ele>166.652</ele>
        <time>2019-09-24T13:15:50Z</time>
      </trkpt>
      <trkpt lat="44.8796" lon="0.57923">
        <ele>166.674</ele>
        <time>2019-09-24T13:15:52Z</time>
      </trkpt>
      <trkpt lat="44.87956" lon="0.57927">
        <ele>166.73</ele>
        <time>2019-09-24T13:15:57Z</time>
      </trkpt>
      <trkpt lat="44.87952" lon="0.57927">
        <ele>166.796</ele>
        <time>2019-09-24T13:16:03Z</time>
      </trkpt>
      <trkpt lat="44.87945" lon="0.57945">
        <ele>172.558</ele>
        <time>2019-09-24T13:21:12Z</time>
      </trkpt>
      <trkpt lat="44.87941" lon="0.5795">
        <ele>172.963</ele>
        <time>2019-09-24T13:21:19Z</time>
      </trkpt>
      <trkpt lat="44.87937" lon="0.57953">
        <ele>173.36</ele>
        <time>2019-09-24T13:21:27Z</time>
      </trkpt>
      <trkpt lat="44.87935" lon="0.57955">
        <ele>173.405</ele>
        <time>2019-09-24T13:21:28Z</time>
      </trkpt>
      <trkpt lat="44.8793" lon="0.57961">
        <ele>173.535</ele>
        <time>2019-09-24T13:21:31Z</time>
      </trkpt>
      <trkpt lat="44.87924" lon="0.57965">
        <ele>173.658</ele>
        <time>2019-09-24T13:21:34Z</time>
      </trkpt>
      <trkpt lat="44.87921" lon="0.5797">
        <ele>173.847</ele>
        <time>2019-09-24T13:21:39Z</time>
      </trkpt>
      <trkpt lat="44.87919" lon="0.57972">
        <ele>173.918</ele>
        <time>2019-09-24T13:21:41Z</time>
      </trkpt>
      <trkpt lat="44.87916" lon="0.57976">
        <ele>174.085</ele>
        <time>2019-09-24T13:21:46Z</time>
      </trkpt>
      <trkpt lat="44.87912" lon="0.57979">
        <ele>174.178</ele>
        <time>2019-09-24T13:21:49Z</time>
      </trkpt>
      <trkpt lat="44.87906" lon="0.57982">
        <ele>174.294</ele>
        <time>2019-09-24T13:21:53Z</time>
      </trkpt>
      <trkpt lat="44.87903" lon="0.57983">
        <ele>174.375</ele>
        <time>2019-09-24T13:21:56Z</time>
      </trkpt>
      <trkpt lat="44.87901" lon="0.57984">
        <ele>174.426</ele>
        <time>2019-09-24T13:21:58Z</time>
      </trkpt>
      <trkpt lat="44.87895" lon="0.57986">
        <ele>174.521</ele>
        <time>2019-09-24T13:22:02Z</time>
      </trkpt>
      <trkpt lat="44.8789" lon="0.5799">
        <ele>174.604</ele>
        <time>2019-09-24T13:22:06Z</time>
      </trkpt>
      <trkpt lat="44.87888" lon="0.57991">
        <ele>174.642</ele>
        <time>2019-09-24T13:22:08Z</time>
      </trkpt>
      <trkpt lat="44.87882" lon="0.57993">
        <ele>174.712</ele>
        <time>2019-09-24T13:22:12Z</time>
      </trkpt>
      <trkpt lat="44.87878" lon="0.57995">
        <ele>174.809</ele>
        <time>2019-09-24T13:22:18Z</time>
      </trkpt>
      <trkpt lat="44.87875" lon="0.57996">
        <ele>174.839</ele>
        <time>2019-09-24T13:22:20Z</time>
      </trkpt>
      <trkpt lat="44.87867" lon="0.58003">
        <ele>174.92</ele>
        <time>2019-09-24T13:22:26Z</time>
      </trkpt>
      <trkpt lat="44.87863" lon="0.58007">
        <ele>174.952</ele>
        <time>2019-09-24T13:22:28Z</time>
      </trkpt>
      <trkpt lat="44.87858" lon="0.58007">
        <ele>175</ele>
        <time>2019-09-24T13:22:31Z</time>
      </trkpt>
      <trkpt lat="44.87855" lon="0.58007">
        <ele>175.047</ele>
        <time>2019-09-24T13:22:34Z</time>
      </trkpt>
      <trkpt lat="44.87851" lon="0.58006">
        <ele>175.076</ele>
        <time>2019-09-24T13:22:36Z</time>
      </trkpt>
      <trkpt lat="44.87846" lon="0.58009">
        <ele>175.13</ele>
        <time>2019-09-24T13:22:40Z</time>
      </trkpt>
      <trkpt lat="44.87842" lon="0.5801">
        <ele>175.156</ele>
        <time>2019-09-24T13:22:42Z</time>
      </trkpt>
      <trkpt lat="44.87838" lon="0.58014">
        <ele>175.206</ele>
        <time>2019-09-24T13:22:46Z</time>
      </trkpt>
      <trkpt lat="44.87833" lon="0.58016">
        <ele>175.251</ele>
        <time>2019-09-24T13:22:50Z</time>
      </trkpt>
      <trkpt lat="44.8783" lon="0.58017">
        <ele>175.293</ele>
        <time>2019-09-24T13:22:54Z</time>
      </trkpt>
      <trkpt lat="44.87825" lon="0.58019">
        <ele>175.343</ele>
        <time>2019-09-24T13:23:00Z</time>
      </trkpt>
      <trkpt lat="44.87818" lon="0.58015">
        <ele>175.371</ele>
        <time>2019-09-24T13:23:03Z</time>
      </trkpt>
      <trkpt lat="44.87816" lon="0.58015">
        <ele>175.381</ele>
        <time>2019-09-24T13:23:04Z</time>
      </trkpt>
      <trkpt lat="44.87811" lon="0.58017">
        <ele>175.41</ele>
        <time>2019-09-24T13:23:07Z</time>
      </trkpt>
      <trkpt lat="44.87807" lon="0.58019">
        <ele>175.441</ele>
        <time>2019-09-24T13:23:10Z</time>
      </trkpt>
      <trkpt lat="44.87804" lon="0.5802">
        <ele>175.462</ele>
        <time>2019-09-24T13:23:12Z</time>
      </trkpt>
      <trkpt lat="44.87801" lon="0.58021">
        <ele>175.5</ele>
        <time>2019-09-24T13:23:16Z</time>
      </trkpt>
      <trkpt lat="44.87798" lon="0.58022">
        <ele>175.524</ele>
        <time>2019-09-24T13:23:19Z</time>
      </trkpt>
      <trkpt lat="44.87794" lon="0.58025">
        <ele>175.554</ele>
        <time>2019-09-24T13:23:24Z</time>
      </trkpt>
      <trkpt lat="44.87791" lon="0.58027">
        <ele>175.575</ele>
        <time>2019-09-24T13:23:27Z</time>
      </trkpt>
      <trkpt lat="44.87786" lon="0.58028">
        <ele>175.608</ele>
        <time>2019-09-24T13:23:32Z</time>
      </trkpt>
      <trkpt lat="44.8778" lon="0.58028">
        <ele>175.631</ele>
        <time>2019-09-24T13:23:36Z</time>
      </trkpt>
      <trkpt lat="44.87776" lon="0.58031">
        <ele>175.648</ele>
        <time>2019-09-24T13:23:40Z</time>
      </trkpt>
      <trkpt lat="44.87772" lon="0.58033">
        <ele>175.664</ele>
        <time>2019-09-24T13:23:43Z</time>
      </trkpt>
      <trkpt lat="44.87767" lon="0.58039">
        <ele>175.681</ele>
        <time>2019-09-24T13:23:46Z</time>
      </trkpt>
      <trkpt lat="44.87763" lon="0.58041">
        <ele>175.711</ele>
        <time>2019-09-24T13:23:51Z</time>
      </trkpt>
      <trkpt lat="44.87758" lon="0.58044">
        <ele>175.734</ele>
        <time>2019-09-24T13:23:55Z</time>
      </trkpt>
      <trkpt lat="44.87747" lon="0.58046">
        <ele>175.768</ele>
        <time>2019-09-24T13:24:01Z</time>
      </trkpt>
      <trkpt lat="44.87743" lon="0.58042">
        <ele>175.792</ele>
        <time>2019-09-24T13:24:05Z</time>
      </trkpt>
      <trkpt lat="44.87739" lon="0.58049">
        <ele>175.828</ele>
        <time>2019-09-24T13:24:11Z</time>
      </trkpt>
      <trkpt lat="44.87737" lon="0.58052">
        <ele>175.845</ele>
        <time>2019-09-24T13:24:14Z</time>
      </trkpt>
      <trkpt lat="44.87731" lon="0.58055">
        <ele>175.868</ele>
        <time>2019-09-24T13:24:19Z</time>
      </trkpt>
      <trkpt lat="44.87726" lon="0.58053">
        <ele>175.883</ele>
        <time>2019-09-24T13:24:24Z</time>
      </trkpt>
      <trkpt lat="44.87721" lon="0.58053">
        <ele>175.891</ele>
        <time>2019-09-24T13:24:27Z</time>
      </trkpt>
      <trkpt lat="44.87718" lon="0.58059">
        <ele>175.902</ele>
        <time>2019-09-24T13:24:32Z</time>
      </trkpt>
      <trkpt lat="44.87713" lon="0.58061">
        <ele>175.907</ele>
        <time>2019-09-24T13:24:35Z</time>
      </trkpt>
      <trkpt lat="44.87708" lon="0.58062">
        <ele>175.914</ele>
        <time>2019-09-24T13:24:39Z</time>
      </trkpt>
      <trkpt lat="44.87703" lon="0.58068">
        <ele>175.92</ele>
        <time>2019-09-24T13:24:43Z</time>
      </trkpt>
      <trkpt lat="44.87703" lon="0.58068">
        <ele>175.92</ele>
        <time>2019-09-24T13:24:48Z</time>
      </trkpt>
      <trkpt lat="44.87698" lon="0.58069">
        <ele>175.936</ele>
        <time>2019-09-24T13:24:49Z</time>
      </trkpt>
      <trkpt lat="44.87693" lon="0.58074">
        <ele>175.945</ele>
        <time>2019-09-24T13:24:53Z</time>
      </trkpt>
      <trkpt lat="44.87685" lon="0.58069">
        <ele>175.963</ele>
        <time>2019-09-24T13:24:58Z</time>
      </trkpt>
      <trkpt lat="44.87681" lon="0.58074">
        <ele>175.972</ele>
        <time>2019-09-24T13:25:02Z</time>
      </trkpt>
      <trkpt lat="44.87677" lon="0.58076">
        <ele>175.985</ele>
        <time>2019-09-24T13:25:05Z</time>
      </trkpt>
      <trkpt lat="44.87673" lon="0.58079">
        <ele>176.01</ele>
        <time>2019-09-24T13:25:10Z</time>
      </trkpt>
      <trkpt lat="44.8767" lon="0.58084">
        <ele>176.028</ele>
        <time>2019-09-24T13:25:14Z</time>
      </trkpt>
      <trkpt lat="44.87665" lon="0.58087">
        <ele>176.046</ele>
        <time>2019-09-24T13:25:18Z</time>
      </trkpt>
      <trkpt lat="44.8766" lon="0.58089">
        <ele>176.07</ele>
        <time>2019-09-24T13:25:23Z</time>
      </trkpt>
      <trkpt lat="44.87654" lon="0.58091">
        <ele>176.084</ele>
        <time>2019-09-24T13:25:26Z</time>
      </trkpt>
      <trkpt lat="44.87651" lon="0.58092">
        <ele>176.094</ele>
        <time>2019-09-24T13:25:28Z</time>
      </trkpt>
      <trkpt lat="44.87647" lon="0.58097">
        <ele>176.126</ele>
        <time>2019-09-24T13:25:35Z</time>
      </trkpt>
      <trkpt lat="44.87642" lon="0.58094">
        <ele>176.141</ele>
        <time>2019-09-24T13:25:40Z</time>
      </trkpt>
      <trkpt lat="44.87638" lon="0.58098">
        <ele>176.156</ele>
        <time>2019-09-24T13:25:44Z</time>
      </trkpt>
      <trkpt lat="44.87635" lon="0.58101">
        <ele>176.178</ele>
        <time>2019-09-24T13:25:49Z</time>
      </trkpt>
      <trkpt lat="44.87622" lon="0.58105">
        <ele>176.2</ele>
        <time>2019-09-24T13:25:53Z</time>
      </trkpt>
      <trkpt lat="44.87619" lon="0.58113">
        <ele>176.206</ele>
        <time>2019-09-24T13:25:54Z</time>
      </trkpt>
      <trkpt lat="44.87614" lon="0.58118">
        <ele>176.238</ele>
        <time>2019-09-24T13:25:59Z</time>
      </trkpt>
      <trkpt lat="44.87607" lon="0.58117">
        <ele>176.26</ele>
        <time>2019-09-24T13:26:02Z</time>
      </trkpt>
      <trkpt lat="44.87603" lon="0.58118">
        <ele>176.308</ele>
        <time>2019-09-24T13:26:07Z</time>
      </trkpt>
      <trkpt lat="44.87599" lon="0.58116">
        <ele>176.359</ele>
        <time>2019-09-24T13:26:12Z</time>
      </trkpt>
      <trkpt lat="44.87593" lon="0.58114">
        <ele>176.419</ele>
        <time>2019-09-24T13:26:18Z</time>
      </trkpt>
      <trkpt lat="44.8759" lon="0.58114">
        <ele>176.438</ele>
        <time>2019-09-24T13:26:20Z</time>
      </trkpt>
      <trkpt lat="44.87585" lon="0.58111">
        <ele>176.466</ele>
        <time>2019-09-24T13:26:23Z</time>
      </trkpt>
      <trkpt lat="44.87579" lon="0.58111">
        <ele>176.504</ele>
        <time>2019-09-24T13:26:27Z</time>
      </trkpt>
      <trkpt lat="44.87577" lon="0.58112">
        <ele>176.524</ele>
        <time>2019-09-24T13:26:29Z</time>
      </trkpt>
      <trkpt lat="44.87574" lon="0.58111">
        <ele>176.585</ele>
        <time>2019-09-24T13:26:35Z</time>
      </trkpt>
      <trkpt lat="44.87569" lon="0.58115">
        <ele>176.642</ele>
        <time>2019-09-24T13:26:40Z</time>
      </trkpt>
      <trkpt lat="44.87564" lon="0.58116">
        <ele>176.694</ele>
        <time>2019-09-24T13:26:44Z</time>
      </trkpt>
      <trkpt lat="44.87554" lon="0.58118">
        <ele>176.768</ele>
        <time>2019-09-24T13:26:49Z</time>
      </trkpt>
      <trkpt lat="44.87549" lon="0.58118">
        <ele>176.897</ele>
        <time>2019-09-24T13:26:57Z</time>
      </trkpt>
      <trkpt lat="44.87544" lon="0.5812">
        <ele>176.954</ele>
        <time>2019-09-24T13:27:00Z</time>
      </trkpt>
      <trkpt lat="44.87539" lon="0.58121">
        <ele>177.02</ele>
        <time>2019-09-24T13:27:03Z</time>
      </trkpt>
      <trkpt lat="44.87534" lon="0.58122">
        <ele>177.095</ele>
        <time>2019-09-24T13:27:06Z</time>
      </trkpt>
      <trkpt lat="44.8753" lon="0.58124">
        <ele>177.204</ele>
        <time>2019-09-24T13:27:10Z</time>
      </trkpt>
      <trkpt lat="44.87527" lon="0.58125">
        <ele>177.262</ele>
        <time>2019-09-24T13:27:12Z</time>
      </trkpt>
      <trkpt lat="44.87525" lon="0.58127">
        <ele>177.324</ele>
        <time>2019-09-24T13:27:14Z</time>
      </trkpt>
      <trkpt lat="44.87521" lon="0.58129">
        <ele>177.533</ele>
        <time>2019-09-24T13:27:21Z</time>
      </trkpt>
      <trkpt lat="44.87517" lon="0.5813">
        <ele>177.645</ele>
        <time>2019-09-24T13:27:25Z</time>
      </trkpt>
      <trkpt lat="44.87512" lon="0.58137">
        <ele>177.833</ele>
        <time>2019-09-24T13:27:32Z</time>
      </trkpt>
      <trkpt lat="44.87508" lon="0.5814">
        <ele>177.914</ele>
        <time>2019-09-24T13:27:35Z</time>
      </trkpt>
      <trkpt lat="44.87506" lon="0.58143">
        <ele>177.968</ele>
        <time>2019-09-24T13:27:37Z</time>
      </trkpt>
      <trkpt lat="44.87501" lon="0.58146">
        <ele>178.05</ele>
        <time>2019-09-24T13:27:40Z</time>
      </trkpt>
      <trkpt lat="44.87499" lon="0.58148">
        <ele>178.105</ele>
        <time>2019-09-24T13:27:42Z</time>
      </trkpt>
      <trkpt lat="44.87497" lon="0.58149">
        <ele>178.16</ele>
        <time>2019-09-24T13:27:44Z</time>
      </trkpt>
      <trkpt lat="44.87492" lon="0.5815">
        <ele>178.389</ele>
        <time>2019-09-24T13:27:53Z</time>
      </trkpt>
      <trkpt lat="44.87487" lon="0.58154">
        <ele>178.561</ele>
        <time>2019-09-24T13:27:59Z</time>
      </trkpt>
      <trkpt lat="44.87482" lon="0.58154">
        <ele>178.673</ele>
        <time>2019-09-24T13:28:03Z</time>
      </trkpt>
      <trkpt lat="44.87476" lon="0.58156">
        <ele>178.788</ele>
        <time>2019-09-24T13:28:07Z</time>
      </trkpt>
      <trkpt lat="44.87473" lon="0.58157">
        <ele>178.85</ele>
        <time>2019-09-24T13:28:09Z</time>
      </trkpt>
      <trkpt lat="44.8747" lon="0.58159">
        <ele>179.131</ele>
        <time>2019-09-24T13:28:18Z</time>
      </trkpt>
      <trkpt lat="44.87467" lon="0.58166">
        <ele>179.297</ele>
        <time>2019-09-24T13:28:24Z</time>
      </trkpt>
      <trkpt lat="44.87463" lon="0.5817">
        <ele>179.373</ele>
        <time>2019-09-24T13:28:27Z</time>
      </trkpt>
      <trkpt lat="44.87459" lon="0.58172">
        <ele>179.512</ele>
        <time>2019-09-24T13:28:33Z</time>
      </trkpt>
      <trkpt lat="44.87456" lon="0.58173">
        <ele>179.555</ele>
        <time>2019-09-24T13:28:35Z</time>
      </trkpt>
      <trkpt lat="44.87452" lon="0.58177">
        <ele>179.673</ele>
        <time>2019-09-24T13:28:41Z</time>
      </trkpt>
      <trkpt lat="44.87447" lon="0.58184">
        <ele>179.726</ele>
        <time>2019-09-24T13:28:45Z</time>
      </trkpt>
      <trkpt lat="44.87443" lon="0.58188">
        <ele>179.776</ele>
        <time>2019-09-24T13:28:48Z</time>
      </trkpt>
      <trkpt lat="44.87441" lon="0.58191">
        <ele>179.824</ele>
        <time>2019-09-24T13:28:51Z</time>
      </trkpt>
      <trkpt lat="44.87439" lon="0.58193">
        <ele>179.868</ele>
        <time>2019-09-24T13:28:54Z</time>
      </trkpt>
      <trkpt lat="44.87436" lon="0.58197">
        <ele>179.897</ele>
        <time>2019-09-24T13:28:57Z</time>
      </trkpt>
      <trkpt lat="44.87431" lon="0.58199">
        <ele>179.952</ele>
        <time>2019-09-24T13:29:02Z</time>
      </trkpt>
      <trkpt lat="44.87428" lon="0.58201">
        <ele>179.989</ele>
        <time>2019-09-24T13:29:05Z</time>
      </trkpt>
      <trkpt lat="44.87424" lon="0.58204">
        <ele>180.033</ele>
        <time>2019-09-24T13:29:09Z</time>
      </trkpt>
      <trkpt lat="44.87419" lon="0.58206">
        <ele>180.071</ele>
        <time>2019-09-24T13:29:13Z</time>
      </trkpt>
      <trkpt lat="44.87415" lon="0.58212">
        <ele>180.098</ele>
        <time>2019-09-24T13:29:16Z</time>
      </trkpt>
      <trkpt lat="44.8741" lon="0.58216">
        <ele>180.127</ele>
        <time>2019-09-24T13:29:19Z</time>
      </trkpt>
      <trkpt lat="44.87405" lon="0.58222">
        <ele>180.155</ele>
        <time>2019-09-24T13:29:22Z</time>
      </trkpt>
      <trkpt lat="44.87401" lon="0.58225">
        <ele>180.195</ele>
        <time>2019-09-24T13:29:26Z</time>
      </trkpt>
      <trkpt lat="44.87396" lon="0.58228">
        <ele>180.247</ele>
        <time>2019-09-24T13:29:31Z</time>
      </trkpt>
      <trkpt lat="44.87391" lon="0.58231">
        <ele>180.323</ele>
        <time>2019-09-24T13:29:38Z</time>
      </trkpt>
      <trkpt lat="44.87385" lon="0.58232">
        <ele>180.408</ele>
        <time>2019-09-24T13:29:45Z</time>
      </trkpt>
      <trkpt lat="44.87381" lon="0.58235">
        <ele>180.482</ele>
        <time>2019-09-24T13:29:51Z</time>
      </trkpt>
      <trkpt lat="44.87376" lon="0.58234">
        <ele>180.508</ele>
        <time>2019-09-24T13:29:53Z</time>
      </trkpt>
      <trkpt lat="44.87372" lon="0.58237">
        <ele>180.535</ele>
        <time>2019-09-24T13:29:55Z</time>
      </trkpt>
      <trkpt lat="44.87368" lon="0.58241">
        <ele>180.563</ele>
        <time>2019-09-24T13:29:57Z</time>
      </trkpt>
      <trkpt lat="44.8736" lon="0.58241">
        <ele>180.639</ele>
        <time>2019-09-24T13:30:02Z</time>
      </trkpt>
      <trkpt lat="44.87356" lon="0.58242">
        <ele>180.689</ele>
        <time>2019-09-24T13:30:07Z</time>
      </trkpt>
      <trkpt lat="44.8735" lon="0.58242">
        <ele>180.762</ele>
        <time>2019-09-24T13:30:12Z</time>
      </trkpt>
      <trkpt lat="44.87345" lon="0.58242">
        <ele>180.79</ele>
        <time>2019-09-24T13:30:14Z</time>
      </trkpt>
      <trkpt lat="44.8734" lon="0.58246">
        <ele>180.87</ele>
        <time>2019-09-24T13:30:20Z</time>
      </trkpt>
      <trkpt lat="44.87337" lon="0.58251">
        <ele>180.912</ele>
        <time>2019-09-24T13:30:23Z</time>
      </trkpt>
      <trkpt lat="44.87332" lon="0.58254">
        <ele>181.002</ele>
        <time>2019-09-24T13:30:30Z</time>
      </trkpt>
      <trkpt lat="44.87327" lon="0.58254">
        <ele>181.04</ele>
        <time>2019-09-24T13:30:33Z</time>
      </trkpt>
      <trkpt lat="44.87323" lon="0.58253">
        <ele>181.1</ele>
        <time>2019-09-24T13:30:38Z</time>
      </trkpt>
      <trkpt lat="44.87316" lon="0.58257">
        <ele>181.134</ele>
        <time>2019-09-24T13:30:41Z</time>
      </trkpt>
      <trkpt lat="44.87311" lon="0.58258">
        <ele>181.183</ele>
        <time>2019-09-24T13:30:45Z</time>
      </trkpt>
      <trkpt lat="44.87308" lon="0.58259">
        <ele>181.222</ele>
        <time>2019-09-24T13:30:48Z</time>
      </trkpt>
      <trkpt lat="44.873" lon="0.58264">
        <ele>181.303</ele>
        <time>2019-09-24T13:30:53Z</time>
      </trkpt>
      <trkpt lat="44.87296" lon="0.58267">
        <ele>181.357</ele>
        <time>2019-09-24T13:30:56Z</time>
      </trkpt>
      <trkpt lat="44.87291" lon="0.58267">
        <ele>181.433</ele>
        <time>2019-09-24T13:31:01Z</time>
      </trkpt>
      <trkpt lat="44.87287" lon="0.58267">
        <ele>181.469</ele>
        <time>2019-09-24T13:31:03Z</time>
      </trkpt>
      <trkpt lat="44.87283" lon="0.58267">
        <ele>181.522</ele>
        <time>2019-09-24T13:31:06Z</time>
      </trkpt>
      <trkpt lat="44.87278" lon="0.5827">
        <ele>181.592</ele>
        <time>2019-09-24T13:31:10Z</time>
      </trkpt>
      <trkpt lat="44.87274" lon="0.5827">
        <ele>181.659</ele>
        <time>2019-09-24T13:31:14Z</time>
      </trkpt>
      <trkpt lat="44.8727" lon="0.58274">
        <ele>181.739</ele>
        <time>2019-09-24T13:31:19Z</time>
      </trkpt>
      <trkpt lat="44.87262" lon="0.58276">
        <ele>181.823</ele>
        <time>2019-09-24T13:31:25Z</time>
      </trkpt>
      <trkpt lat="44.87258" lon="0.58282">
        <ele>181.874</ele>
        <time>2019-09-24T13:31:29Z</time>
      </trkpt>
      <trkpt lat="44.87254" lon="0.58282">
        <ele>181.944</ele>
        <time>2019-09-24T13:31:35Z</time>
      </trkpt>
      <trkpt lat="44.87248" lon="0.58284">
        <ele>181.991</ele>
        <time>2019-09-24T13:31:39Z</time>
      </trkpt>
      <trkpt lat="44.87244" lon="0.58288">
        <ele>182.039</ele>
        <time>2019-09-24T13:31:43Z</time>
      </trkpt>
      <trkpt lat="44.87241" lon="0.58291">
        <ele>182.075</ele>
        <time>2019-09-24T13:31:46Z</time>
      </trkpt>
      <trkpt lat="44.87236" lon="0.58292">
        <ele>182.145</ele>
        <time>2019-09-24T13:31:52Z</time>
      </trkpt>
      <trkpt lat="44.87231" lon="0.58295">
        <ele>182.201</ele>
        <time>2019-09-24T13:31:57Z</time>
      </trkpt>
      <trkpt lat="44.87228" lon="0.58298">
        <ele>182.222</ele>
        <time>2019-09-24T13:31:59Z</time>
      </trkpt>
      <trkpt lat="44.87225" lon="0.58301">
        <ele>182.254</ele>
        <time>2019-09-24T13:32:02Z</time>
      </trkpt>
      <trkpt lat="44.87221" lon="0.58304">
        <ele>182.292</ele>
        <time>2019-09-24T13:32:06Z</time>
      </trkpt>
      <trkpt lat="44.87218" lon="0.58309">
        <ele>182.319</ele>
        <time>2019-09-24T13:32:09Z</time>
      </trkpt>
      <trkpt lat="44.87213" lon="0.58312">
        <ele>182.359</ele>
        <time>2019-09-24T13:32:14Z</time>
      </trkpt>
      <trkpt lat="44.87209" lon="0.58316">
        <ele>182.378</ele>
        <time>2019-09-24T13:32:17Z</time>
      </trkpt>
      <trkpt lat="44.87207" lon="0.58318">
        <ele>182.391</ele>
        <time>2019-09-24T13:32:19Z</time>
      </trkpt>
      <trkpt lat="44.87202" lon="0.5832">
        <ele>182.419</ele>
        <time>2019-09-24T13:32:24Z</time>
      </trkpt>
      <trkpt lat="44.87198" lon="0.58324">
        <ele>182.438</ele>
        <time>2019-09-24T13:32:27Z</time>
      </trkpt>
      <trkpt lat="44.87196" lon="0.58326">
        <ele>182.45</ele>
        <time>2019-09-24T13:32:29Z</time>
      </trkpt>
      <trkpt lat="44.87192" lon="0.58331">
        <ele>182.469</ele>
        <time>2019-09-24T13:32:32Z</time>
      </trkpt>
      <trkpt lat="44.87188" lon="0.58338">
        <ele>182.497</ele>
        <time>2019-09-24T13:32:35Z</time>
      </trkpt>
      <trkpt lat="44.87186" lon="0.58342">
        <ele>182.542</ele>
        <time>2019-09-24T13:32:39Z</time>
      </trkpt>
      <trkpt lat="44.87184" lon="0.5835">
        <ele>182.605</ele>
        <time>2019-09-24T13:32:44Z</time>
      </trkpt>
      <trkpt lat="44.87182" lon="0.58354">
        <ele>182.634</ele>
        <time>2019-09-24T13:32:46Z</time>
      </trkpt>
      <trkpt lat="44.87181" lon="0.58361">
        <ele>182.695</ele>
        <time>2019-09-24T13:32:50Z</time>
      </trkpt>
      <trkpt lat="44.87178" lon="0.58366">
        <ele>182.741</ele>
        <time>2019-09-24T13:32:53Z</time>
      </trkpt>
      <trkpt lat="44.87175" lon="0.5837">
        <ele>182.786</ele>
        <time>2019-09-24T13:32:56Z</time>
      </trkpt>
      <trkpt lat="44.87172" lon="0.58375">
        <ele>182.83</ele>
        <time>2019-09-24T13:32:59Z</time>
      </trkpt>
      <trkpt lat="44.87169" lon="0.5838">
        <ele>182.86</ele>
        <time>2019-09-24T13:33:01Z</time>
      </trkpt>
      <trkpt lat="44.87166" lon="0.58386">
        <ele>182.906</ele>
        <time>2019-09-24T13:33:04Z</time>
      </trkpt>
      <trkpt lat="44.87165" lon="0.58389">
        <ele>182.935</ele>
        <time>2019-09-24T13:33:06Z</time>
      </trkpt>
      <trkpt lat="44.87163" lon="0.58393">
        <ele>182.963</ele>
        <time>2019-09-24T13:33:08Z</time>
      </trkpt>
      <trkpt lat="44.8716" lon="0.58398">
        <ele>183.03</ele>
        <time>2019-09-24T13:33:13Z</time>
      </trkpt>
      <trkpt lat="44.87156" lon="0.58402">
        <ele>183.085</ele>
        <time>2019-09-24T13:33:18Z</time>
      </trkpt>
      <trkpt lat="44.87152" lon="0.58408">
        <ele>183.144</ele>
        <time>2019-09-24T13:33:23Z</time>
      </trkpt>
      <trkpt lat="44.8715" lon="0.58411">
        <ele>183.165</ele>
        <time>2019-09-24T13:33:25Z</time>
      </trkpt>
      <trkpt lat="44.87146" lon="0.58415">
        <ele>183.193</ele>
        <time>2019-09-24T13:33:28Z</time>
      </trkpt>
      <trkpt lat="44.87143" lon="0.58419">
        <ele>183.221</ele>
        <time>2019-09-24T13:33:31Z</time>
      </trkpt>
      <trkpt lat="44.87139" lon="0.58423">
        <ele>183.257</ele>
        <time>2019-09-24T13:33:35Z</time>
      </trkpt>
      <trkpt lat="44.87135" lon="0.58427">
        <ele>183.292</ele>
        <time>2019-09-24T13:33:39Z</time>
      </trkpt>
      <trkpt lat="44.8713" lon="0.5843">
        <ele>183.317</ele>
        <time>2019-09-24T13:33:42Z</time>
      </trkpt>
      <trkpt lat="44.87127" lon="0.58432">
        <ele>183.334</ele>
        <time>2019-09-24T13:33:44Z</time>
      </trkpt>
      <trkpt lat="44.87125" lon="0.58434">
        <ele>183.353</ele>
        <time>2019-09-24T13:33:46Z</time>
      </trkpt>
      <trkpt lat="44.87121" lon="0.58437">
        <ele>183.384</ele>
        <time>2019-09-24T13:33:49Z</time>
      </trkpt>
      <trkpt lat="44.87119" lon="0.58438">
        <ele>183.407</ele>
        <time>2019-09-24T13:33:51Z</time>
      </trkpt>
      <trkpt lat="44.87115" lon="0.58442">
        <ele>183.453</ele>
        <time>2019-09-24T13:33:55Z</time>
      </trkpt>
      <trkpt lat="44.87113" lon="0.58444">
        <ele>183.476</ele>
        <time>2019-09-24T13:33:57Z</time>
      </trkpt>
      <trkpt lat="44.87108" lon="0.58448">
        <ele>183.532</ele>
        <time>2019-09-24T13:34:02Z</time>
      </trkpt>
      <trkpt lat="44.87103" lon="0.58451">
        <ele>183.574</ele>
        <time>2019-09-24T13:34:06Z</time>
      </trkpt>
      <trkpt lat="44.87099" lon="0.58454">
        <ele>183.614</ele>
        <time>2019-09-24T13:34:10Z</time>
      </trkpt>
      <trkpt lat="44.87094" lon="0.58458">
        <ele>183.658</ele>
        <time>2019-09-24T13:34:14Z</time>
      </trkpt>
      <trkpt lat="44.87091" lon="0.58461">
        <ele>183.689</ele>
        <time>2019-09-24T13:34:17Z</time>
      </trkpt>
      <trkpt lat="44.87087" lon="0.58463">
        <ele>183.73</ele>
        <time>2019-09-24T13:34:21Z</time>
      </trkpt>
      <trkpt lat="44.87083" lon="0.58464">
        <ele>183.757</ele>
        <time>2019-09-24T13:34:24Z</time>
      </trkpt>
      <trkpt lat="44.87078" lon="0.58468">
        <ele>183.792</ele>
        <time>2019-09-24T13:34:28Z</time>
      </trkpt>
      <trkpt lat="44.87075" lon="0.58469">
        <ele>183.808</ele>
        <time>2019-09-24T13:34:30Z</time>
      </trkpt>
      <trkpt lat="44.87071" lon="0.58473">
        <ele>183.831</ele>
        <time>2019-09-24T13:34:33Z</time>
      </trkpt>
      <trkpt lat="44.87068" lon="0.58476">
        <ele>183.853</ele>
        <time>2019-09-24T13:34:36Z</time>
      </trkpt>
      <trkpt lat="44.87064" lon="0.58479">
        <ele>183.879</ele>
        <time>2019-09-24T13:34:40Z</time>
      </trkpt>
      <trkpt lat="44.8706" lon="0.58484">
        <ele>183.902</ele>
        <time>2019-09-24T13:34:44Z</time>
      </trkpt>
      <trkpt lat="44.87057" lon="0.58486">
        <ele>183.921</ele>
        <time>2019-09-24T13:34:48Z</time>
      </trkpt>
      <trkpt lat="44.87055" lon="0.58489">
        <ele>183.93</ele>
        <time>2019-09-24T13:34:50Z</time>
      </trkpt>
      <trkpt lat="44.87053" lon="0.58491">
        <ele>183.94</ele>
        <time>2019-09-24T13:34:53Z</time>
      </trkpt>
      <trkpt lat="44.87048" lon="0.58494">
        <ele>183.947</ele>
        <time>2019-09-24T13:34:57Z</time>
      </trkpt>
      <trkpt lat="44.87044" lon="0.58498">
        <ele>183.941</ele>
        <time>2019-09-24T13:35:01Z</time>
      </trkpt>
      <trkpt lat="44.87041" lon="0.585">
        <ele>183.929</ele>
        <time>2019-09-24T13:35:04Z</time>
      </trkpt>
      <trkpt lat="44.87036" lon="0.58502">
        <ele>183.9</ele>
        <time>2019-09-24T13:35:08Z</time>
      </trkpt>
      <trkpt lat="44.87034" lon="0.58503">
        <ele>183.881</ele>
        <time>2019-09-24T13:35:10Z</time>
      </trkpt>
      <trkpt lat="44.87029" lon="0.58507">
        <ele>183.837</ele>
        <time>2019-09-24T13:35:14Z</time>
      </trkpt>
      <trkpt lat="44.87027" lon="0.58508">
        <ele>183.814</ele>
        <time>2019-09-24T13:35:16Z</time>
      </trkpt>
      <trkpt lat="44.87023" lon="0.58509">
        <ele>183.778</ele>
        <time>2019-09-24T13:35:19Z</time>
      </trkpt>
      <trkpt lat="44.87019" lon="0.58514">
        <ele>183.729</ele>
        <time>2019-09-24T13:35:23Z</time>
      </trkpt>
      <trkpt lat="44.87014" lon="0.58516">
        <ele>183.644</ele>
        <time>2019-09-24T13:35:29Z</time>
      </trkpt>
      <trkpt lat="44.87011" lon="0.58518">
        <ele>183.611</ele>
        <time>2019-09-24T13:35:31Z</time>
      </trkpt>
      <trkpt lat="44.87008" lon="0.58521">
        <ele>183.577</ele>
        <time>2019-09-24T13:35:33Z</time>
      </trkpt>
      <trkpt lat="44.87004" lon="0.58524">
        <ele>183.524</ele>
        <time>2019-09-24T13:35:36Z</time>
      </trkpt>
      <trkpt lat="44.87002" lon="0.58527">
        <ele>183.489</ele>
        <time>2019-09-24T13:35:38Z</time>
      </trkpt>
      <trkpt lat="44.86998" lon="0.58532">
        <ele>183.416</ele>
        <time>2019-09-24T13:35:42Z</time>
      </trkpt>
      <trkpt lat="44.86996" lon="0.58538">
        <ele>183.321</ele>
        <time>2019-09-24T13:35:47Z</time>
      </trkpt>
      <trkpt lat="44.86994" lon="0.58545">
        <ele>183.245</ele>
        <time>2019-09-24T13:35:51Z</time>
      </trkpt>
      <trkpt lat="44.86991" lon="0.58551">
        <ele>183.171</ele>
        <time>2019-09-24T13:35:55Z</time>
      </trkpt>
      <trkpt lat="44.8699" lon="0.58553">
        <ele>183.107</ele>
        <time>2019-09-24T13:36:03Z</time>
      </trkpt>
      <trkpt lat="44.86986" lon="0.58557">
        <ele>182.906</ele>
        <time>2019-09-24T13:36:21Z</time>
      </trkpt>
      <trkpt lat="44.86984" lon="0.58562">
        <ele>182.819</ele>
        <time>2019-09-24T13:36:25Z</time>
      </trkpt>
      <trkpt lat="44.86982" lon="0.58565">
        <ele>182.777</ele>
        <time>2019-09-24T13:36:27Z</time>
      </trkpt>
      <trkpt lat="44.8698" lon="0.58568">
        <ele>182.736</ele>
        <time>2019-09-24T13:36:29Z</time>
      </trkpt>
      <trkpt lat="44.86977" lon="0.58573">
        <ele>182.671</ele>
        <time>2019-09-24T13:36:32Z</time>
      </trkpt>
      <trkpt lat="44.86972" lon="0.58577">
        <ele>182.58</ele>
        <time>2019-09-24T13:36:36Z</time>
      </trkpt>
      <trkpt lat="44.86968" lon="0.58579">
        <ele>182.486</ele>
        <time>2019-09-24T13:36:40Z</time>
      </trkpt>
      <trkpt lat="44.86964" lon="0.5858">
        <ele>182.414</ele>
        <time>2019-09-24T13:36:43Z</time>
      </trkpt>
      <trkpt lat="44.86959" lon="0.5858">
        <ele>182.315</ele>
        <time>2019-09-24T13:36:47Z</time>
      </trkpt>
      <trkpt lat="44.86954" lon="0.5858">
        <ele>182.19</ele>
        <time>2019-09-24T13:36:52Z</time>
      </trkpt>
      <trkpt lat="44.86949" lon="0.58582">
        <ele>182.091</ele>
        <time>2019-09-24T13:36:56Z</time>
      </trkpt>
      <trkpt lat="44.86947" lon="0.58583">
        <ele>182.043</ele>
        <time>2019-09-24T13:36:58Z</time>
      </trkpt>
      <trkpt lat="44.86941" lon="0.58584">
        <ele>181.922</ele>
        <time>2019-09-24T13:37:03Z</time>
      </trkpt>
      <trkpt lat="44.86936" lon="0.58584">
        <ele>181.805</ele>
        <time>2019-09-24T13:37:08Z</time>
      </trkpt>
      <trkpt lat="44.8693" lon="0.58585">
        <ele>181.695</ele>
        <time>2019-09-24T13:37:13Z</time>
      </trkpt>
      <trkpt lat="44.86927" lon="0.58585">
        <ele>181.631</ele>
        <time>2019-09-24T13:37:16Z</time>
      </trkpt>
      <trkpt lat="44.86922" lon="0.58588">
        <ele>181.566</ele>
        <time>2019-09-24T13:37:19Z</time>
      </trkpt>
      <trkpt lat="44.86918" lon="0.58591">
        <ele>181.501</ele>
        <time>2019-09-24T13:37:22Z</time>
      </trkpt>
      <trkpt lat="44.86913" lon="0.58593">
        <ele>181.39</ele>
        <time>2019-09-24T13:37:27Z</time>
      </trkpt>
      <trkpt lat="44.86911" lon="0.58594">
        <ele>181.345</ele>
        <time>2019-09-24T13:37:29Z</time>
      </trkpt>
      <trkpt lat="44.86905" lon="0.58597">
        <ele>181.23</ele>
        <time>2019-09-24T13:37:34Z</time>
      </trkpt>
      <trkpt lat="44.869" lon="0.58598">
        <ele>181.161</ele>
        <time>2019-09-24T13:37:37Z</time>
      </trkpt>
      <trkpt lat="44.86897" lon="0.58599">
        <ele>181.095</ele>
        <time>2019-09-24T13:37:40Z</time>
      </trkpt>
      <trkpt lat="44.86894" lon="0.586">
        <ele>181.052</ele>
        <time>2019-09-24T13:37:42Z</time>
      </trkpt>
      <trkpt lat="44.86891" lon="0.58601">
        <ele>181.009</ele>
        <time>2019-09-24T13:37:44Z</time>
      </trkpt>
      <trkpt lat="44.86887" lon="0.58602">
        <ele>180.923</ele>
        <time>2019-09-24T13:37:48Z</time>
      </trkpt>
      <trkpt lat="44.86883" lon="0.58602">
        <ele>180.858</ele>
        <time>2019-09-24T13:37:51Z</time>
      </trkpt>
      <trkpt lat="44.86878" lon="0.58603">
        <ele>180.751</ele>
        <time>2019-09-24T13:37:56Z</time>
      </trkpt>
      <trkpt lat="44.86873" lon="0.58606">
        <ele>180.646</ele>
        <time>2019-09-24T13:38:01Z</time>
      </trkpt>
      <trkpt lat="44.86868" lon="0.58606">
        <ele>180.541</ele>
        <time>2019-09-24T13:38:06Z</time>
      </trkpt>
      <trkpt lat="44.86862" lon="0.58606">
        <ele>180.458</ele>
        <time>2019-09-24T13:38:10Z</time>
      </trkpt>
      <trkpt lat="44.8686" lon="0.58606">
        <ele>180.438</ele>
        <time>2019-09-24T13:38:11Z</time>
      </trkpt>
      <trkpt lat="44.86854" lon="0.5861">
        <ele>180.377</ele>
        <time>2019-09-24T13:38:14Z</time>
      </trkpt>
      <trkpt lat="44.86852" lon="0.58616">
        <ele>180.317</ele>
        <time>2019-09-24T13:38:17Z</time>
      </trkpt>
      <trkpt lat="44.86849" lon="0.58622">
        <ele>180.238</ele>
        <time>2019-09-24T13:38:21Z</time>
      </trkpt>
      <trkpt lat="44.86847" lon="0.58625">
        <ele>180.2</ele>
        <time>2019-09-24T13:38:23Z</time>
      </trkpt>
      <trkpt lat="44.86844" lon="0.5863">
        <ele>180.128</ele>
        <time>2019-09-24T13:38:27Z</time>
      </trkpt>
      <trkpt lat="44.86842" lon="0.58634">
        <ele>180.076</ele>
        <time>2019-09-24T13:38:30Z</time>
      </trkpt>
      <trkpt lat="44.86841" lon="0.58641">
        <ele>180.005</ele>
        <time>2019-09-24T13:38:34Z</time>
      </trkpt>
      <trkpt lat="44.86841" lon="0.58645">
        <ele>179.949</ele>
        <time>2019-09-24T13:38:37Z</time>
      </trkpt>
      <trkpt lat="44.8684" lon="0.58651">
        <ele>179.869</ele>
        <time>2019-09-24T13:38:41Z</time>
      </trkpt>
      <trkpt lat="44.8684" lon="0.58655">
        <ele>179.808</ele>
        <time>2019-09-24T13:38:44Z</time>
      </trkpt>
      <trkpt lat="44.86838" lon="0.58662">
        <ele>179.724</ele>
        <time>2019-09-24T13:38:48Z</time>
      </trkpt>
      <trkpt lat="44.86836" lon="0.58669">
        <ele>179.635</ele>
        <time>2019-09-24T13:38:52Z</time>
      </trkpt>
      <trkpt lat="44.86835" lon="0.58672">
        <ele>179.589</ele>
        <time>2019-09-24T13:38:54Z</time>
      </trkpt>
      <trkpt lat="44.86834" lon="0.5868">
        <ele>179.5</ele>
        <time>2019-09-24T13:38:58Z</time>
      </trkpt>
      <trkpt lat="44.86836" lon="0.58686">
        <ele>179.436</ele>
        <time>2019-09-24T13:39:01Z</time>
      </trkpt>
      <trkpt lat="44.86839" lon="0.58692">
        <ele>179.356</ele>
        <time>2019-09-24T13:39:05Z</time>
      </trkpt>
      <trkpt lat="44.86841" lon="0.58694">
        <ele>179.318</ele>
        <time>2019-09-24T13:39:07Z</time>
      </trkpt>
      <trkpt lat="44.86843" lon="0.58701">
        <ele>179.245</ele>
        <time>2019-09-24T13:39:11Z</time>
      </trkpt>
      <trkpt lat="44.86843" lon="0.58701">
        <ele>105.6</ele>
        <time>2019-09-24T13:39:25Z</time>
      </trkpt>
      <trkpt lat="44.86843" lon="0.58701">
        <ele>105.6</ele>
        <time>2019-09-24T13:39:30Z</time>
      </trkpt>
    </trkseg>
  </trk>
</gpx>